<?xml version='1.0' encoding='UTF-8'?><gpx version="1.1" creator="JPX - https://github.com/jenetics/jpx" xmlns="http://www.topografix.com/GPX/1/1"><trk><trkseg><trkpt lat="46.17754660509449" lon="12.883494575187507"><ele>199.6</ele><time>2026-04-17T16:08:36.245Z</time></trkpt><trkpt lat="46.17754890295773" lon="12.88334390296867"><ele>199.2</ele><time>2026-04-17T16:08:38.246Z</time></trkpt><trkpt lat="46.17754927420617" lon="12.883234232997564"><ele>198.8</ele><time>2026-04-17T16:08:40.146Z</time></trkpt><trkpt lat="46.17753743220445" lon="12.883095094196436"><ele>198.4</ele><time>2026-04-17T16:08:42.045Z</time></trkpt><trkpt lat="46.177524800857014" lon="12.882938930044743"><ele>198.0</ele><time>2026-04-17T16:08:44.005Z</time></trkpt><trkpt lat="46.17751964044587" lon="12.882790387796831"><ele>198.0</ele><time>2026-04-17T16:08:46.004Z</time></trkpt><trkpt lat="46.177511040962386" lon="12.882649756719156"><ele>198.0</ele><time>2026-04-17T16:08:48.004Z</time></trkpt><trkpt lat="46.17750223912062" lon="12.88250839765224"><ele>198.0</ele><time>2026-04-17T16:08:50.003Z</time></trkpt><trkpt lat="46.177497291054" lon="12.882377516830804"><ele>198.0</ele><time>2026-04-17T16:08:52.003Z</time></trkpt><trkpt lat="46.17748764017917" lon="12.882240282665142"><ele>198.0</ele><time>2026-04-17T16:08:54.003Z</time></trkpt><trkpt lat="46.17748119635936" lon="12.882100910708056"><ele>197.83333333333334</ele><time>2026-04-17T16:08:56.002Z</time></trkpt><trkpt lat="46.17747616676324" lon="12.881961219298276"><ele>197.66666666666669</ele><time>2026-04-17T16:08:58.002Z</time></trkpt><trkpt lat="46.17746953170845" lon="12.881827343631592"><ele>197.5</ele><time>2026-04-17T16:09:00.002Z</time></trkpt><trkpt lat="46.17746468275508" lon="12.88171196516958"><ele>197.33333333333334</ele><time>2026-04-17T16:09:02.002Z</time></trkpt><trkpt lat="46.17745979714246" lon="12.881606632050174"><ele>197.16666666666669</ele><time>2026-04-17T16:09:04.001Z</time></trkpt><trkpt lat="46.17747047913487" lon="12.881506432468761"><ele>197.0</ele><time>2026-04-17T16:09:06.001Z</time></trkpt><trkpt lat="46.177461500825544" lon="12.881415177009933"><ele>197.00000000000003</ele><time>2026-04-17T16:09:08.001Z</time></trkpt><trkpt lat="46.177457396644115" lon="12.881303893358732"><ele>197.0</ele><time>2026-04-17T16:09:11.001Z</time></trkpt><trkpt lat="46.17747384597382" lon="12.88119542712075"><ele>197.0</ele><time>2026-04-17T16:09:14.001Z</time></trkpt><trkpt lat="46.17744612916605" lon="12.881321719125802"><ele>197.0</ele><time>2026-04-17T16:09:19.001Z</time></trkpt><trkpt lat="46.17745254415906" lon="12.881454325172083"><ele>197.00000000000003</ele><time>2026-04-17T16:09:21.001Z</time></trkpt><trkpt lat="46.17746150973125" lon="12.88161309229477"><ele>197.0</ele><time>2026-04-17T16:09:23.001Z</time></trkpt><trkpt lat="46.17746899769067" lon="12.881780219213384"><ele>196.83333333333334</ele><time>2026-04-17T16:09:25.001Z</time></trkpt><trkpt lat="46.177483603683555" lon="12.881874080962694"><ele>196.66666666666669</ele><time>2026-04-17T16:09:26.001Z</time></trkpt><trkpt lat="46.17748462941671" lon="12.881966398991734"><ele>196.5</ele><time>2026-04-17T16:09:27Z</time></trkpt><trkpt lat="46.177492577684006" lon="12.882142097512617"><ele>196.33333333333331</ele><time>2026-04-17T16:09:29Z</time></trkpt><trkpt lat="46.17750561843451" lon="12.882310738661186"><ele>196.16666666666666</ele><time>2026-04-17T16:09:31Z</time></trkpt><trkpt lat="46.17749558032808" lon="12.882408403073892"><ele>196.0</ele><time>2026-04-17T16:09:32Z</time></trkpt><trkpt lat="46.177506239537394" lon="12.882570627917765"><ele>196.5</ele><time>2026-04-17T16:09:34Z</time></trkpt><trkpt lat="46.177514527320724" lon="12.882733326911403"><ele>197.0</ele><time>2026-04-17T16:09:36Z</time></trkpt><trkpt lat="46.177531316514994" lon="12.882897482215968"><ele>197.5</ele><time>2026-04-17T16:09:38Z</time></trkpt><trkpt lat="46.177537902109144" lon="12.88306691374665"><ele>198.0</ele><time>2026-04-17T16:09:40Z</time></trkpt><trkpt lat="46.17754623600018" lon="12.883235444509939"><ele>198.0</ele><time>2026-04-17T16:09:42Z</time></trkpt><trkpt lat="46.17755037718729" lon="12.883395735870089"><ele>198.0</ele><time>2026-04-17T16:09:44Z</time></trkpt><trkpt lat="46.177558302898404" lon="12.8835695176059"><ele>198.0</ele><time>2026-04-17T16:09:46Z</time></trkpt><trkpt lat="46.17757270278461" lon="12.883730845540098"><ele>198.0</ele><time>2026-04-17T16:09:48Z</time></trkpt><trkpt lat="46.17758225583416" lon="12.883895976586293"><ele>198.25</ele><time>2026-04-17T16:09:50Z</time></trkpt><trkpt lat="46.1775875750126" lon="12.88406083550132"><ele>198.5</ele><time>2026-04-17T16:09:52Z</time></trkpt><trkpt lat="46.177586645686084" lon="12.884218638317012"><ele>198.75</ele><time>2026-04-17T16:09:54Z</time></trkpt><trkpt lat="46.17759460263475" lon="12.88438570231125"><ele>199.0</ele><time>2026-04-17T16:09:56Z</time></trkpt><trkpt lat="46.17760096562944" lon="12.884550280839218"><ele>199.0</ele><time>2026-04-17T16:09:58Z</time></trkpt><trkpt lat="46.177607410846804" lon="12.884716041910027"><ele>199.0</ele><time>2026-04-17T16:10:00Z</time></trkpt><trkpt lat="46.17762136864313" lon="12.884877801547747"><ele>199.0</ele><time>2026-04-17T16:10:02Z</time></trkpt><trkpt lat="46.177623604373814" lon="12.885048818440891"><ele>199.0</ele><time>2026-04-17T16:10:04Z</time></trkpt><trkpt lat="46.177623265406275" lon="12.8852066079388"><ele>199.2</ele><time>2026-04-17T16:10:06Z</time></trkpt><trkpt lat="46.177634194671356" lon="12.885363828454183"><ele>199.39999999999998</ele><time>2026-04-17T16:10:08Z</time></trkpt><trkpt lat="46.17763579395706" lon="12.885521353821536"><ele>199.6</ele><time>2026-04-17T16:10:10Z</time></trkpt><trkpt lat="46.17764979999876" lon="12.885680887631363"><ele>199.8</ele><time>2026-04-17T16:10:12Z</time></trkpt><trkpt lat="46.17766425292719" lon="12.885830819539178"><ele>200.0</ele><time>2026-04-17T16:10:14Z</time></trkpt><trkpt lat="46.17769372324976" lon="12.88597207582384"><ele>200.00000000000003</ele><time>2026-04-17T16:10:16Z</time></trkpt><trkpt lat="46.17773490801721" lon="12.886084862144209"><ele>200.0</ele><time>2026-04-17T16:10:18Z</time></trkpt><trkpt lat="46.17770965193561" lon="12.886216277638068"><ele>200.0</ele><time>2026-04-17T16:10:20Z</time></trkpt><trkpt lat="46.17765584685181" lon="12.88626362526916"><ele>200.0</ele><time>2026-04-17T16:10:21Z</time></trkpt><trkpt lat="46.17758929336103" lon="12.886307669637333"><ele>200.00000000000003</ele><time>2026-04-17T16:10:22Z</time></trkpt><trkpt lat="46.177512634545536" lon="12.886380589890603"><ele>200.0</ele><time>2026-04-17T16:10:24Z</time></trkpt><trkpt lat="46.17744325417916" lon="12.886487140088995"><ele>200.0</ele><time>2026-04-17T16:10:26Z</time></trkpt><trkpt lat="46.1773796197122" lon="12.886600877363612"><ele>200.0</ele><time>2026-04-17T16:10:28Z</time></trkpt><trkpt lat="46.17729940387955" lon="12.886696941319938"><ele>200.0</ele><time>2026-04-17T16:10:30Z</time></trkpt><trkpt lat="46.17722014327442" lon="12.886757995953236"><ele>200.0</ele><time>2026-04-17T16:10:32.001Z</time></trkpt><trkpt lat="46.17712852086545" lon="12.886815530120604"><ele>200.0</ele><time>2026-04-17T16:10:34.001Z</time></trkpt><trkpt lat="46.17704063570538" lon="12.886862379216272"><ele>199.66666666666669</ele><time>2026-04-17T16:10:36.001Z</time></trkpt><trkpt lat="46.17696261600001" lon="12.886876484248473"><ele>199.33333333333334</ele><time>2026-04-17T16:10:38.001Z</time></trkpt><trkpt lat="46.17687545517529" lon="12.886892630516881"><ele>199.0</ele><time>2026-04-17T16:10:40.001Z</time></trkpt><trkpt lat="46.176784595256464" lon="12.886934206769073"><ele>198.66666666666669</ele><time>2026-04-17T16:10:42.001Z</time></trkpt><trkpt lat="46.17671766149669" lon="12.886961633577819"><ele>198.33333333333334</ele><time>2026-04-17T16:10:43.001Z</time></trkpt><trkpt lat="46.17660915681097" lon="12.88698327922345"><ele>198.0</ele><time>2026-04-17T16:10:45.001Z</time></trkpt><trkpt lat="46.17648993840181" lon="12.886992307249509"><ele>198.0</ele><time>2026-04-17T16:10:47.001Z</time></trkpt><trkpt lat="46.176379899542056" lon="12.88699266891838"><ele>198.0</ele><time>2026-04-17T16:10:49.001Z</time></trkpt><trkpt lat="46.176271113548935" lon="12.886993148900194"><ele>198.0</ele><time>2026-04-17T16:10:51.001Z</time></trkpt><trkpt lat="46.17616536531039" lon="12.886989542292504"><ele>198.0</ele><time>2026-04-17T16:10:53.001Z</time></trkpt><trkpt lat="46.1760690222615" lon="12.886992078257387"><ele>198.0</ele><time>2026-04-17T16:10:55.001Z</time></trkpt><trkpt lat="46.17595280846187" lon="12.886985553327518"><ele>198.0</ele><time>2026-04-17T16:10:57.001Z</time></trkpt><trkpt lat="46.1758484473502" lon="12.886990523829152"><ele>198.0</ele><time>2026-04-17T16:10:59.001Z</time></trkpt><trkpt lat="46.17574248814252" lon="12.886996854674553"><ele>198.0</ele><time>2026-04-17T16:11:01.001Z</time></trkpt><trkpt lat="46.17563205082508" lon="12.886999032638437"><ele>198.0</ele><time>2026-04-17T16:11:03.001Z</time></trkpt><trkpt lat="46.175521670435856" lon="12.88701034504171"><ele>198.0</ele><time>2026-04-17T16:11:05.001Z</time></trkpt><trkpt lat="46.17540222342587" lon="12.887024751536858"><ele>197.5</ele><time>2026-04-17T16:11:07.001Z</time></trkpt><trkpt lat="46.17528729334501" lon="12.887023790949664"><ele>197.0</ele><time>2026-04-17T16:11:09.001Z</time></trkpt><trkpt lat="46.17517183621302" lon="12.887028416926409"><ele>196.5</ele><time>2026-04-17T16:11:11.001Z</time></trkpt><trkpt lat="46.17505543318763" lon="12.887032380182486"><ele>196.0</ele><time>2026-04-17T16:11:13.001Z</time></trkpt><trkpt lat="46.174949273468705" lon="12.887031424714582"><ele>196.0</ele><time>2026-04-17T16:11:15.001Z</time></trkpt><trkpt lat="46.174842009206465" lon="12.887024154300647"><ele>196.0</ele><time>2026-04-17T16:11:17.001Z</time></trkpt><trkpt lat="46.1747401137234" lon="12.88704073334822"><ele>196.0</ele><time>2026-04-17T16:11:19.001Z</time></trkpt><trkpt lat="46.17463722286528" lon="12.88702667249808"><ele>196.0</ele><time>2026-04-17T16:11:21.001Z</time></trkpt><trkpt lat="46.174531051786836" lon="12.887035062587534"><ele>196.0</ele><time>2026-04-17T16:11:23.001Z</time></trkpt><trkpt lat="46.174430230786946" lon="12.887026309992942"><ele>196.0</ele><time>2026-04-17T16:11:25.001Z</time></trkpt><trkpt lat="46.17432472612677" lon="12.887035452777951"><ele>196.0</ele><time>2026-04-17T16:11:27.001Z</time></trkpt><trkpt lat="46.17422447274123" lon="12.887034199813577"><ele>196.0</ele><time>2026-04-17T16:11:29.001Z</time></trkpt><trkpt lat="46.174126082382" lon="12.887033531344944"><ele>196.0</ele><time>2026-04-17T16:11:31.001Z</time></trkpt><trkpt lat="46.17403016661006" lon="12.887043831286519"><ele>196.0</ele><time>2026-04-17T16:11:33.001Z</time></trkpt><trkpt lat="46.17393355196133" lon="12.887056998982306"><ele>195.8</ele><time>2026-04-17T16:11:35.001Z</time></trkpt><trkpt lat="46.17384264619834" lon="12.88704332600243"><ele>195.60000000000002</ele><time>2026-04-17T16:11:37.001Z</time></trkpt><trkpt lat="46.173742438890976" lon="12.887047634567718"><ele>195.4</ele><time>2026-04-17T16:11:39.001Z</time></trkpt><trkpt lat="46.17363725370866" lon="12.88702811602276"><ele>195.2</ele><time>2026-04-17T16:11:41.001Z</time></trkpt><trkpt lat="46.173524604113396" lon="12.887027684787238"><ele>195.0</ele><time>2026-04-17T16:11:43.001Z</time></trkpt><trkpt lat="46.17341297787428" lon="12.88703410345868"><ele>195.0</ele><time>2026-04-17T16:11:45.001Z</time></trkpt><trkpt lat="46.173293788704825" lon="12.887047617015869"><ele>195.0</ele><time>2026-04-17T16:11:47.001Z</time></trkpt><trkpt lat="46.17316134323078" lon="12.88706355082445"><ele>195.0</ele><time>2026-04-17T16:11:49.001Z</time></trkpt><trkpt lat="46.173085908395464" lon="12.887062774157851"><ele>195.0</ele><time>2026-04-17T16:11:50.001Z</time></trkpt><trkpt lat="46.17301255333104" lon="12.887065537126881"><ele>195.0</ele><time>2026-04-17T16:11:51.001Z</time></trkpt><trkpt lat="46.172941865161135" lon="12.88705655465414"><ele>194.5</ele><time>2026-04-17T16:11:52.001Z</time></trkpt><trkpt lat="46.17286907944759" lon="12.887053330599663"><ele>194.0</ele><time>2026-04-17T16:11:53.001Z</time></trkpt><trkpt lat="46.17279412094588" lon="12.887048877230663"><ele>193.5</ele><time>2026-04-17T16:11:54.001Z</time></trkpt><trkpt lat="46.17269954495755" lon="12.88707073912853"><ele>193.0</ele><time>2026-04-17T16:11:55.001Z</time></trkpt><trkpt lat="46.172620513046034" lon="12.887080400389937"><ele>192.5</ele><time>2026-04-17T16:11:56.001Z</time></trkpt><trkpt lat="46.172533998337194" lon="12.887085909420131"><ele>192.0</ele><time>2026-04-17T16:11:57.001Z</time></trkpt><trkpt lat="46.17246019730759" lon="12.887081586203392"><ele>192.0</ele><time>2026-04-17T16:11:58.001Z</time></trkpt><trkpt lat="46.172366846692775" lon="12.887096963776168"><ele>192.0</ele><time>2026-04-17T16:11:59.001Z</time></trkpt><trkpt lat="46.17229178431595" lon="12.887096272058224"><ele>192.0</ele><time>2026-04-17T16:12:00.001Z</time></trkpt><trkpt lat="46.17221552977713" lon="12.887092314499016"><ele>192.0</ele><time>2026-04-17T16:12:01.001Z</time></trkpt><trkpt lat="46.17213531632295" lon="12.887100393768318"><ele>192.0</ele><time>2026-04-17T16:12:02.001Z</time></trkpt><trkpt lat="46.172055766803396" lon="12.887113780702782"><ele>192.0</ele><time>2026-04-17T16:12:03.001Z</time></trkpt><trkpt lat="46.17197076455295" lon="12.887113091070793"><ele>191.66666666666666</ele><time>2026-04-17T16:12:04.001Z</time></trkpt><trkpt lat="46.17188892864329" lon="12.88710833647269"><ele>191.33333333333334</ele><time>2026-04-17T16:12:05.001Z</time></trkpt><trkpt lat="46.17181183066672" lon="12.887099623023136"><ele>191.0</ele><time>2026-04-17T16:12:06.001Z</time></trkpt><trkpt lat="46.171735474859275" lon="12.887089562044364"><ele>190.66666666666669</ele><time>2026-04-17T16:12:07.001Z</time></trkpt><trkpt lat="46.17166609832871" lon="12.88709118685591"><ele>190.33333333333334</ele><time>2026-04-17T16:12:08.001Z</time></trkpt><trkpt lat="46.17159385288091" lon="12.887087865881398"><ele>190.0</ele><time>2026-04-17T16:12:09.001Z</time></trkpt><trkpt lat="46.171516146161856" lon="12.887084329919496"><ele>189.33333333333334</ele><time>2026-04-17T16:12:10.001Z</time></trkpt><trkpt lat="46.171445545171224" lon="12.887082689233885"><ele>188.66666666666669</ele><time>2026-04-17T16:12:11.001Z</time></trkpt><trkpt lat="46.171369757755656" lon="12.887073708385023"><ele>188.0</ele><time>2026-04-17T16:12:12.001Z</time></trkpt><trkpt lat="46.17129777848855" lon="12.887069689080736"><ele>187.33333333333334</ele><time>2026-04-17T16:12:13.001Z</time></trkpt><trkpt lat="46.171169171170625" lon="12.88707452234374"><ele>186.66666666666666</ele><time>2026-04-17T16:12:15.001Z</time></trkpt><trkpt lat="46.17109436422782" lon="12.887081033295457"><ele>186.0</ele><time>2026-04-17T16:12:16.001Z</time></trkpt><trkpt lat="46.171021317662685" lon="12.887081875994424"><ele>186.00000000000003</ele><time>2026-04-17T16:12:17.001Z</time></trkpt><trkpt lat="46.17095017044091" lon="12.887078546059456"><ele>186.0</ele><time>2026-04-17T16:12:18.001Z</time></trkpt><trkpt lat="46.17087554218761" lon="12.88707297165712"><ele>186.0</ele><time>2026-04-17T16:12:19.001Z</time></trkpt><trkpt lat="46.1708111711598" lon="12.887077526002502"><ele>186.0</ele><time>2026-04-17T16:12:20.001Z</time></trkpt><trkpt lat="46.17072686854353" lon="12.887092795667185"><ele>186.0</ele><time>2026-04-17T16:12:21.001Z</time></trkpt><trkpt lat="46.17065926482383" lon="12.887091497475605"><ele>186.00000000000003</ele><time>2026-04-17T16:12:22.001Z</time></trkpt><trkpt lat="46.17058850080399" lon="12.887096325998069"><ele>186.0</ele><time>2026-04-17T16:12:23.001Z</time></trkpt><trkpt lat="46.17051296018264" lon="12.887107770348557"><ele>185.4</ele><time>2026-04-17T16:12:24.001Z</time></trkpt><trkpt lat="46.170440933968045" lon="12.887117056133123"><ele>184.8</ele><time>2026-04-17T16:12:25.001Z</time></trkpt><trkpt lat="46.17037780149302" lon="12.887124721886773"><ele>184.20000000000002</ele><time>2026-04-17T16:12:26.001Z</time></trkpt><trkpt lat="46.17026277765979" lon="12.887135342647017"><ele>183.60000000000002</ele><time>2026-04-17T16:12:28.001Z</time></trkpt><trkpt lat="46.17013846924501" lon="12.887161808341148"><ele>183.0</ele><time>2026-04-17T16:12:30.001Z</time></trkpt><trkpt lat="46.17005983993176" lon="12.887165568530943"><ele>183.0</ele><time>2026-04-17T16:12:31.001Z</time></trkpt><trkpt lat="46.16999080307193" lon="12.887159673429915"><ele>183.0</ele><time>2026-04-17T16:12:32.001Z</time></trkpt><trkpt lat="46.16986248225549" lon="12.887152564085985"><ele>183.0</ele><time>2026-04-17T16:12:34.001Z</time></trkpt><trkpt lat="46.16979591661462" lon="12.887147775097473"><ele>183.0</ele><time>2026-04-17T16:12:35.001Z</time></trkpt><trkpt lat="46.169682575009844" lon="12.887087782894982"><ele>183.0</ele><time>2026-04-17T16:12:37.001Z</time></trkpt><trkpt lat="46.16955756248945" lon="12.887059782082721"><ele>182.83333333333334</ele><time>2026-04-17T16:12:39.001Z</time></trkpt><trkpt lat="46.16948005298676" lon="12.88704828791169"><ele>182.66666666666666</ele><time>2026-04-17T16:12:40.001Z</time></trkpt><trkpt lat="46.169415585969425" lon="12.887031931882555"><ele>182.5</ele><time>2026-04-17T16:12:41.001Z</time></trkpt><trkpt lat="46.16934087408546" lon="12.887015445443572"><ele>182.33333333333331</ele><time>2026-04-17T16:12:42.001Z</time></trkpt><trkpt lat="46.16927443626609" lon="12.886975860331843"><ele>182.16666666666666</ele><time>2026-04-17T16:12:43.001Z</time></trkpt><trkpt lat="46.169170172107286" lon="12.886900772543662"><ele>182.0</ele><time>2026-04-17T16:12:45.001Z</time></trkpt><trkpt lat="46.16910852497665" lon="12.886867400075605"><ele>183.2</ele><time>2026-04-17T16:12:46.001Z</time></trkpt><trkpt lat="46.16901845788166" lon="12.886748078049227"><ele>184.39999999999998</ele><time>2026-04-17T16:12:48.001Z</time></trkpt><trkpt lat="46.168974250695605" lon="12.886671660206698"><ele>185.60000000000002</ele><time>2026-04-17T16:12:49.001Z</time></trkpt><trkpt lat="46.168903329119445" lon="12.886566261264559"><ele>186.8</ele><time>2026-04-17T16:12:51.001Z</time></trkpt><trkpt lat="46.16878635659235" lon="12.886543236907848"><ele>188.0</ele><time>2026-04-17T16:12:53.001Z</time></trkpt><trkpt lat="46.1687101113907" lon="12.886590861524768"><ele>188.0</ele><time>2026-04-17T16:12:55.001Z</time></trkpt><trkpt lat="46.16866053775906" lon="12.886656747259327"><ele>188.0</ele><time>2026-04-17T16:12:57.001Z</time></trkpt><trkpt lat="46.168573921414705" lon="12.886724108546847"><ele>188.0</ele><time>2026-04-17T16:12:59.001Z</time></trkpt><trkpt lat="46.16848593356274" lon="12.886812711322298"><ele>188.0</ele><time>2026-04-17T16:13:01.001Z</time></trkpt><trkpt lat="46.16843906127696" lon="12.886879781571507"><ele>188.0</ele><time>2026-04-17T16:13:02.001Z</time></trkpt><trkpt lat="46.16833837237928" lon="12.88699013069533"><ele>188.0</ele><time>2026-04-17T16:13:04.001Z</time></trkpt><trkpt lat="46.16823918333868" lon="12.88708606272473"><ele>188.0</ele><time>2026-04-17T16:13:06.001Z</time></trkpt><trkpt lat="46.16818643950692" lon="12.887149457176495"><ele>188.0</ele><time>2026-04-17T16:13:07.001Z</time></trkpt><trkpt lat="46.16813317550598" lon="12.88721465205919"><ele>188.0</ele><time>2026-04-17T16:13:08.002Z</time></trkpt><trkpt lat="46.16808554359292" lon="12.887279584002206"><ele>188.0</ele><time>2026-04-17T16:13:09.002Z</time></trkpt><trkpt lat="46.168002655691154" lon="12.887419225942109"><ele>188.0</ele><time>2026-04-17T16:13:11.002Z</time></trkpt><trkpt lat="46.167968807055445" lon="12.887498407887168"><ele>188.0</ele><time>2026-04-17T16:13:12.002Z</time></trkpt><trkpt lat="46.167940065784634" lon="12.887581619736881"><ele>188.0</ele><time>2026-04-17T16:13:13.002Z</time></trkpt><trkpt lat="46.16789405534362" lon="12.887744185892636"><ele>188.0</ele><time>2026-04-17T16:13:15.002Z</time></trkpt><trkpt lat="46.167875394653855" lon="12.887838470030722"><ele>188.0</ele><time>2026-04-17T16:13:16.002Z</time></trkpt><trkpt lat="46.16785525490176" lon="12.887926934160744"><ele>188.0</ele><time>2026-04-17T16:13:17.002Z</time></trkpt><trkpt lat="46.16783190086139" lon="12.888012671448356"><ele>188.0</ele><time>2026-04-17T16:13:18.002Z</time></trkpt><trkpt lat="46.16778914133068" lon="12.888175576733428"><ele>187.60000000000002</ele><time>2026-04-17T16:13:20.002Z</time></trkpt><trkpt lat="46.16776337629805" lon="12.888264312625807"><ele>187.20000000000002</ele><time>2026-04-17T16:13:21.002Z</time></trkpt><trkpt lat="46.16773071970571" lon="12.88841266090882"><ele>186.8</ele><time>2026-04-17T16:13:23.002Z</time></trkpt><trkpt lat="46.16769394464066" lon="12.888556522672827"><ele>186.4</ele><time>2026-04-17T16:13:25.002Z</time></trkpt><trkpt lat="46.16764887701276" lon="12.888676396801646"><ele>186.0</ele><time>2026-04-17T16:13:27.002Z</time></trkpt><trkpt lat="46.16754777105059" lon="12.888976803696638"><ele>185.83333333333334</ele><time>2026-04-17T16:13:32.002Z</time></trkpt><trkpt lat="46.16749654355363" lon="12.88910297260271"><ele>185.66666666666666</ele><time>2026-04-17T16:13:34.002Z</time></trkpt><trkpt lat="46.167444507167644" lon="12.889176595194257"><ele>185.5</ele><time>2026-04-17T16:13:36.002Z</time></trkpt><trkpt lat="46.16736577433521" lon="12.88926921530913"><ele>185.33333333333331</ele><time>2026-04-17T16:13:38.002Z</time></trkpt><trkpt lat="46.167292078045726" lon="12.889337102480072"><ele>185.16666666666666</ele><time>2026-04-17T16:13:40.002Z</time></trkpt><trkpt lat="46.167216365143005" lon="12.889396412201995"><ele>185.0</ele><time>2026-04-17T16:13:42.002Z</time></trkpt><trkpt lat="46.16713195626661" lon="12.889453649791848"><ele>185.0</ele><time>2026-04-17T16:13:44.002Z</time></trkpt><trkpt lat="46.167036273468995" lon="12.889506045277296"><ele>185.0</ele><time>2026-04-17T16:13:46.002Z</time></trkpt><trkpt lat="46.166937950711095" lon="12.889548645432248"><ele>185.0</ele><time>2026-04-17T16:13:48.002Z</time></trkpt><trkpt lat="46.16683271932577" lon="12.889604054518387"><ele>185.0</ele><time>2026-04-17T16:13:50.002Z</time></trkpt><trkpt lat="46.166731791171145" lon="12.889645857196157"><ele>185.0</ele><time>2026-04-17T16:13:52.002Z</time></trkpt><trkpt lat="46.166624715155166" lon="12.889690128471083"><ele>184.6</ele><time>2026-04-17T16:13:54.002Z</time></trkpt><trkpt lat="46.166523943977985" lon="12.889732010209253"><ele>184.2</ele><time>2026-04-17T16:13:56.002Z</time></trkpt><trkpt lat="46.166423065033406" lon="12.889781901401141"><ele>183.8</ele><time>2026-04-17T16:13:58.002Z</time></trkpt><trkpt lat="46.16631944738052" lon="12.889827678582126"><ele>183.4</ele><time>2026-04-17T16:14:00.002Z</time></trkpt><trkpt lat="46.16621726619485" lon="12.889867580668296"><ele>183.0</ele><time>2026-04-17T16:14:02.002Z</time></trkpt><trkpt lat="46.1661092809312" lon="12.889919619825864"><ele>183.0</ele><time>2026-04-17T16:14:04.002Z</time></trkpt><trkpt lat="46.16599600345836" lon="12.889972964303437"><ele>183.0</ele><time>2026-04-17T16:14:06.002Z</time></trkpt><trkpt lat="46.16588527892078" lon="12.890010786713672"><ele>183.0</ele><time>2026-04-17T16:14:08.002Z</time></trkpt><trkpt lat="46.16577124946469" lon="12.89005846091641"><ele>183.0</ele><time>2026-04-17T16:14:10.002Z</time></trkpt><trkpt lat="46.165660199186505" lon="12.890109841694146"><ele>183.5</ele><time>2026-04-17T16:14:12.002Z</time></trkpt><trkpt lat="46.165546699913854" lon="12.890163881187846"><ele>184.0</ele><time>2026-04-17T16:14:14.002Z</time></trkpt><trkpt lat="46.1654301216655" lon="12.890215072058982"><ele>184.5</ele><time>2026-04-17T16:14:16.002Z</time></trkpt><trkpt lat="46.16531688237128" lon="12.890265826464818"><ele>185.0</ele><time>2026-04-17T16:14:18.002Z</time></trkpt><trkpt lat="46.16520469995357" lon="12.890316061754794"><ele>185.0</ele><time>2026-04-17T16:14:20.002Z</time></trkpt><trkpt lat="46.165091647323585" lon="12.890355057203832"><ele>185.0</ele><time>2026-04-17T16:14:22.002Z</time></trkpt><trkpt lat="46.165032625868065" lon="12.890387359122542"><ele>185.0</ele><time>2026-04-17T16:14:23.002Z</time></trkpt><trkpt lat="46.16491378089034" lon="12.890423950669016"><ele>185.0</ele><time>2026-04-17T16:14:25.002Z</time></trkpt><trkpt lat="46.16485154249809" lon="12.890451107481336"><ele>185.0</ele><time>2026-04-17T16:14:26.002Z</time></trkpt><trkpt lat="46.16478877217227" lon="12.890484979432367"><ele>185.0</ele><time>2026-04-17T16:14:27.002Z</time></trkpt><trkpt lat="46.16472637111006" lon="12.890504764434848"><ele>184.6</ele><time>2026-04-17T16:14:28.002Z</time></trkpt><trkpt lat="46.16460887477242" lon="12.890566442342996"><ele>184.2</ele><time>2026-04-17T16:14:30.002Z</time></trkpt><trkpt lat="46.16448192692273" lon="12.89061593660975"><ele>183.8</ele><time>2026-04-17T16:14:32.002Z</time></trkpt><trkpt lat="46.16441666045781" lon="12.890645870080581"><ele>183.4</ele><time>2026-04-17T16:14:33.002Z</time></trkpt><trkpt lat="46.16434743933741" lon="12.890671908727025"><ele>183.0</ele><time>2026-04-17T16:14:34.002Z</time></trkpt><trkpt lat="46.1642849244109" lon="12.890690124352853"><ele>183.0</ele><time>2026-04-17T16:14:35.002Z</time></trkpt><trkpt lat="46.164214170204716" lon="12.890730175642604"><ele>183.0</ele><time>2026-04-17T16:14:36.002Z</time></trkpt><trkpt lat="46.164144861057586" lon="12.890759942689124"><ele>183.0</ele><time>2026-04-17T16:14:37.002Z</time></trkpt><trkpt lat="46.16402249337077" lon="12.890818099217817"><ele>183.0</ele><time>2026-04-17T16:14:39.002Z</time></trkpt><trkpt lat="46.163946256432055" lon="12.890895460306014"><ele>183.0</ele><time>2026-04-17T16:14:41.002Z</time></trkpt><trkpt lat="46.16397167018171" lon="12.890998297030237"><ele>183.0</ele><time>2026-04-17T16:14:42.002Z</time></trkpt><trkpt lat="46.16402341207202" lon="12.891085883564601"><ele>183.2</ele><time>2026-04-17T16:14:43.002Z</time></trkpt><trkpt lat="46.164084818111185" lon="12.891147155471653"><ele>183.4</ele><time>2026-04-17T16:14:44.002Z</time></trkpt><trkpt lat="46.16416509435021" lon="12.891265945412426"><ele>183.6</ele><time>2026-04-17T16:14:46.002Z</time></trkpt><trkpt lat="46.164226562288434" lon="12.89141305989267"><ele>183.79999999999998</ele><time>2026-04-17T16:14:48.002Z</time></trkpt><trkpt lat="46.16426816020424" lon="12.891548092546373"><ele>184.0</ele><time>2026-04-17T16:14:50.002Z</time></trkpt><trkpt lat="46.16429144634431" lon="12.891697073195354"><ele>183.6</ele><time>2026-04-17T16:14:52.002Z</time></trkpt><trkpt lat="46.1643259168164" lon="12.891835306895665"><ele>183.2</ele><time>2026-04-17T16:14:54.002Z</time></trkpt><trkpt lat="46.16436745222974" lon="12.89195291906301"><ele>182.79999999999998</ele><time>2026-04-17T16:14:56.002Z</time></trkpt><trkpt lat="46.164418219073674" lon="12.89211697093805"><ele>182.39999999999998</ele><time>2026-04-17T16:14:59.002Z</time></trkpt><trkpt lat="46.16444800973802" lon="12.892226460019625"><ele>182.0</ele><time>2026-04-17T16:15:01.002Z</time></trkpt><trkpt lat="46.16445729282345" lon="12.892326622120484"><ele>182.0</ele><time>2026-04-17T16:15:03.002Z</time></trkpt><trkpt lat="46.16448656369355" lon="12.892433078079934"><ele>182.0</ele><time>2026-04-17T16:15:05.002Z</time></trkpt><trkpt lat="46.16455085985545" lon="12.892510476842986"><ele>182.0</ele><time>2026-04-17T16:15:07.002Z</time></trkpt><trkpt lat="46.164613852010675" lon="12.892526293217616"><ele>182.0</ele><time>2026-04-17T16:15:09.002Z</time></trkpt><trkpt lat="46.1647855340992" lon="12.892541720244456"><ele>182.0</ele><time>2026-04-17T16:15:17.002Z</time></trkpt><trkpt lat="46.16489091279205" lon="12.892480508852609"><ele>181.39999999999998</ele><time>2026-04-17T16:15:19.002Z</time></trkpt><trkpt lat="46.16499724155214" lon="12.89244203409314"><ele>180.79999999999998</ele><time>2026-04-17T16:15:20.002Z</time></trkpt><trkpt lat="46.16511249581766" lon="12.892447723796248"><ele>180.2</ele><time>2026-04-17T16:15:21.002Z</time></trkpt><trkpt lat="46.16519349974454" lon="12.892451895828337"><ele>179.6</ele><time>2026-04-17T16:15:22.002Z</time></trkpt><trkpt lat="46.16529892497059" lon="12.892429703945451"><ele>179.0</ele><time>2026-04-17T16:15:24.002Z</time></trkpt><trkpt lat="46.16538430738342" lon="12.892370471633548"><ele>179.0</ele><time>2026-04-17T16:15:26.002Z</time></trkpt><trkpt lat="46.16546119762566" lon="12.892317173318723"><ele>179.0</ele><time>2026-04-17T16:15:28.002Z</time></trkpt><trkpt lat="46.165547839351284" lon="12.89226377762082"><ele>179.0</ele><time>2026-04-17T16:15:31.002Z</time></trkpt><trkpt lat="46.16560398686611" lon="12.89231276353385"><ele>179.0</ele><time>2026-04-17T16:15:45.002Z</time></trkpt><trkpt lat="46.16553915334097" lon="12.892344698256249"><ele>179.0</ele><time>2026-04-17T16:15:48.002Z</time></trkpt><trkpt lat="46.16547281870946" lon="12.892369707431431"><ele>179.0</ele><time>2026-04-17T16:15:50.002Z</time></trkpt><trkpt lat="46.16538656889606" lon="12.892426578709836"><ele>179.0</ele><time>2026-04-17T16:15:52.002Z</time></trkpt><trkpt lat="46.16531296759259" lon="12.892457264101147"><ele>179.0</ele><time>2026-04-17T16:15:54.002Z</time></trkpt><trkpt lat="46.16523185227828" lon="12.89247514824174"><ele>179.0</ele><time>2026-04-17T16:15:56.002Z</time></trkpt><trkpt lat="46.16515885408454" lon="12.892568127829605"><ele>179.0</ele><time>2026-04-17T16:15:58.002Z</time></trkpt><trkpt lat="46.16508602897055" lon="12.89264706422754"><ele>179.0</ele><time>2026-04-17T16:16:01.002Z</time></trkpt><trkpt lat="46.16505009214859" lon="12.892798758411324"><ele>178.6</ele><time>2026-04-17T16:16:03.002Z</time></trkpt><trkpt lat="46.16500233966124" lon="12.892885559117818"><ele>178.2</ele><time>2026-04-17T16:16:05.002Z</time></trkpt><trkpt lat="46.16491350631638" lon="12.892940618639082"><ele>177.79999999999998</ele><time>2026-04-17T16:16:07.002Z</time></trkpt><trkpt lat="46.164822122527504" lon="12.893013391497188"><ele>177.39999999999998</ele><time>2026-04-17T16:16:09.002Z</time></trkpt><trkpt lat="46.164724787010826" lon="12.893105419417253"><ele>177.0</ele><time>2026-04-17T16:16:11.002Z</time></trkpt><trkpt lat="46.16462774385213" lon="12.893189965446574"><ele>177.0</ele><time>2026-04-17T16:16:13.002Z</time></trkpt><trkpt lat="46.164521352201746" lon="12.89324201973744"><ele>177.0</ele><time>2026-04-17T16:16:15.002Z</time></trkpt><trkpt lat="46.164434602633236" lon="12.893296256690796"><ele>177.0</ele><time>2026-04-17T16:16:17.002Z</time></trkpt><trkpt lat="46.16433296984002" lon="12.89335735425764"><ele>177.0</ele><time>2026-04-17T16:16:19.002Z</time></trkpt><trkpt lat="46.16423632166368" lon="12.893409167490146"><ele>177.0</ele><time>2026-04-17T16:16:21.002Z</time></trkpt><trkpt lat="46.1641378433111" lon="12.893493209774064"><ele>176.39999999999998</ele><time>2026-04-17T16:16:23.002Z</time></trkpt><trkpt lat="46.164039524119" lon="12.893540012974398"><ele>175.79999999999998</ele><time>2026-04-17T16:16:25.002Z</time></trkpt><trkpt lat="46.16393755816573" lon="12.893598632402758"><ele>175.2</ele><time>2026-04-17T16:16:27.002Z</time></trkpt><trkpt lat="46.163855126171754" lon="12.893632955316722"><ele>174.6</ele><time>2026-04-17T16:16:29.003Z</time></trkpt><trkpt lat="46.1637687842644" lon="12.893663886065683"><ele>174.0</ele><time>2026-04-17T16:16:31.003Z</time></trkpt><trkpt lat="46.16370436438756" lon="12.893732233518264"><ele>174.0</ele><time>2026-04-17T16:16:33.003Z</time></trkpt><trkpt lat="46.16364296871351" lon="12.89377760298481"><ele>174.0</ele><time>2026-04-17T16:16:35.003Z</time></trkpt><trkpt lat="46.16362007923162" lon="12.893898802804506"><ele>174.0</ele><time>2026-04-17T16:16:56.003Z</time></trkpt><trkpt lat="46.163662748341004" lon="12.894018844964073"><ele>174.0</ele><time>2026-04-17T16:16:58.003Z</time></trkpt><trkpt lat="46.163696442456036" lon="12.894162279587432"><ele>174.0</ele><time>2026-04-17T16:17:00.003Z</time></trkpt><trkpt lat="46.16373806883877" lon="12.894327400765166"><ele>173.0</ele><time>2026-04-17T16:17:02.003Z</time></trkpt><trkpt lat="46.16378019371633" lon="12.894485997475341"><ele>172.0</ele><time>2026-04-17T16:17:04.003Z</time></trkpt><trkpt lat="46.16381998507313" lon="12.894654849218323"><ele>171.0</ele><time>2026-04-17T16:17:06.003Z</time></trkpt><trkpt lat="46.16386008025947" lon="12.894823477738388"><ele>170.0</ele><time>2026-04-17T16:17:08.003Z</time></trkpt><trkpt lat="46.16389703286294" lon="12.894993541689452"><ele>169.8</ele><time>2026-04-17T16:17:10.003Z</time></trkpt><trkpt lat="46.16393379585832" lon="12.895159719823775"><ele>169.6</ele><time>2026-04-17T16:17:12.003Z</time></trkpt><trkpt lat="46.163972378525294" lon="12.895321339391467"><ele>169.39999999999998</ele><time>2026-04-17T16:17:14.003Z</time></trkpt><trkpt lat="46.16400929927915" lon="12.895489328438309"><ele>169.2</ele><time>2026-04-17T16:17:16.003Z</time></trkpt><trkpt lat="46.16403449979906" lon="12.895576053024254"><ele>169.0</ele><time>2026-04-17T16:17:17.003Z</time></trkpt><trkpt lat="46.164074143104" lon="12.89573974247958"><ele>169.0</ele><time>2026-04-17T16:17:19.003Z</time></trkpt><trkpt lat="46.16411520484309" lon="12.895904047981174"><ele>169.0</ele><time>2026-04-17T16:17:21.003Z</time></trkpt><trkpt lat="46.164154553379596" lon="12.896070543121658"><ele>169.0</ele><time>2026-04-17T16:17:23.003Z</time></trkpt><trkpt lat="46.164195784101665" lon="12.896238653360744"><ele>169.0</ele><time>2026-04-17T16:17:25.003Z</time></trkpt><trkpt lat="46.164237516192955" lon="12.89640727472831"><ele>169.0</ele><time>2026-04-17T16:17:27.003Z</time></trkpt><trkpt lat="46.16425771313429" lon="12.89649404484169"><ele>169.0</ele><time>2026-04-17T16:17:28.003Z</time></trkpt><trkpt lat="46.1642985860572" lon="12.896659471995868"><ele>169.0</ele><time>2026-04-17T16:17:30.003Z</time></trkpt><trkpt lat="46.16432517681905" lon="12.896748286898653"><ele>169.0</ele><time>2026-04-17T16:17:31.003Z</time></trkpt><trkpt lat="46.164365358648375" lon="12.896921484278272"><ele>169.0</ele><time>2026-04-17T16:17:33.003Z</time></trkpt><trkpt lat="46.16438800166637" lon="12.89701610038226"><ele>169.0</ele><time>2026-04-17T16:17:34.003Z</time></trkpt><trkpt lat="46.1644107085228" lon="12.897106227764224"><ele>169.0</ele><time>2026-04-17T16:17:35.003Z</time></trkpt><trkpt lat="46.16443810682515" lon="12.897200477225931"><ele>169.0</ele><time>2026-04-17T16:17:36.003Z</time></trkpt><trkpt lat="46.164456888458844" lon="12.897299722870642"><ele>169.0</ele><time>2026-04-17T16:17:37.003Z</time></trkpt><trkpt lat="46.16447725037855" lon="12.897404861555119"><ele>169.0</ele><time>2026-04-17T16:17:38.003Z</time></trkpt><trkpt lat="46.164498698203644" lon="12.897505977756579"><ele>169.0</ele><time>2026-04-17T16:17:39.003Z</time></trkpt><trkpt lat="46.16451700680648" lon="12.897606370486237"><ele>169.0</ele><time>2026-04-17T16:17:40.003Z</time></trkpt><trkpt lat="46.164533781377436" lon="12.89771764365951"><ele>169.0</ele><time>2026-04-17T16:17:41.003Z</time></trkpt><trkpt lat="46.16454081711412" lon="12.897809970985977"><ele>169.14285714285714</ele><time>2026-04-17T16:17:42.003Z</time></trkpt><trkpt lat="46.1645307583804" lon="12.897913252124678"><ele>169.28571428571428</ele><time>2026-04-17T16:17:43.003Z</time></trkpt><trkpt lat="46.164518573567676" lon="12.898011498533885"><ele>169.42857142857144</ele><time>2026-04-17T16:17:44.003Z</time></trkpt><trkpt lat="46.16450235603734" lon="12.898107876800907"><ele>169.57142857142856</ele><time>2026-04-17T16:17:45.003Z</time></trkpt><trkpt lat="46.16447473888135" lon="12.898198382889005"><ele>169.7142857142857</ele><time>2026-04-17T16:17:46.003Z</time></trkpt><trkpt lat="46.164449443459915" lon="12.898287008350476"><ele>169.85714285714286</ele><time>2026-04-17T16:17:47.003Z</time></trkpt><trkpt lat="46.16441943006654" lon="12.898374772643727"><ele>170.0</ele><time>2026-04-17T16:17:48.003Z</time></trkpt><trkpt lat="46.16437932720402" lon="12.898450799152853"><ele>170.14285714285714</ele><time>2026-04-17T16:17:49.003Z</time></trkpt><trkpt lat="46.16433392820504" lon="12.898535151807893"><ele>170.28571428571428</ele><time>2026-04-17T16:17:50.003Z</time></trkpt><trkpt lat="46.16429272024491" lon="12.89861093032735"><ele>170.42857142857142</ele><time>2026-04-17T16:17:51.003Z</time></trkpt><trkpt lat="46.164252914203686" lon="12.898691801785159"><ele>170.57142857142856</ele><time>2026-04-17T16:17:52.003Z</time></trkpt><trkpt lat="46.1642145621703" lon="12.898773183168696"><ele>170.71428571428572</ele><time>2026-04-17T16:17:53.003Z</time></trkpt><trkpt lat="46.16417751627361" lon="12.898851952091459"><ele>170.85714285714283</ele><time>2026-04-17T16:17:54.003Z</time></trkpt><trkpt lat="46.16413978535429" lon="12.898934828774571"><ele>171.0</ele><time>2026-04-17T16:17:55.003Z</time></trkpt><trkpt lat="46.16410371688625" lon="12.899016509885394"><ele>170.99999999999997</ele><time>2026-04-17T16:17:56.003Z</time></trkpt><trkpt lat="46.1640684516294" lon="12.899098537355405"><ele>171.0</ele><time>2026-04-17T16:17:57.003Z</time></trkpt><trkpt lat="46.16403126486898" lon="12.899180311090124"><ele>171.0</ele><time>2026-04-17T16:17:58.003Z</time></trkpt><trkpt lat="46.16399644291635" lon="12.899263976958942"><ele>171.0</ele><time>2026-04-17T16:17:59.003Z</time></trkpt><trkpt lat="46.16395972088347" lon="12.8993486688688"><ele>171.0</ele><time>2026-04-17T16:18:00.003Z</time></trkpt><trkpt lat="46.163937531714176" lon="12.899449143719117"><ele>170.99999999999997</ele><time>2026-04-17T16:18:01.003Z</time></trkpt><trkpt lat="46.163905137384354" lon="12.899536110901757"><ele>171.0</ele><time>2026-04-17T16:18:02.003Z</time></trkpt><trkpt lat="46.1638746287476" lon="12.899624259721799"><ele>170.85714285714283</ele><time>2026-04-17T16:18:03.003Z</time></trkpt><trkpt lat="46.163845665840455" lon="12.899713367038013"><ele>170.71428571428572</ele><time>2026-04-17T16:18:04.003Z</time></trkpt><trkpt lat="46.16382444288242" lon="12.89980789442842"><ele>170.57142857142856</ele><time>2026-04-17T16:18:05.003Z</time></trkpt><trkpt lat="46.16380045875572" lon="12.89990254376505"><ele>170.42857142857142</ele><time>2026-04-17T16:18:06.003Z</time></trkpt><trkpt lat="46.16377843184689" lon="12.899999654365468"><ele>170.28571428571428</ele><time>2026-04-17T16:18:07.003Z</time></trkpt><trkpt lat="46.16375776719623" lon="12.900094235110148"><ele>170.14285714285714</ele><time>2026-04-17T16:18:08.003Z</time></trkpt><trkpt lat="46.163737354485484" lon="12.900189594357583"><ele>170.0</ele><time>2026-04-17T16:18:09.003Z</time></trkpt><trkpt lat="46.1637181721605" lon="12.900278373780289"><ele>170.0</ele><time>2026-04-17T16:18:10.003Z</time></trkpt><trkpt lat="46.16370195751598" lon="12.900369511558342"><ele>170.0</ele><time>2026-04-17T16:18:11.003Z</time></trkpt><trkpt lat="46.163679400201815" lon="12.900544356481557"><ele>170.0</ele><time>2026-04-17T16:18:13.003Z</time></trkpt><trkpt lat="46.16367000274765" lon="12.900638848905045"><ele>170.0</ele><time>2026-04-17T16:18:14.003Z</time></trkpt><trkpt lat="46.16366178203306" lon="12.900733312019485"><ele>170.0</ele><time>2026-04-17T16:18:15.003Z</time></trkpt><trkpt lat="46.1636519863264" lon="12.900915852865669"><ele>170.0</ele><time>2026-04-17T16:18:17.003Z</time></trkpt><trkpt lat="46.16365123200518" lon="12.901090957284653"><ele>170.0</ele><time>2026-04-17T16:18:19.003Z</time></trkpt><trkpt lat="46.163650726260826" lon="12.901182865810231"><ele>170.0</ele><time>2026-04-17T16:18:20.003Z</time></trkpt><trkpt lat="46.16364968181311" lon="12.901352509747763"><ele>170.0</ele><time>2026-04-17T16:18:22.003Z</time></trkpt><trkpt lat="46.163650870501385" lon="12.901515030984472"><ele>170.0</ele><time>2026-04-17T16:18:24.003Z</time></trkpt><trkpt lat="46.16365929499203" lon="12.901671870314182"><ele>170.0</ele><time>2026-04-17T16:18:26.003Z</time></trkpt><trkpt lat="46.16366225391641" lon="12.901828890890348"><ele>170.4</ele><time>2026-04-17T16:18:28.003Z</time></trkpt><trkpt lat="46.163669604285026" lon="12.90199907313285"><ele>170.8</ele><time>2026-04-17T16:18:30.003Z</time></trkpt><trkpt lat="46.16367054380905" lon="12.902091191381425"><ele>171.2</ele><time>2026-04-17T16:18:31.003Z</time></trkpt><trkpt lat="46.16367290814114" lon="12.902262831591917"><ele>171.6</ele><time>2026-04-17T16:18:33.003Z</time></trkpt><trkpt lat="46.16368104797088" lon="12.902437135769588"><ele>172.0</ele><time>2026-04-17T16:18:35.003Z</time></trkpt><trkpt lat="46.163678032444494" lon="12.902600075089824"><ele>172.5</ele><time>2026-04-17T16:18:37.003Z</time></trkpt><trkpt lat="46.163682993515145" lon="12.902771765711178"><ele>173.0</ele><time>2026-04-17T16:18:39.003Z</time></trkpt><trkpt lat="46.16368821584828" lon="12.902942395055305"><ele>173.5</ele><time>2026-04-17T16:18:41.003Z</time></trkpt><trkpt lat="46.1636889973429" lon="12.90309300063327"><ele>174.0</ele><time>2026-04-17T16:18:43.003Z</time></trkpt><trkpt lat="46.163692796505664" lon="12.903254005601939"><ele>174.0</ele><time>2026-04-17T16:18:45.003Z</time></trkpt><trkpt lat="46.16369156515675" lon="12.903413442787912"><ele>174.0</ele><time>2026-04-17T16:18:47.003Z</time></trkpt><trkpt lat="46.16369057890977" lon="12.90356657278668"><ele>174.0</ele><time>2026-04-17T16:18:49.003Z</time></trkpt><trkpt lat="46.16368890657043" lon="12.9037110344219"><ele>174.0</ele><time>2026-04-17T16:18:51.003Z</time></trkpt><trkpt lat="46.163687029696945" lon="12.903853138787275"><ele>174.0</ele><time>2026-04-17T16:18:53.003Z</time></trkpt><trkpt lat="46.163679487147384" lon="12.903997468780702"><ele>174.0</ele><time>2026-04-17T16:18:55.003Z</time></trkpt><trkpt lat="46.16366183957889" lon="12.904151024717265"><ele>174.0</ele><time>2026-04-17T16:18:57.003Z</time></trkpt><trkpt lat="46.163646099736305" lon="12.904311648317805"><ele>174.0</ele><time>2026-04-17T16:18:59.003Z</time></trkpt><trkpt lat="46.163630272675626" lon="12.90447282076072"><ele>174.0</ele><time>2026-04-17T16:19:01.003Z</time></trkpt><trkpt lat="46.16360812941567" lon="12.904633179858292"><ele>174.0</ele><time>2026-04-17T16:19:03.003Z</time></trkpt><trkpt lat="46.16359579860975" lon="12.904791802288754"><ele>174.2</ele><time>2026-04-17T16:19:05.003Z</time></trkpt><trkpt lat="46.16358680933422" lon="12.90495241670323"><ele>174.39999999999998</ele><time>2026-04-17T16:19:07.003Z</time></trkpt><trkpt lat="46.16358210915764" lon="12.905107266868308"><ele>174.6</ele><time>2026-04-17T16:19:09.003Z</time></trkpt><trkpt lat="46.163578544517215" lon="12.905261879804778"><ele>174.8</ele><time>2026-04-17T16:19:11.003Z</time></trkpt><trkpt lat="46.16357228373366" lon="12.905422001776248"><ele>175.0</ele><time>2026-04-17T16:19:13.003Z</time></trkpt><trkpt lat="46.1635781314821" lon="12.905574790527588"><ele>175.2</ele><time>2026-04-17T16:19:15.003Z</time></trkpt><trkpt lat="46.163588035229154" lon="12.905737027745886"><ele>175.4</ele><time>2026-04-17T16:19:17.003Z</time></trkpt><trkpt lat="46.163603159850034" lon="12.905895179197328"><ele>175.60000000000002</ele><time>2026-04-17T16:19:19.003Z</time></trkpt><trkpt lat="46.16362063355343" lon="12.906047299612412"><ele>175.8</ele><time>2026-04-17T16:19:21.003Z</time></trkpt><trkpt lat="46.16364353895227" lon="12.906202814132099"><ele>176.0</ele><time>2026-04-17T16:19:23.003Z</time></trkpt><trkpt lat="46.163657881876375" lon="12.90634936037132"><ele>176.0</ele><time>2026-04-17T16:19:25.003Z</time></trkpt><trkpt lat="46.16367758961822" lon="12.906495737775499"><ele>176.0</ele><time>2026-04-17T16:19:27.003Z</time></trkpt><trkpt lat="46.16369788057696" lon="12.906648719764927"><ele>176.0</ele><time>2026-04-17T16:19:29.003Z</time></trkpt><trkpt lat="46.16370993962632" lon="12.906808816067683"><ele>176.0</ele><time>2026-04-17T16:19:31.003Z</time></trkpt><trkpt lat="46.163737494299816" lon="12.906971199789849"><ele>176.0</ele><time>2026-04-17T16:19:33.003Z</time></trkpt><trkpt lat="46.163753736612605" lon="12.907116212148702"><ele>176.0</ele><time>2026-04-17T16:19:35.003Z</time></trkpt><trkpt lat="46.16376959960896" lon="12.907249588157162"><ele>176.0</ele><time>2026-04-17T16:19:37.003Z</time></trkpt><trkpt lat="46.16377296269138" lon="12.907363808804163"><ele>176.0</ele><time>2026-04-17T16:19:39.003Z</time></trkpt><trkpt lat="46.16370953772853" lon="12.907391114697056"><ele>176.0</ele><time>2026-04-17T16:19:40.003Z</time></trkpt><trkpt lat="46.16359399556756" lon="12.907384106277396"><ele>176.0</ele><time>2026-04-17T16:19:42.003Z</time></trkpt><trkpt lat="46.16352998714725" lon="12.907383231728264"><ele>176.0</ele><time>2026-04-17T16:19:43.003Z</time></trkpt><trkpt lat="46.16340889715039" lon="12.907400205766795"><ele>176.0</ele><time>2026-04-17T16:19:45.003Z</time></trkpt><trkpt lat="46.16333975491264" lon="12.907394494017298"><ele>176.0</ele><time>2026-04-17T16:19:46.003Z</time></trkpt><trkpt lat="46.163271259946235" lon="12.90738920674233"><ele>176.0</ele><time>2026-04-17T16:19:47.003Z</time></trkpt><trkpt lat="46.1632086996067" lon="12.907370430480709"><ele>176.0</ele><time>2026-04-17T16:19:48.003Z</time></trkpt><trkpt lat="46.16310750270143" lon="12.907338513328716"><ele>176.0</ele><time>2026-04-17T16:19:50.003Z</time></trkpt><trkpt lat="46.16299658033751" lon="12.907266240352554"><ele>176.0</ele><time>2026-04-17T16:19:52.004Z</time></trkpt><trkpt lat="46.162899156013424" lon="12.90719650664257"><ele>177.0</ele><time>2026-04-17T16:19:55.004Z</time></trkpt><trkpt lat="46.16279229102042" lon="12.907142953261554"><ele>178.0</ele><time>2026-04-17T16:19:57.004Z</time></trkpt><trkpt lat="46.162731552718476" lon="12.90719465511674"><ele>179.0</ele><time>2026-04-17T16:20:00.004Z</time></trkpt><trkpt lat="46.162660601361395" lon="12.907217183498076"><ele>180.0</ele><time>2026-04-17T16:20:03.004Z</time></trkpt><trkpt lat="46.1625835163149" lon="12.90723536207722"><ele>181.0</ele><time>2026-04-17T16:20:06.004Z</time></trkpt><trkpt lat="46.1624965323474" lon="12.90723562191761"><ele>182.0</ele><time>2026-04-17T16:20:09.004Z</time></trkpt><trkpt lat="46.162412435136304" lon="12.907248735916532"><ele>181.33333333333331</ele><time>2026-04-17T16:20:12.004Z</time></trkpt><trkpt lat="46.16232247214635" lon="12.907276057707753"><ele>180.66666666666666</ele><time>2026-04-17T16:20:15.004Z</time></trkpt><trkpt lat="46.16223890731615" lon="12.90728329817629"><ele>180.0</ele><time>2026-04-17T16:20:17.004Z</time></trkpt><trkpt lat="46.16217588054041" lon="12.907310779281241"><ele>179.33333333333334</ele><time>2026-04-17T16:20:19.004Z</time></trkpt><trkpt lat="46.16210104502858" lon="12.90730178625675"><ele>178.66666666666669</ele><time>2026-04-17T16:20:21.004Z</time></trkpt><trkpt lat="46.16202439521474" lon="12.90732063682971"><ele>178.0</ele><time>2026-04-17T16:20:24.004Z</time></trkpt><trkpt lat="46.161957228132366" lon="12.907365107466784"><ele>178.0</ele><time>2026-04-17T16:20:26.004Z</time></trkpt><trkpt lat="46.161867155340204" lon="12.907385614214986"><ele>178.0</ele><time>2026-04-17T16:20:28.004Z</time></trkpt><trkpt lat="46.161778228199104" lon="12.90740494958294"><ele>178.0</ele><time>2026-04-17T16:20:30.004Z</time></trkpt><trkpt lat="46.16169183367514" lon="12.907416693991026"><ele>178.0</ele><time>2026-04-17T16:20:32.004Z</time></trkpt><trkpt lat="46.161584024147956" lon="12.9074395700964"><ele>178.0</ele><time>2026-04-17T16:20:34.004Z</time></trkpt><trkpt lat="46.161470528276986" lon="12.90746673298273"><ele>178.4</ele><time>2026-04-17T16:20:36.004Z</time></trkpt><trkpt lat="46.161386982797204" lon="12.907499022151958"><ele>178.8</ele><time>2026-04-17T16:20:38.004Z</time></trkpt><trkpt lat="46.16128432790651" lon="12.907533167181665"><ele>179.2</ele><time>2026-04-17T16:20:40.004Z</time></trkpt><trkpt lat="46.16120443944504" lon="12.907544444283952"><ele>179.6</ele><time>2026-04-17T16:20:42.004Z</time></trkpt><trkpt lat="46.161111630137555" lon="12.907545834470008"><ele>180.0</ele><time>2026-04-17T16:20:44.004Z</time></trkpt><trkpt lat="46.161015560571386" lon="12.907542502194609"><ele>180.0</ele><time>2026-04-17T16:20:46.004Z</time></trkpt><trkpt lat="46.160940812843386" lon="12.907559474533873"><ele>180.0</ele><time>2026-04-17T16:20:48.004Z</time></trkpt><trkpt lat="46.16085180880805" lon="12.907627203516578"><ele>180.0</ele><time>2026-04-17T16:20:50.004Z</time></trkpt><trkpt lat="46.16076850228309" lon="12.907650177779027"><ele>180.0</ele><time>2026-04-17T16:20:52.004Z</time></trkpt><trkpt lat="46.16069700420527" lon="12.907632598025721"><ele>180.0</ele><time>2026-04-17T16:20:54.004Z</time></trkpt><trkpt lat="46.16061870096167" lon="12.907615639744371"><ele>180.0</ele><time>2026-04-17T16:20:56.004Z</time></trkpt><trkpt lat="46.160521011020066" lon="12.907633782543344"><ele>179.8</ele><time>2026-04-17T16:20:59.004Z</time></trkpt><trkpt lat="46.16041235697274" lon="12.907660885767447"><ele>179.6</ele><time>2026-04-17T16:21:01.004Z</time></trkpt><trkpt lat="46.160315661553504" lon="12.907632865571985"><ele>179.39999999999998</ele><time>2026-04-17T16:21:03.004Z</time></trkpt><trkpt lat="46.16022880580889" lon="12.907648282628376"><ele>179.2</ele><time>2026-04-17T16:21:05.004Z</time></trkpt><trkpt lat="46.16013516458324" lon="12.90762884468442"><ele>179.0</ele><time>2026-04-17T16:21:07.004Z</time></trkpt><trkpt lat="46.160066933645375" lon="12.907604162478618"><ele>179.0</ele><time>2026-04-17T16:21:09.004Z</time></trkpt><trkpt lat="46.1600040711225" lon="12.907596178346628"><ele>179.0</ele><time>2026-04-17T16:21:10.004Z</time></trkpt><trkpt lat="46.159933536906614" lon="12.907625771264932"><ele>179.0</ele><time>2026-04-17T16:21:12.004Z</time></trkpt><trkpt lat="46.159855657075596" lon="12.907660765306812"><ele>179.0</ele><time>2026-04-17T16:21:14.004Z</time></trkpt><trkpt lat="46.15977932491024" lon="12.907693498352204"><ele>179.0</ele><time>2026-04-17T16:21:17.004Z</time></trkpt><trkpt lat="46.15969264210193" lon="12.907717146735786"><ele>179.0</ele><time>2026-04-17T16:21:20.004Z</time></trkpt><trkpt lat="46.15960338666536" lon="12.907755878664613"><ele>178.66666666666666</ele><time>2026-04-17T16:21:23.004Z</time></trkpt><trkpt lat="46.1595381676209" lon="12.907790384981002"><ele>178.33333333333331</ele><time>2026-04-17T16:21:25.004Z</time></trkpt><trkpt lat="46.15947226688037" lon="12.907812582105521"><ele>178.0</ele><time>2026-04-17T16:21:27.004Z</time></trkpt><trkpt lat="46.15938085429384" lon="12.90784291333242"><ele>177.66666666666666</ele><time>2026-04-17T16:21:30.004Z</time></trkpt><trkpt lat="46.159279701250206" lon="12.907859891791711"><ele>177.33333333333334</ele><time>2026-04-17T16:21:32.004Z</time></trkpt><trkpt lat="46.159192785811804" lon="12.907860764532801"><ele>177.0</ele><time>2026-04-17T16:21:34.004Z</time></trkpt><trkpt lat="46.15911655758801" lon="12.907884810758587"><ele>175.6</ele><time>2026-04-17T16:21:36.004Z</time></trkpt><trkpt lat="46.15901180041952" lon="12.907922451605597"><ele>174.2</ele><time>2026-04-17T16:21:38.004Z</time></trkpt><trkpt lat="46.15891034341631" lon="12.907965137368523"><ele>172.8</ele><time>2026-04-17T16:21:40.004Z</time></trkpt><trkpt lat="46.15883644652574" lon="12.908060762764174"><ele>171.4</ele><time>2026-04-17T16:21:41.004Z</time></trkpt><trkpt lat="46.15874458759003" lon="12.908104968094692"><ele>170.0</ele><time>2026-04-17T16:21:43.004Z</time></trkpt><trkpt lat="46.158627148540084" lon="12.908133856594795"><ele>170.0</ele><time>2026-04-17T16:21:47.004Z</time></trkpt><trkpt lat="46.15855951594471" lon="12.908154149918637"><ele>170.0</ele><time>2026-04-17T16:21:53.004Z</time></trkpt><trkpt lat="46.158483149791934" lon="12.90814981720503"><ele>170.0</ele><time>2026-04-17T16:22:11.004Z</time></trkpt><trkpt lat="46.158410368046134" lon="12.908116796379772"><ele>170.0</ele><time>2026-04-17T16:22:13.004Z</time></trkpt><trkpt lat="46.158307278393735" lon="12.908100718106793"><ele>170.0</ele><time>2026-04-17T16:22:15.004Z</time></trkpt><trkpt lat="46.15821306220923" lon="12.908083689796925"><ele>170.0</ele><time>2026-04-17T16:22:17.004Z</time></trkpt><trkpt lat="46.15811729911851" lon="12.908059238103151"><ele>168.8</ele><time>2026-04-17T16:22:19.004Z</time></trkpt><trkpt lat="46.15801958910392" lon="12.908035665142934"><ele>167.6</ele><time>2026-04-17T16:22:21.004Z</time></trkpt><trkpt lat="46.157917925650324" lon="12.908030662395808"><ele>166.39999999999998</ele><time>2026-04-17T16:22:23.004Z</time></trkpt><trkpt lat="46.15784202673861" lon="12.908034934934335"><ele>165.2</ele><time>2026-04-17T16:22:25.004Z</time></trkpt><trkpt lat="46.157747855719876" lon="12.908004438697368"><ele>164.0</ele><time>2026-04-17T16:22:27.004Z</time></trkpt><trkpt lat="46.15767109490064" lon="12.907977833801535"><ele>164.0</ele><time>2026-04-17T16:22:29.004Z</time></trkpt><trkpt lat="46.157574949672956" lon="12.907964086449816"><ele>164.0</ele><time>2026-04-17T16:22:31.004Z</time></trkpt><trkpt lat="46.15748487082092" lon="12.907934021758322"><ele>164.0</ele><time>2026-04-17T16:22:33.004Z</time></trkpt><trkpt lat="46.15738543588272" lon="12.907926669261258"><ele>164.0</ele><time>2026-04-17T16:22:35.004Z</time></trkpt><trkpt lat="46.15728576672336" lon="12.907883762726012"><ele>164.0</ele><time>2026-04-17T16:22:37.004Z</time></trkpt><trkpt lat="46.15719372012138" lon="12.90787324609206"><ele>163.39999999999998</ele><time>2026-04-17T16:22:39.004Z</time></trkpt><trkpt lat="46.15709191181352" lon="12.907855595266664"><ele>162.8</ele><time>2026-04-17T16:22:41.004Z</time></trkpt><trkpt lat="46.15698267591901" lon="12.907850822132797"><ele>162.2</ele><time>2026-04-17T16:22:43.004Z</time></trkpt><trkpt lat="46.15689756993789" lon="12.907845711468788"><ele>161.60000000000002</ele><time>2026-04-17T16:22:45.004Z</time></trkpt><trkpt lat="46.156790290277044" lon="12.907816237693831"><ele>161.0</ele><time>2026-04-17T16:22:47.004Z</time></trkpt><trkpt lat="46.156695875140166" lon="12.907833220332975"><ele>161.0</ele><time>2026-04-17T16:22:49.004Z</time></trkpt><trkpt lat="46.15658741952968" lon="12.90781665101846"><ele>161.0</ele><time>2026-04-17T16:22:51.004Z</time></trkpt><trkpt lat="46.156482461007734" lon="12.907811329757626"><ele>161.0</ele><time>2026-04-17T16:22:53.004Z</time></trkpt><trkpt lat="46.15638024989288" lon="12.907820737863272"><ele>161.0</ele><time>2026-04-17T16:22:55.004Z</time></trkpt><trkpt lat="46.1562774921086" lon="12.907836455336028"><ele>161.0</ele><time>2026-04-17T16:22:57.004Z</time></trkpt><trkpt lat="46.156177480159535" lon="12.907833433277217"><ele>160.83333333333331</ele><time>2026-04-17T16:22:59.004Z</time></trkpt><trkpt lat="46.156096647093236" lon="12.907833396622689"><ele>160.66666666666666</ele><time>2026-04-17T16:23:01.004Z</time></trkpt><trkpt lat="46.15601898606875" lon="12.907804941923333"><ele>160.5</ele><time>2026-04-17T16:23:03.004Z</time></trkpt><trkpt lat="46.15592821456908" lon="12.907801961678494"><ele>160.33333333333334</ele><time>2026-04-17T16:23:06.004Z</time></trkpt><trkpt lat="46.15584396246631" lon="12.907785742046055"><ele>160.16666666666669</ele><time>2026-04-17T16:23:08.004Z</time></trkpt><trkpt lat="46.15575447436159" lon="12.907778068015075"><ele>160.0</ele><time>2026-04-17T16:23:11.004Z</time></trkpt><trkpt lat="46.15566587918927" lon="12.907775727564859"><ele>160.33333333333334</ele><time>2026-04-17T16:23:13.004Z</time></trkpt><trkpt lat="46.1556018658147" lon="12.907756219715417"><ele>160.66666666666669</ele><time>2026-04-17T16:23:15.004Z</time></trkpt><trkpt lat="46.155517184310035" lon="12.907735762372567"><ele>161.0</ele><time>2026-04-17T16:23:17.004Z</time></trkpt><trkpt lat="46.15541882748628" lon="12.907743513294202"><ele>161.33333333333334</ele><time>2026-04-17T16:23:19.005Z</time></trkpt><trkpt lat="46.155352851291795" lon="12.907678835983031"><ele>161.66666666666666</ele><time>2026-04-17T16:23:21.005Z</time></trkpt><trkpt lat="46.155282041174004" lon="12.907652773357444"><ele>162.0</ele><time>2026-04-17T16:23:23.005Z</time></trkpt><trkpt lat="46.15520304491228" lon="12.907650681825567"><ele>162.0</ele><time>2026-04-17T16:23:25.005Z</time></trkpt><trkpt lat="46.15511935822205" lon="12.907637472232487"><ele>162.0</ele><time>2026-04-17T16:23:27.005Z</time></trkpt><trkpt lat="46.155035310207985" lon="12.907628638080663"><ele>162.0</ele><time>2026-04-17T16:23:29.005Z</time></trkpt><trkpt lat="46.15495078620831" lon="12.90762730528096"><ele>162.0</ele><time>2026-04-17T16:23:31.005Z</time></trkpt><trkpt lat="46.154836431757" lon="12.907700485283609"><ele>162.0</ele><time>2026-04-17T16:23:33.005Z</time></trkpt><trkpt lat="46.15476963458808" lon="12.907758105642165"><ele>162.33333333333334</ele><time>2026-04-17T16:23:34.005Z</time></trkpt><trkpt lat="46.15471928213747" lon="12.90765203537422"><ele>162.66666666666666</ele><time>2026-04-17T16:23:36.005Z</time></trkpt><trkpt lat="46.154645686161345" lon="12.907619434736471"><ele>163.0</ele><time>2026-04-17T16:23:39.005Z</time></trkpt><trkpt lat="46.15456697167286" lon="12.907568232958495"><ele>163.33333333333331</ele><time>2026-04-17T16:23:42.005Z</time></trkpt><trkpt lat="46.15449670473692" lon="12.907543534811378"><ele>163.66666666666666</ele><time>2026-04-17T16:23:44.005Z</time></trkpt><trkpt lat="46.15442594271958" lon="12.907538131196265"><ele>164.0</ele><time>2026-04-17T16:23:46.005Z</time></trkpt><trkpt lat="46.154354408250164" lon="12.90750922460882"><ele>163.33333333333331</ele><time>2026-04-17T16:23:48.005Z</time></trkpt><trkpt lat="46.154285127505894" lon="12.907484842238611"><ele>162.66666666666666</ele><time>2026-04-17T16:23:50.005Z</time></trkpt><trkpt lat="46.15421446773511" lon="12.907457264551782"><ele>162.0</ele><time>2026-04-17T16:23:52.005Z</time></trkpt><trkpt lat="46.15414171749675" lon="12.907429127063912"><ele>161.33333333333334</ele><time>2026-04-17T16:23:54.005Z</time></trkpt><trkpt lat="46.15406166256165" lon="12.907427750747635"><ele>160.66666666666669</ele><time>2026-04-17T16:23:56.005Z</time></trkpt><trkpt lat="46.15398549581003" lon="12.907400033085565"><ele>160.0</ele><time>2026-04-17T16:23:58.005Z</time></trkpt><trkpt lat="46.153914933510706" lon="12.907371371185443"><ele>159.83333333333334</ele><time>2026-04-17T16:24:00.005Z</time></trkpt><trkpt lat="46.153840869492036" lon="12.907335464245216"><ele>159.66666666666669</ele><time>2026-04-17T16:24:02.005Z</time></trkpt><trkpt lat="46.15376308833754" lon="12.907342162184714"><ele>159.5</ele><time>2026-04-17T16:24:04.005Z</time></trkpt><trkpt lat="46.15367475528067" lon="12.907350992885398"><ele>159.33333333333334</ele><time>2026-04-17T16:24:06.005Z</time></trkpt><trkpt lat="46.15360710023316" lon="12.907335261085194"><ele>159.16666666666666</ele><time>2026-04-17T16:24:08.005Z</time></trkpt><trkpt lat="46.15354488671729" lon="12.907307505029257"><ele>159.0</ele><time>2026-04-17T16:24:10.005Z</time></trkpt><trkpt lat="46.15347281669916" lon="12.907303560558294"><ele>159.0</ele><time>2026-04-17T16:24:12.005Z</time></trkpt><trkpt lat="46.15339946662078" lon="12.907268576209809"><ele>159.0</ele><time>2026-04-17T16:24:14.005Z</time></trkpt><trkpt lat="46.15333085062785" lon="12.907265346457722"><ele>159.0</ele><time>2026-04-17T16:24:16.005Z</time></trkpt><trkpt lat="46.153234263692106" lon="12.907261612079905"><ele>159.0</ele><time>2026-04-17T16:24:19.005Z</time></trkpt><trkpt lat="46.1531398246235" lon="12.907233006877453"><ele>159.0</ele><time>2026-04-17T16:24:22.005Z</time></trkpt><trkpt lat="46.15305126716628" lon="12.907237165291283"><ele>159.0</ele><time>2026-04-17T16:24:25.005Z</time></trkpt><trkpt lat="46.15298500011583" lon="12.907228475299528"><ele>159.16666666666666</ele><time>2026-04-17T16:24:27.005Z</time></trkpt><trkpt lat="46.15291000774428" lon="12.907230151029452"><ele>159.33333333333334</ele><time>2026-04-17T16:24:29.005Z</time></trkpt><trkpt lat="46.15279596851364" lon="12.907235033483948"><ele>159.5</ele><time>2026-04-17T16:24:33.005Z</time></trkpt><trkpt lat="46.1527218417291" lon="12.90725193119791"><ele>159.66666666666669</ele><time>2026-04-17T16:24:36.005Z</time></trkpt><trkpt lat="46.152654040392996" lon="12.907279906109926"><ele>159.83333333333334</ele><time>2026-04-17T16:24:38.005Z</time></trkpt><trkpt lat="46.15256155796685" lon="12.907246817282157"><ele>160.0</ele><time>2026-04-17T16:24:41.005Z</time></trkpt><trkpt lat="46.15247806997817" lon="12.907258318014968"><ele>160.0</ele><time>2026-04-17T16:24:44.005Z</time></trkpt><trkpt lat="46.152398396658675" lon="12.90727098309651"><ele>160.0</ele><time>2026-04-17T16:24:47.005Z</time></trkpt><trkpt lat="46.152322094548595" lon="12.907272106238109"><ele>160.0</ele><time>2026-04-17T16:24:49.005Z</time></trkpt><trkpt lat="46.15225066544853" lon="12.90727624998248"><ele>160.0</ele><time>2026-04-17T16:24:51.005Z</time></trkpt><trkpt lat="46.152174363148774" lon="12.907275847629254"><ele>160.0</ele><time>2026-04-17T16:24:53.005Z</time></trkpt><trkpt lat="46.15209820544349" lon="12.90728248682347"><ele>160.0</ele><time>2026-04-17T16:24:55.005Z</time></trkpt><trkpt lat="46.15201515316968" lon="12.907301305157398"><ele>159.83333333333334</ele><time>2026-04-17T16:24:57.005Z</time></trkpt><trkpt lat="46.151926622750445" lon="12.907302178339297"><ele>159.66666666666669</ele><time>2026-04-17T16:24:59.005Z</time></trkpt><trkpt lat="46.15185175942425" lon="12.9073155681284"><ele>159.5</ele><time>2026-04-17T16:25:01.005Z</time></trkpt><trkpt lat="46.15176690681891" lon="12.907347293962694"><ele>159.33333333333334</ele><time>2026-04-17T16:25:03.005Z</time></trkpt><trkpt lat="46.15167737532077" lon="12.907372029279292"><ele>159.16666666666666</ele><time>2026-04-17T16:25:05.005Z</time></trkpt><trkpt lat="46.151593094474755" lon="12.907382466283998"><ele>159.0</ele><time>2026-04-17T16:25:07.005Z</time></trkpt><trkpt lat="46.151514217519825" lon="12.907402750037614"><ele>158.83333333333334</ele><time>2026-04-17T16:25:09.005Z</time></trkpt><trkpt lat="46.15142933936522" lon="12.907417425828655"><ele>158.66666666666666</ele><time>2026-04-17T16:25:11.005Z</time></trkpt><trkpt lat="46.15135787470612" lon="12.907431364063903"><ele>158.5</ele><time>2026-04-17T16:25:13.005Z</time></trkpt><trkpt lat="46.151267864275155" lon="12.907439834788113"><ele>158.33333333333331</ele><time>2026-04-17T16:25:15.005Z</time></trkpt><trkpt lat="46.15118379083575" lon="12.907447660597413"><ele>158.16666666666666</ele><time>2026-04-17T16:25:17.005Z</time></trkpt><trkpt lat="46.151106175446664" lon="12.907466998932296"><ele>158.0</ele><time>2026-04-17T16:25:19.005Z</time></trkpt><trkpt lat="46.15103361896517" lon="12.907469585585883"><ele>158.0</ele><time>2026-04-17T16:25:21.005Z</time></trkpt><trkpt lat="46.15096445885018" lon="12.907466358706571"><ele>158.0</ele><time>2026-04-17T16:25:23.005Z</time></trkpt><trkpt lat="46.15087212050182" lon="12.907473196140351"><ele>158.0</ele><time>2026-04-17T16:25:26.005Z</time></trkpt><trkpt lat="46.150772371682116" lon="12.907493554051694"><ele>158.0</ele><time>2026-04-17T16:25:28.005Z</time></trkpt><trkpt lat="46.15067082544615" lon="12.907517145868741"><ele>158.0</ele><time>2026-04-17T16:25:30.005Z</time></trkpt><trkpt lat="46.1505946293369" lon="12.907526378944318"><ele>158.0</ele><time>2026-04-17T16:25:32.005Z</time></trkpt><trkpt lat="46.15050430474148" lon="12.90753678038275"><ele>157.83333333333331</ele><time>2026-04-17T16:25:34.005Z</time></trkpt><trkpt lat="46.15042271967709" lon="12.907558261391994"><ele>157.66666666666666</ele><time>2026-04-17T16:25:36.005Z</time></trkpt><trkpt lat="46.15034335953671" lon="12.90754433195743"><ele>157.5</ele><time>2026-04-17T16:25:38.005Z</time></trkpt><trkpt lat="46.150264175148145" lon="12.907534726609104"><ele>157.33333333333334</ele><time>2026-04-17T16:25:40.005Z</time></trkpt><trkpt lat="46.15019229967827" lon="12.907537148923671"><ele>157.16666666666669</ele><time>2026-04-17T16:25:42.005Z</time></trkpt><trkpt lat="46.15011290842668" lon="12.907543444251726"><ele>157.0</ele><time>2026-04-17T16:25:45.005Z</time></trkpt><trkpt lat="46.15005352825139" lon="12.907575954264427"><ele>157.0</ele><time>2026-04-17T16:26:02.005Z</time></trkpt><trkpt lat="46.14997000513887" lon="12.907528717897312"><ele>157.0</ele><time>2026-04-17T16:26:04.005Z</time></trkpt><trkpt lat="46.14988394385447" lon="12.907481287097228"><ele>157.0</ele><time>2026-04-17T16:26:06.005Z</time></trkpt><trkpt lat="46.149799182560486" lon="12.907444951605722"><ele>157.0</ele><time>2026-04-17T16:26:08.005Z</time></trkpt><trkpt lat="46.14970388660639" lon="12.907411601969017"><ele>157.0</ele><time>2026-04-17T16:26:10.005Z</time></trkpt><trkpt lat="46.14960936095002" lon="12.907385252804852"><ele>157.0</ele><time>2026-04-17T16:26:12.005Z</time></trkpt><trkpt lat="46.149515922479154" lon="12.90734075869298"><ele>157.0</ele><time>2026-04-17T16:26:14.005Z</time></trkpt><trkpt lat="46.14941731118012" lon="12.907314551165648"><ele>157.0</ele><time>2026-04-17T16:26:16.005Z</time></trkpt><trkpt lat="46.14931836694102" lon="12.90728039726141"><ele>157.0</ele><time>2026-04-17T16:26:18.005Z</time></trkpt><trkpt lat="46.14922119242421" lon="12.907239382080785"><ele>157.0</ele><time>2026-04-17T16:26:20.005Z</time></trkpt><trkpt lat="46.14912026289368" lon="12.907207424917843"><ele>156.79999999999998</ele><time>2026-04-17T16:26:22.005Z</time></trkpt><trkpt lat="46.14903943890011" lon="12.907243861766508"><ele>156.6</ele><time>2026-04-17T16:26:24.005Z</time></trkpt><trkpt lat="46.14901808454795" lon="12.907388112361744"><ele>156.39999999999998</ele><time>2026-04-17T16:26:26.005Z</time></trkpt><trkpt lat="46.14902975914712" lon="12.90753525252426"><ele>156.2</ele><time>2026-04-17T16:26:28.005Z</time></trkpt><trkpt lat="46.149031454465835" lon="12.907663390213916"><ele>156.0</ele><time>2026-04-17T16:26:30.005Z</time></trkpt><trkpt lat="46.14902606742536" lon="12.907795430310493"><ele>155.8</ele><time>2026-04-17T16:26:32.005Z</time></trkpt><trkpt lat="46.14903011163314" lon="12.907938382350137"><ele>155.6</ele><time>2026-04-17T16:26:34.005Z</time></trkpt><trkpt lat="46.14903168929344" lon="12.908072209440864"><ele>155.4</ele><time>2026-04-17T16:26:36.005Z</time></trkpt><trkpt lat="46.14904886877263" lon="12.908199290129179"><ele>155.2</ele><time>2026-04-17T16:26:38.005Z</time></trkpt><trkpt lat="46.14905333806684" lon="12.90833598106379"><ele>155.0</ele><time>2026-04-17T16:26:40.005Z</time></trkpt><trkpt lat="46.149030062676914" lon="12.908475378404797"><ele>155.5</ele><time>2026-04-17T16:26:42.005Z</time></trkpt><trkpt lat="46.149039277160924" lon="12.908596432783062"><ele>156.0</ele><time>2026-04-17T16:26:44.005Z</time></trkpt><trkpt lat="46.14904045776297" lon="12.908723010326435"><ele>156.5</ele><time>2026-04-17T16:26:46.005Z</time></trkpt><trkpt lat="46.14902193898208" lon="12.90883130878165"><ele>157.0</ele><time>2026-04-17T16:26:48.005Z</time></trkpt><trkpt lat="46.14900856010121" lon="12.908932388123116"><ele>157.5</ele><time>2026-04-17T16:26:50.005Z</time></trkpt><trkpt lat="46.149039624536094" lon="12.909045839842282"><ele>158.0</ele><time>2026-04-17T16:26:53.005Z</time></trkpt><trkpt lat="46.14910812526863" lon="12.909124385685475"><ele>158.83333333333331</ele><time>2026-04-17T16:26:55.005Z</time></trkpt><trkpt lat="46.149146980623556" lon="12.909200734500219"><ele>159.66666666666666</ele><time>2026-04-17T16:26:57.005Z</time></trkpt><trkpt lat="46.14914073815889" lon="12.909335326895553"><ele>160.5</ele><time>2026-04-17T16:27:00.005Z</time></trkpt><trkpt lat="46.14918647429977" lon="12.909400235323316"><ele>161.33333333333334</ele><time>2026-04-17T16:27:02.005Z</time></trkpt><trkpt lat="46.14920346795773" lon="12.909517847012259"><ele>162.16666666666669</ele><time>2026-04-17T16:27:04.005Z</time></trkpt><trkpt lat="46.149213171914944" lon="12.909637979022781"><ele>163.0</ele><time>2026-04-17T16:27:06.005Z</time></trkpt><trkpt lat="46.149192496461254" lon="12.90972393539475"><ele>163.16666666666669</ele><time>2026-04-17T16:27:07.006Z</time></trkpt><trkpt lat="46.14918069893054" lon="12.909866495776386"><ele>163.33333333333334</ele><time>2026-04-17T16:27:09.006Z</time></trkpt><trkpt lat="46.149191925728395" lon="12.90998886711958"><ele>163.5</ele><time>2026-04-17T16:27:11.006Z</time></trkpt><trkpt lat="46.149179546844245" lon="12.910111547400307"><ele>163.66666666666666</ele><time>2026-04-17T16:27:13.006Z</time></trkpt><trkpt lat="46.14918693544971" lon="12.910233052860477"><ele>163.83333333333331</ele><time>2026-04-17T16:27:15.006Z</time></trkpt><trkpt lat="46.1492154509007" lon="12.910334574887973"><ele>164.0</ele><time>2026-04-17T16:27:17.006Z</time></trkpt><trkpt lat="46.149221388793414" lon="12.910496145520282"><ele>164.0</ele><time>2026-04-17T16:27:20.006Z</time></trkpt><trkpt lat="46.1492165696892" lon="12.910607621361349"><ele>164.0</ele><time>2026-04-17T16:27:22.006Z</time></trkpt><trkpt lat="46.149239094061166" lon="12.910731663100869"><ele>164.0</ele><time>2026-04-17T16:27:24.006Z</time></trkpt><trkpt lat="46.14922334871553" lon="12.91085147874629"><ele>164.0</ele><time>2026-04-17T16:27:26.006Z</time></trkpt><trkpt lat="46.14922093050691" lon="12.910972621310258"><ele>164.0</ele><time>2026-04-17T16:27:28.006Z</time></trkpt><trkpt lat="46.14920844524704" lon="12.911113101869542"><ele>164.0</ele><time>2026-04-17T16:27:30.006Z</time></trkpt><trkpt lat="46.14919928213121" lon="12.911223847475924"><ele>163.79999999999998</ele><time>2026-04-17T16:27:32.006Z</time></trkpt><trkpt lat="46.149180834709405" lon="12.911408789777637"><ele>163.6</ele><time>2026-04-17T16:27:34.006Z</time></trkpt><trkpt lat="46.14918477518109" lon="12.911536298912614"><ele>163.4</ele><time>2026-04-17T16:27:36.006Z</time></trkpt><trkpt lat="46.14917077932831" lon="12.911649097896133"><ele>163.2</ele><time>2026-04-17T16:27:38.006Z</time></trkpt><trkpt lat="46.14917352667676" lon="12.911772879739507"><ele>163.0</ele><time>2026-04-17T16:27:40.006Z</time></trkpt><trkpt lat="46.149177233315626" lon="12.911912667290089"><ele>163.0</ele><time>2026-04-17T16:27:42.006Z</time></trkpt><trkpt lat="46.14918354728988" lon="12.912029758684104"><ele>163.0</ele><time>2026-04-17T16:27:44.006Z</time></trkpt><trkpt lat="46.1491942145651" lon="12.91213791483379"><ele>163.0</ele><time>2026-04-17T16:27:46.006Z</time></trkpt><trkpt lat="46.14921323447988" lon="12.91225972773887"><ele>163.0</ele><time>2026-04-17T16:27:48.006Z</time></trkpt><trkpt lat="46.14923013067154" lon="12.912372209405392"><ele>163.0</ele><time>2026-04-17T16:27:50.006Z</time></trkpt><trkpt lat="46.14923133223944" lon="12.912487593697296"><ele>163.0</ele><time>2026-04-17T16:27:52.006Z</time></trkpt><trkpt lat="46.14924517106126" lon="12.912606016722137"><ele>163.0</ele><time>2026-04-17T16:27:54.006Z</time></trkpt><trkpt lat="46.149254638345184" lon="12.91271804803854"><ele>163.0</ele><time>2026-04-17T16:27:56.006Z</time></trkpt><trkpt lat="46.14926467267609" lon="12.912837939508439"><ele>163.0</ele><time>2026-04-17T16:27:58.006Z</time></trkpt><trkpt lat="46.14928380182742" lon="12.91295938629817"><ele>163.0</ele><time>2026-04-17T16:28:00.006Z</time></trkpt><trkpt lat="46.14928601883343" lon="12.913086790770816"><ele>163.0</ele><time>2026-04-17T16:28:02.006Z</time></trkpt><trkpt lat="46.1493020507905" lon="12.913206175863353"><ele>163.0</ele><time>2026-04-17T16:28:04.006Z</time></trkpt><trkpt lat="46.149313354365006" lon="12.913322926497509"><ele>161.8</ele><time>2026-04-17T16:28:06.006Z</time></trkpt><trkpt lat="46.14932226292327" lon="12.913446749236911"><ele>160.60000000000002</ele><time>2026-04-17T16:28:08.006Z</time></trkpt><trkpt lat="46.14933615816691" lon="12.913569233606065"><ele>159.39999999999998</ele><time>2026-04-17T16:28:10.006Z</time></trkpt><trkpt lat="46.14934444060242" lon="12.913699789501944"><ele>158.2</ele><time>2026-04-17T16:28:12.006Z</time></trkpt><trkpt lat="46.14935393252408" lon="12.913835245616147"><ele>157.0</ele><time>2026-04-17T16:28:14.006Z</time></trkpt><trkpt lat="46.149365613189545" lon="12.91397113519018"><ele>157.0</ele><time>2026-04-17T16:28:16.006Z</time></trkpt><trkpt lat="46.149359311439156" lon="12.914095008521501"><ele>157.0</ele><time>2026-04-17T16:28:18.006Z</time></trkpt><trkpt lat="46.14937607501848" lon="12.914207246126635"><ele>157.0</ele><time>2026-04-17T16:28:20.006Z</time></trkpt><trkpt lat="46.149453064664094" lon="12.914241044120432"><ele>157.0</ele><time>2026-04-17T16:28:22.006Z</time></trkpt><trkpt lat="46.14954237114731" lon="12.914261904638607"><ele>157.0</ele><time>2026-04-17T16:28:24.006Z</time></trkpt><trkpt lat="46.14961924546832" lon="12.914300317748403"><ele>157.0</ele><time>2026-04-17T16:28:26.006Z</time></trkpt><trkpt lat="46.149702851086786" lon="12.914319522540566"><ele>154.83333333333334</ele><time>2026-04-17T16:28:28.006Z</time></trkpt><trkpt lat="46.14978405294485" lon="12.914326960414154"><ele>152.66666666666669</ele><time>2026-04-17T16:28:30.006Z</time></trkpt><trkpt lat="46.14986559487955" lon="12.914330876706723"><ele>150.5</ele><time>2026-04-17T16:28:32.006Z</time></trkpt><trkpt lat="46.1499534445395" lon="12.914371479421801"><ele>148.33333333333334</ele><time>2026-04-17T16:28:34.006Z</time></trkpt><trkpt lat="46.15002550515902" lon="12.914509784443984"><ele>146.16666666666666</ele><time>2026-04-17T16:28:44.006Z</time></trkpt><trkpt lat="46.149994785806705" lon="12.914593758019913"><ele>144.0</ele><time>2026-04-17T16:29:07.003Z</time></trkpt><trkpt lat="46.14998537623622" lon="12.914695447488477"><ele>144.0</ele><time>2026-04-17T16:29:12.004Z</time></trkpt><trkpt lat="46.15002030596763" lon="12.914797131699313"><ele>144.0</ele><time>2026-04-17T16:29:16.004Z</time></trkpt><trkpt lat="46.15006583633801" lon="12.914902356837661"><ele>144.0</ele><time>2026-04-17T16:29:19.004Z</time></trkpt><trkpt lat="46.15002965316913" lon="12.914979194833784"><ele>144.0</ele><time>2026-04-17T16:29:36.004Z</time></trkpt><trkpt lat="46.1499491075" lon="12.915001558538052"><ele>144.0</ele><time>2026-04-17T16:29:43.004Z</time></trkpt><trkpt lat="46.14988108791682" lon="12.915032400000598"><ele>144.0</ele><time>2026-04-17T16:29:51.004Z</time></trkpt><trkpt lat="46.14984446432468" lon="12.91511476249961"><ele>142.0</ele><time>2026-04-17T16:29:55.004Z</time></trkpt><trkpt lat="46.14981046520381" lon="12.915241147892171"><ele>140.0</ele><time>2026-04-17T16:29:58.004Z</time></trkpt><trkpt lat="46.149803950140935" lon="12.915374113602615"><ele>138.0</ele><time>2026-04-17T16:30:01.004Z</time></trkpt><trkpt lat="46.14981310537063" lon="12.915470528890218"><ele>136.0</ele><time>2026-04-17T16:30:03.004Z</time></trkpt><trkpt lat="46.14979814358784" lon="12.915593999363123"><ele>134.0</ele><time>2026-04-17T16:30:05.004Z</time></trkpt><trkpt lat="46.14974311882219" lon="12.915715200202907"><ele>132.0</ele><time>2026-04-17T16:30:07.004Z</time></trkpt><trkpt lat="46.14968708089952" lon="12.915875710311672"><ele>131.5</ele><time>2026-04-17T16:30:09.005Z</time></trkpt><trkpt lat="46.14965652903908" lon="12.915968722892368"><ele>131.0</ele><time>2026-04-17T16:30:10.005Z</time></trkpt><trkpt lat="46.149624367751755" lon="12.916050761212702"><ele>130.5</ele><time>2026-04-17T16:30:11.005Z</time></trkpt><trkpt lat="46.14959217122177" lon="12.916131495186105"><ele>130.0</ele><time>2026-04-17T16:30:12.005Z</time></trkpt><trkpt lat="46.149545688657824" lon="12.916303315436648"><ele>129.5</ele><time>2026-04-17T16:30:14.005Z</time></trkpt><trkpt lat="46.14950205843799" lon="12.916451626054426"><ele>129.0</ele><time>2026-04-17T16:30:16.005Z</time></trkpt><trkpt lat="46.149457502417214" lon="12.916603002292797"><ele>128.25</ele><time>2026-04-17T16:30:18.005Z</time></trkpt><trkpt lat="46.149415222120034" lon="12.916765141178097"><ele>127.5</ele><time>2026-04-17T16:30:20.005Z</time></trkpt><trkpt lat="46.1493730714913" lon="12.916927800370285"><ele>126.75</ele><time>2026-04-17T16:30:22.005Z</time></trkpt><trkpt lat="46.149330196292595" lon="12.917087789527208"><ele>126.0</ele><time>2026-04-17T16:30:24.005Z</time></trkpt><trkpt lat="46.1492984043189" lon="12.917239274135607"><ele>126.0</ele><time>2026-04-17T16:30:26.005Z</time></trkpt><trkpt lat="46.14924101141568" lon="12.917375917385066"><ele>126.0</ele><time>2026-04-17T16:30:28.005Z</time></trkpt><trkpt lat="46.14914610212696" lon="12.91741614707388"><ele>126.0</ele><time>2026-04-17T16:30:30.005Z</time></trkpt><trkpt lat="46.14905657171424" lon="12.917360509833935"><ele>126.0</ele><time>2026-04-17T16:30:32.005Z</time></trkpt><trkpt lat="46.148959667637655" lon="12.917310631385615"><ele>126.0</ele><time>2026-04-17T16:30:34.005Z</time></trkpt><trkpt lat="46.148859291354874" lon="12.917271239436374"><ele>125.6</ele><time>2026-04-17T16:30:36.005Z</time></trkpt><trkpt lat="46.14876584601253" lon="12.917221744706895"><ele>125.19999999999999</ele><time>2026-04-17T16:30:38.005Z</time></trkpt><trkpt lat="46.148671826461786" lon="12.917173321556744"><ele>124.80000000000001</ele><time>2026-04-17T16:30:40.005Z</time></trkpt><trkpt lat="46.148574892115384" lon="12.917115171276915"><ele>124.4</ele><time>2026-04-17T16:30:42.005Z</time></trkpt><trkpt lat="46.14846584512714" lon="12.917058581651043"><ele>124.0</ele><time>2026-04-17T16:30:44.005Z</time></trkpt><trkpt lat="46.148359047643346" lon="12.917001085405989"><ele>124.00000000000001</ele><time>2026-04-17T16:30:46.005Z</time></trkpt><trkpt lat="46.14829734212065" lon="12.916968033729349"><ele>124.0</ele><time>2026-04-17T16:30:47.005Z</time></trkpt><trkpt lat="46.14823286535226" lon="12.916934900259324"><ele>124.0</ele><time>2026-04-17T16:30:48.005Z</time></trkpt><trkpt lat="46.14811366107357" lon="12.916880529271788"><ele>124.0</ele><time>2026-04-17T16:30:50.005Z</time></trkpt><trkpt lat="46.14805044903565" lon="12.916845608301195"><ele>124.00000000000001</ele><time>2026-04-17T16:30:51.005Z</time></trkpt><trkpt lat="46.147978730516094" lon="12.916820070192122"><ele>124.0</ele><time>2026-04-17T16:30:52.005Z</time></trkpt><trkpt lat="46.14791402108441" lon="12.916778373730946"><ele>124.0</ele><time>2026-04-17T16:30:53.005Z</time></trkpt><trkpt lat="46.14784973441692" lon="12.916749902338738"><ele>124.00000000000001</ele><time>2026-04-17T16:30:54.005Z</time></trkpt><trkpt lat="46.14778460571441" lon="12.916710680006885"><ele>124.0</ele><time>2026-04-17T16:30:55.005Z</time></trkpt><trkpt lat="46.14771629885921" lon="12.916678900731867"><ele>124.0</ele><time>2026-04-17T16:30:56.005Z</time></trkpt><trkpt lat="46.147646537668635" lon="12.916643063043955"><ele>124.00000000000001</ele><time>2026-04-17T16:30:57.005Z</time></trkpt><trkpt lat="46.1475791772859" lon="12.916611427269542"><ele>124.0</ele><time>2026-04-17T16:30:58.005Z</time></trkpt><trkpt lat="46.14751597898224" lon="12.916576657692014"><ele>124.0</ele><time>2026-04-17T16:30:59.005Z</time></trkpt><trkpt lat="46.14739512991877" lon="12.916521689452248"><ele>123.71428571428572</ele><time>2026-04-17T16:31:01.005Z</time></trkpt><trkpt lat="46.14732831433275" lon="12.91648951715958"><ele>123.42857142857144</ele><time>2026-04-17T16:31:02.005Z</time></trkpt><trkpt lat="46.14725994287882" lon="12.916460472199374"><ele>123.14285714285714</ele><time>2026-04-17T16:31:03.005Z</time></trkpt><trkpt lat="46.147195396540106" lon="12.916427731452268"><ele>122.85714285714286</ele><time>2026-04-17T16:31:04.005Z</time></trkpt><trkpt lat="46.147132453769025" lon="12.91639824017998"><ele>122.57142857142857</ele><time>2026-04-17T16:31:05.005Z</time></trkpt><trkpt lat="46.14707083633373" lon="12.916370366423426"><ele>122.28571428571428</ele><time>2026-04-17T16:31:06.005Z</time></trkpt><trkpt lat="46.14700455155954" lon="12.916340774005345"><ele>121.99999999999999</ele><time>2026-04-17T16:31:07.005Z</time></trkpt><trkpt lat="46.146942861409975" lon="12.916312479540625"><ele>121.99999999999999</ele><time>2026-04-17T16:31:08.005Z</time></trkpt><trkpt lat="46.14687847910688" lon="12.916278726696516"><ele>122.0</ele><time>2026-04-17T16:31:09.005Z</time></trkpt><trkpt lat="46.14681826022356" lon="12.916234783272003"><ele>121.99999999999999</ele><time>2026-04-17T16:31:10.005Z</time></trkpt><trkpt lat="46.14676842772515" lon="12.916168985336197"><ele>121.99999999999999</ele><time>2026-04-17T16:31:11.005Z</time></trkpt><trkpt lat="46.14673126442425" lon="12.916084771533463"><ele>122.0</ele><time>2026-04-17T16:31:12.005Z</time></trkpt><trkpt lat="46.146709017888426" lon="12.915982352435261"><ele>121.99999999999999</ele><time>2026-04-17T16:31:13.005Z</time></trkpt><trkpt lat="46.14669363866691" lon="12.915884939820101"><ele>121.99999999999999</ele><time>2026-04-17T16:31:14.005Z</time></trkpt><trkpt lat="46.14667112700027" lon="12.91578799092806"><ele>121.99999999999999</ele><time>2026-04-17T16:31:15.005Z</time></trkpt><trkpt lat="46.14663237041703" lon="12.915704301539552"><ele>122.0</ele><time>2026-04-17T16:31:16.005Z</time></trkpt><trkpt lat="46.14657773035222" lon="12.915650536916445"><ele>122.0</ele><time>2026-04-17T16:31:17.005Z</time></trkpt><trkpt lat="46.146510382240194" lon="12.915619614120319"><ele>122.0</ele><time>2026-04-17T16:31:18.005Z</time></trkpt><trkpt lat="46.14644163580925" lon="12.915595617593564"><ele>121.99999999999999</ele><time>2026-04-17T16:31:19.005Z</time></trkpt><trkpt lat="46.146320043961836" lon="12.915593330042805"><ele>122.0</ele><time>2026-04-17T16:31:21.005Z</time></trkpt><trkpt lat="46.146201783841796" lon="12.915603261898333"><ele>121.8</ele><time>2026-04-17T16:31:23.005Z</time></trkpt><trkpt lat="46.14608603875474" lon="12.91561081051417"><ele>121.6</ele><time>2026-04-17T16:31:25.005Z</time></trkpt><trkpt lat="46.14596427132127" lon="12.91561451198114"><ele>121.39999999999999</ele><time>2026-04-17T16:31:27.005Z</time></trkpt><trkpt lat="46.14590037295057" lon="12.915611041059702"><ele>121.19999999999999</ele><time>2026-04-17T16:31:28.005Z</time></trkpt><trkpt lat="46.14578094443067" lon="12.915615461531164"><ele>121.0</ele><time>2026-04-17T16:31:30.005Z</time></trkpt><trkpt lat="46.145656881095086" lon="12.91561356249441"><ele>120.75</ele><time>2026-04-17T16:31:32.005Z</time></trkpt><trkpt lat="46.14553543630555" lon="12.915624417479952"><ele>120.5</ele><time>2026-04-17T16:31:34.005Z</time></trkpt><trkpt lat="46.14541289259125" lon="12.915625386765894"><ele>120.25</ele><time>2026-04-17T16:31:36.005Z</time></trkpt><trkpt lat="46.14528724590911" lon="12.9156367984184"><ele>120.0</ele><time>2026-04-17T16:31:38.005Z</time></trkpt><trkpt lat="46.14516438709004" lon="12.915648769900228"><ele>120.0</ele><time>2026-04-17T16:31:40.005Z</time></trkpt><trkpt lat="46.14509791015006" lon="12.915659830921166"><ele>120.0</ele><time>2026-04-17T16:31:41.005Z</time></trkpt><trkpt lat="46.14497931515744" lon="12.915679400259936"><ele>120.0</ele><time>2026-04-17T16:31:43.005Z</time></trkpt><trkpt lat="46.14486451094858" lon="12.915700883365474"><ele>120.0</ele><time>2026-04-17T16:31:45.005Z</time></trkpt><trkpt lat="46.14476508406971" lon="12.915706001325015"><ele>120.0</ele><time>2026-04-17T16:31:47.005Z</time></trkpt><trkpt lat="46.144650563837445" lon="12.915688601301165"><ele>119.5</ele><time>2026-04-17T16:31:49.005Z</time></trkpt><trkpt lat="46.144538341269396" lon="12.915666390834614"><ele>119.0</ele><time>2026-04-17T16:31:51.005Z</time></trkpt><trkpt lat="46.14443879283446" lon="12.915621323129658"><ele>118.5</ele><time>2026-04-17T16:31:53.005Z</time></trkpt><trkpt lat="46.1443274116214" lon="12.91557245212785"><ele>118.0</ele><time>2026-04-17T16:31:55.005Z</time></trkpt><trkpt lat="46.14421386270924" lon="12.915511382304249"><ele>118.0</ele><time>2026-04-17T16:31:57.005Z</time></trkpt><trkpt lat="46.14411338897168" lon="12.915461488663393"><ele>118.00000000000001</ele><time>2026-04-17T16:31:59.005Z</time></trkpt><trkpt lat="46.14401842019952" lon="12.915415785011856"><ele>118.00000000000001</ele><time>2026-04-17T16:32:01.006Z</time></trkpt><trkpt lat="46.14391001900422" lon="12.915381783690153"><ele>118.0</ele><time>2026-04-17T16:32:03.006Z</time></trkpt><trkpt lat="46.143805682234685" lon="12.91534411826794"><ele>118.0</ele><time>2026-04-17T16:32:05.006Z</time></trkpt><trkpt lat="46.14371204418301" lon="12.915349183144071"><ele>117.4</ele><time>2026-04-17T16:32:07.006Z</time></trkpt><trkpt lat="46.143620130035615" lon="12.915340069334663"><ele>116.80000000000001</ele><time>2026-04-17T16:32:09.006Z</time></trkpt><trkpt lat="46.143525338625174" lon="12.915320354439055"><ele>116.2</ele><time>2026-04-17T16:32:11.006Z</time></trkpt><trkpt lat="46.14343833463177" lon="12.915316756401081"><ele>115.6</ele><time>2026-04-17T16:32:13.006Z</time></trkpt><trkpt lat="46.14334249545146" lon="12.915305326051175"><ele>115.0</ele><time>2026-04-17T16:32:15.006Z</time></trkpt><trkpt lat="46.14325241253209" lon="12.915282454158941"><ele>115.33333333333334</ele><time>2026-04-17T16:32:17.006Z</time></trkpt><trkpt lat="46.143159764112006" lon="12.915266003981419"><ele>115.66666666666667</ele><time>2026-04-17T16:32:19.006Z</time></trkpt><trkpt lat="46.143079833258774" lon="12.915233093015424"><ele>116.0</ele><time>2026-04-17T16:32:21.006Z</time></trkpt><trkpt lat="46.14301303139854" lon="12.915197739781831"><ele>116.33333333333334</ele><time>2026-04-17T16:32:23.006Z</time></trkpt><trkpt lat="46.14295060267923" lon="12.91517772407993"><ele>116.66666666666667</ele><time>2026-04-17T16:32:25.006Z</time></trkpt><trkpt lat="46.14288970905501" lon="12.915142752826233"><ele>117.0</ele><time>2026-04-17T16:32:37.006Z</time></trkpt><trkpt lat="46.142801972764" lon="12.915119745704867"><ele>117.0</ele><time>2026-04-17T16:32:42.006Z</time></trkpt><trkpt lat="46.14274103397953" lon="12.91508437189349"><ele>117.0</ele><time>2026-04-17T16:32:44.006Z</time></trkpt><trkpt lat="46.14266656432711" lon="12.915058438818516"><ele>117.0</ele><time>2026-04-17T16:32:46.006Z</time></trkpt><trkpt lat="46.14258361912021" lon="12.915012959917698"><ele>117.0</ele><time>2026-04-17T16:32:48.006Z</time></trkpt><trkpt lat="46.14249730057166" lon="12.914969211161026"><ele>117.0</ele><time>2026-04-17T16:32:50.006Z</time></trkpt><trkpt lat="46.14239415511178" lon="12.914933764102448"><ele>117.0</ele><time>2026-04-17T16:32:52.006Z</time></trkpt><trkpt lat="46.142283996377536" lon="12.91487658464868"><ele>117.33333333333333</ele><time>2026-04-17T16:32:54.006Z</time></trkpt><trkpt lat="46.14216584688362" lon="12.914821339233642"><ele>117.66666666666666</ele><time>2026-04-17T16:32:56.006Z</time></trkpt><trkpt lat="46.14210128170797" lon="12.914805776871127"><ele>118.0</ele><time>2026-04-17T16:32:57.006Z</time></trkpt><trkpt lat="46.14202604645931" lon="12.914797279913374"><ele>118.33333333333333</ele><time>2026-04-17T16:32:58.006Z</time></trkpt><trkpt lat="46.141958235991304" lon="12.914790589567433"><ele>118.66666666666666</ele><time>2026-04-17T16:32:59.006Z</time></trkpt><trkpt lat="46.141890349784084" lon="12.914795571573991"><ele>119.0</ele><time>2026-04-17T16:33:00.006Z</time></trkpt><trkpt lat="46.141761196474455" lon="12.914793292754274"><ele>118.99999999999999</ele><time>2026-04-17T16:33:02.006Z</time></trkpt><trkpt lat="46.1416911011736" lon="12.914778852455395"><ele>119.0</ele><time>2026-04-17T16:33:03.006Z</time></trkpt><trkpt lat="46.1416196284027" lon="12.914750692379604"><ele>119.0</ele><time>2026-04-17T16:33:04.006Z</time></trkpt><trkpt lat="46.14154870153992" lon="12.914740149685137"><ele>119.0</ele><time>2026-04-17T16:33:05.006Z</time></trkpt><trkpt lat="46.14148243911393" lon="12.914778263228952"><ele>118.99999999999999</ele><time>2026-04-17T16:33:06.006Z</time></trkpt><trkpt lat="46.14142852531453" lon="12.91485651979454"><ele>119.0</ele><time>2026-04-17T16:33:07.006Z</time></trkpt><trkpt lat="46.14140359185823" lon="12.915025028388069"><ele>118.4</ele><time>2026-04-17T16:33:09.006Z</time></trkpt><trkpt lat="46.14142820880979" lon="12.915117208179009"><ele>117.80000000000001</ele><time>2026-04-17T16:33:10.006Z</time></trkpt><trkpt lat="46.141465637884814" lon="12.91519306476717"><ele>117.19999999999999</ele><time>2026-04-17T16:33:11.006Z</time></trkpt><trkpt lat="46.141523712986995" lon="12.915337798465744"><ele>116.6</ele><time>2026-04-17T16:33:13.006Z</time></trkpt><trkpt lat="46.14157411971895" lon="12.915492074094676"><ele>116.0</ele><time>2026-04-17T16:33:15.006Z</time></trkpt><trkpt lat="46.14162186811093" lon="12.915639835829865"><ele>116.0</ele><time>2026-04-17T16:33:17.006Z</time></trkpt><trkpt lat="46.14164704760553" lon="12.915789275465874"><ele>116.0</ele><time>2026-04-17T16:33:19.006Z</time></trkpt><trkpt lat="46.141641823683116" lon="12.915961523946772"><ele>116.0</ele><time>2026-04-17T16:33:21.006Z</time></trkpt><trkpt lat="46.14158646691359" lon="12.916074841562292"><ele>116.0</ele><time>2026-04-17T16:33:23.006Z</time></trkpt><trkpt lat="46.141497224314385" lon="12.916038094789359"><ele>116.0</ele><time>2026-04-17T16:33:25.006Z</time></trkpt><trkpt lat="46.14140426079358" lon="12.915972445177427"><ele>115.6</ele><time>2026-04-17T16:33:27.006Z</time></trkpt><trkpt lat="46.1413091587786" lon="12.915937243744482"><ele>115.19999999999999</ele><time>2026-04-17T16:33:29.006Z</time></trkpt><trkpt lat="46.14120463124768" lon="12.915889474960927"><ele>114.80000000000001</ele><time>2026-04-17T16:33:31.006Z</time></trkpt><trkpt lat="46.14109267801235" lon="12.91584988602925"><ele>114.4</ele><time>2026-04-17T16:33:33.006Z</time></trkpt><trkpt lat="46.140978058399355" lon="12.915821472010567"><ele>114.0</ele><time>2026-04-17T16:33:35.006Z</time></trkpt><trkpt lat="46.140857787064505" lon="12.91576508693253"><ele>114.0</ele><time>2026-04-17T16:33:37.006Z</time></trkpt><trkpt lat="46.14074094457601" lon="12.915721139993455"><ele>114.0</ele><time>2026-04-17T16:33:39.006Z</time></trkpt><trkpt lat="46.14068043106019" lon="12.915693252290483"><ele>114.0</ele><time>2026-04-17T16:33:40.006Z</time></trkpt><trkpt lat="46.1405728828934" lon="12.91564400091645"><ele>114.0</ele><time>2026-04-17T16:33:42.006Z</time></trkpt><trkpt lat="46.14050395598115" lon="12.915608911293786"><ele>114.0</ele><time>2026-04-17T16:33:43.006Z</time></trkpt><trkpt lat="46.14043928681746" lon="12.915579009520657"><ele>114.0</ele><time>2026-04-17T16:33:44.006Z</time></trkpt><trkpt lat="46.14032490109916" lon="12.91553531912468"><ele>114.0</ele><time>2026-04-17T16:33:46.006Z</time></trkpt><trkpt lat="46.14020111672663" lon="12.91549498964092"><ele>114.0</ele><time>2026-04-17T16:33:48.006Z</time></trkpt><trkpt lat="46.14013802117931" lon="12.915471739423554"><ele>114.0</ele><time>2026-04-17T16:33:49.006Z</time></trkpt><trkpt lat="46.14006638788707" lon="12.915438862353186"><ele>114.0</ele><time>2026-04-17T16:33:50.007Z</time></trkpt><trkpt lat="46.1399898162276" lon="12.915407552983552"><ele>114.0</ele><time>2026-04-17T16:33:51.006Z</time></trkpt><trkpt lat="46.13992795749439" lon="12.915371266914189"><ele>114.0</ele><time>2026-04-17T16:33:52.006Z</time></trkpt><trkpt lat="46.13986026551265" lon="12.915346059976963"><ele>113.6</ele><time>2026-04-17T16:33:53.006Z</time></trkpt><trkpt lat="46.13974593152238" lon="12.915313170439255"><ele>113.2</ele><time>2026-04-17T16:33:55.007Z</time></trkpt><trkpt lat="46.139624971495216" lon="12.915270246047488"><ele>112.79999999999998</ele><time>2026-04-17T16:33:57.006Z</time></trkpt><trkpt lat="46.13955909180194" lon="12.91523437344636"><ele>112.39999999999999</ele><time>2026-04-17T16:33:58.006Z</time></trkpt><trkpt lat="46.139480426057695" lon="12.915202020527438"><ele>112.0</ele><time>2026-04-17T16:33:59.006Z</time></trkpt><trkpt lat="46.13940506867044" lon="12.91517544621765"><ele>112.0</ele><time>2026-04-17T16:34:00.006Z</time></trkpt><trkpt lat="46.139330481246525" lon="12.915138175944175"><ele>112.0</ele><time>2026-04-17T16:34:01.006Z</time></trkpt><trkpt lat="46.13926588281066" lon="12.915107658337647"><ele>112.0</ele><time>2026-04-17T16:34:02.006Z</time></trkpt><trkpt lat="46.13920118952241" lon="12.915065073776722"><ele>112.0</ele><time>2026-04-17T16:34:03.006Z</time></trkpt><trkpt lat="46.13913753241802" lon="12.915029780159257"><ele>112.0</ele><time>2026-04-17T16:34:04.006Z</time></trkpt><trkpt lat="46.13907664245139" lon="12.914996188547656"><ele>112.0</ele><time>2026-04-17T16:34:05.006Z</time></trkpt><trkpt lat="46.1390141591698" lon="12.914961722069522"><ele>112.0</ele><time>2026-04-17T16:34:06.006Z</time></trkpt><trkpt lat="46.13895003991209" lon="12.91492848469861"><ele>112.16666666666667</ele><time>2026-04-17T16:34:07.006Z</time></trkpt><trkpt lat="46.13888659370527" lon="12.914898618588335"><ele>112.33333333333334</ele><time>2026-04-17T16:34:08.006Z</time></trkpt><trkpt lat="46.138819699011904" lon="12.914866622507844"><ele>112.5</ele><time>2026-04-17T16:34:09.006Z</time></trkpt><trkpt lat="46.13875703220856" lon="12.914840525731266"><ele>112.66666666666666</ele><time>2026-04-17T16:34:10.006Z</time></trkpt><trkpt lat="46.13869254114891" lon="12.914824688276777"><ele>112.83333333333333</ele><time>2026-04-17T16:34:11.006Z</time></trkpt><trkpt lat="46.138573529057844" lon="12.914783975901816"><ele>113.0</ele><time>2026-04-17T16:34:13.006Z</time></trkpt><trkpt lat="46.138511169703875" lon="12.914758364518157"><ele>113.0</ele><time>2026-04-17T16:34:14.006Z</time></trkpt><trkpt lat="46.1383932876555" lon="12.914716448506404"><ele>113.00000000000001</ele><time>2026-04-17T16:34:16.006Z</time></trkpt><trkpt lat="46.13827525234932" lon="12.914676296563087"><ele>113.00000000000001</ele><time>2026-04-17T16:34:18.006Z</time></trkpt><trkpt lat="46.13817420823743" lon="12.914602993889842"><ele>113.0</ele><time>2026-04-17T16:34:20.006Z</time></trkpt><trkpt lat="46.13811680453508" lon="12.914564837825598"><ele>113.0</ele><time>2026-04-17T16:34:21.006Z</time></trkpt><trkpt lat="46.13800180342037" lon="12.91452049932438"><ele>112.80000000000001</ele><time>2026-04-17T16:34:23.006Z</time></trkpt><trkpt lat="46.13789916725838" lon="12.914476985558448"><ele>112.60000000000001</ele><time>2026-04-17T16:34:25.006Z</time></trkpt><trkpt lat="46.1377892267519" lon="12.914442871844868"><ele>112.39999999999999</ele><time>2026-04-17T16:34:27.006Z</time></trkpt><trkpt lat="46.13768006378752" lon="12.914400711860775"><ele>112.19999999999999</ele><time>2026-04-17T16:34:29.006Z</time></trkpt><trkpt lat="46.137619674892626" lon="12.914369610795015"><ele>112.0</ele><time>2026-04-17T16:34:30.006Z</time></trkpt><trkpt lat="46.137549433533486" lon="12.914341933069311"><ele>112.00000000000001</ele><time>2026-04-17T16:34:31.006Z</time></trkpt><trkpt lat="46.13748488569339" lon="12.914339309809371"><ele>112.0</ele><time>2026-04-17T16:34:32.006Z</time></trkpt><trkpt lat="46.1374166979305" lon="12.914308748913944"><ele>112.0</ele><time>2026-04-17T16:34:33.006Z</time></trkpt><trkpt lat="46.13735805218587" lon="12.914269750989332"><ele>112.0</ele><time>2026-04-17T16:34:34.006Z</time></trkpt><trkpt lat="46.137292440467824" lon="12.914222457734887"><ele>112.00000000000001</ele><time>2026-04-17T16:34:35.006Z</time></trkpt><trkpt lat="46.137229472232356" lon="12.914190622359408"><ele>112.0</ele><time>2026-04-17T16:34:36.006Z</time></trkpt><trkpt lat="46.13711235631877" lon="12.914141850942546"><ele>112.8</ele><time>2026-04-17T16:34:38.006Z</time></trkpt><trkpt lat="46.13697936620232" lon="12.914094974426083"><ele>113.6</ele><time>2026-04-17T16:34:40.006Z</time></trkpt><trkpt lat="46.13685125610996" lon="12.914052427807523"><ele>114.39999999999999</ele><time>2026-04-17T16:34:42.006Z</time></trkpt><trkpt lat="46.13678817682813" lon="12.914020783486889"><ele>115.19999999999999</ele><time>2026-04-17T16:34:43.006Z</time></trkpt><trkpt lat="46.13672274229524" lon="12.914006538579061"><ele>116.0</ele><time>2026-04-17T16:34:44.006Z</time></trkpt><trkpt lat="46.13666178092666" lon="12.913973664028466"><ele>116.00000000000001</ele><time>2026-04-17T16:34:45.006Z</time></trkpt><trkpt lat="46.136600235031295" lon="12.91394292795551"><ele>116.0</ele><time>2026-04-17T16:34:46.006Z</time></trkpt><trkpt lat="46.13653850710862" lon="12.913915025511049"><ele>116.00000000000001</ele><time>2026-04-17T16:34:47.006Z</time></trkpt><trkpt lat="46.13641875690746" lon="12.91385796857889"><ele>116.00000000000001</ele><time>2026-04-17T16:34:49.006Z</time></trkpt><trkpt lat="46.13635479405047" lon="12.913837709488789"><ele>116.0</ele><time>2026-04-17T16:34:50.006Z</time></trkpt><trkpt lat="46.136292013844894" lon="12.913828552106622"><ele>116.00000000000001</ele><time>2026-04-17T16:34:51.006Z</time></trkpt><trkpt lat="46.13622860329712" lon="12.913827825007012"><ele>116.00000000000001</ele><time>2026-04-17T16:34:52.006Z</time></trkpt><trkpt lat="46.13616495452675" lon="12.913829750516669"><ele>115.8</ele><time>2026-04-17T16:34:53.006Z</time></trkpt><trkpt lat="46.13604404538027" lon="12.913823067859227"><ele>115.6</ele><time>2026-04-17T16:34:55.006Z</time></trkpt><trkpt lat="46.13598186283027" lon="12.913807919984183"><ele>115.4</ele><time>2026-04-17T16:34:56.006Z</time></trkpt><trkpt lat="46.13585954836068" lon="12.913780316874622"><ele>115.2</ele><time>2026-04-17T16:34:58.007Z</time></trkpt><trkpt lat="46.13579734418189" lon="12.91375730117064"><ele>115.0</ele><time>2026-04-17T16:34:59.007Z</time></trkpt><trkpt lat="46.1356845446688" lon="12.913697804253646"><ele>114.8</ele><time>2026-04-17T16:35:01.007Z</time></trkpt><trkpt lat="46.135576896937366" lon="12.91363039455597"><ele>114.6</ele><time>2026-04-17T16:35:03.007Z</time></trkpt><trkpt lat="46.135467404970015" lon="12.913561354078706"><ele>114.4</ele><time>2026-04-17T16:35:05.007Z</time></trkpt><trkpt lat="46.135361074373954" lon="12.913475233134273"><ele>114.2</ele><time>2026-04-17T16:35:07.007Z</time></trkpt><trkpt lat="46.13530451390224" lon="12.913431551745173"><ele>114.0</ele><time>2026-04-17T16:35:08.007Z</time></trkpt><trkpt lat="46.13525060412773" lon="12.913381849691529"><ele>114.0</ele><time>2026-04-17T16:35:09.007Z</time></trkpt><trkpt lat="46.13514477145797" lon="12.913290017788656"><ele>114.0</ele><time>2026-04-17T16:35:11.007Z</time></trkpt><trkpt lat="46.13508769824894" lon="12.913245490766728"><ele>114.0</ele><time>2026-04-17T16:35:12.007Z</time></trkpt><trkpt lat="46.13497270317561" lon="12.913211056402826"><ele>114.0</ele><time>2026-04-17T16:35:14.007Z</time></trkpt><trkpt lat="46.1349108705178" lon="12.913193964277768"><ele>114.0</ele><time>2026-04-17T16:35:15.007Z</time></trkpt><trkpt lat="46.1348053217194" lon="12.913141414536184"><ele>113.2</ele><time>2026-04-17T16:35:17.007Z</time></trkpt><trkpt lat="46.13468947216621" lon="12.91309551749027"><ele>112.4</ele><time>2026-04-17T16:35:19.007Z</time></trkpt><trkpt lat="46.13456693851974" lon="12.913073003491908"><ele>111.6</ele><time>2026-04-17T16:35:21.007Z</time></trkpt><trkpt lat="46.13444838920568" lon="12.913080719422087"><ele>110.8</ele><time>2026-04-17T16:35:23.007Z</time></trkpt><trkpt lat="46.13438401852147" lon="12.913094021658978"><ele>110.0</ele><time>2026-04-17T16:35:24.007Z</time></trkpt><trkpt lat="46.13431988372628" lon="12.913103507978738"><ele>110.0</ele><time>2026-04-17T16:35:25.007Z</time></trkpt><trkpt lat="46.13419883859683" lon="12.913128959230841"><ele>110.0</ele><time>2026-04-17T16:35:27.007Z</time></trkpt><trkpt lat="46.13408380776927" lon="12.913160531309327"><ele>110.0</ele><time>2026-04-17T16:35:29.007Z</time></trkpt><trkpt lat="46.13401922848192" lon="12.913172564608617"><ele>110.0</ele><time>2026-04-17T16:35:30.007Z</time></trkpt><trkpt lat="46.133956223877284" lon="12.913189888366839"><ele>110.0</ele><time>2026-04-17T16:35:31.007Z</time></trkpt><trkpt lat="46.13383585137807" lon="12.913210427803346"><ele>110.0</ele><time>2026-04-17T16:35:33.007Z</time></trkpt><trkpt lat="46.133717760083854" lon="12.913210192200106"><ele>110.0</ele><time>2026-04-17T16:35:35.007Z</time></trkpt><trkpt lat="46.13360532356565" lon="12.91321577827578"><ele>110.0</ele><time>2026-04-17T16:35:37.007Z</time></trkpt><trkpt lat="46.13351393360471" lon="12.91319403717172"><ele>110.0</ele><time>2026-04-17T16:35:39.007Z</time></trkpt><trkpt lat="46.13341413451962" lon="12.913158956032374"><ele>110.0</ele><time>2026-04-17T16:35:41.007Z</time></trkpt><trkpt lat="46.13331007029537" lon="12.913122986219408"><ele>109.6</ele><time>2026-04-17T16:35:43.007Z</time></trkpt><trkpt lat="46.13321742378869" lon="12.913077219929274"><ele>109.2</ele><time>2026-04-17T16:35:45.007Z</time></trkpt><trkpt lat="46.13311948285082" lon="12.913004444888562"><ele>108.80000000000001</ele><time>2026-04-17T16:35:47.007Z</time></trkpt><trkpt lat="46.13302677567374" lon="12.912934552733931"><ele>108.4</ele><time>2026-04-17T16:35:49.007Z</time></trkpt><trkpt lat="46.13293461791614" lon="12.912865074846959"><ele>108.0</ele><time>2026-04-17T16:35:51.007Z</time></trkpt><trkpt lat="46.132835472289685" lon="12.912792054258677"><ele>108.0</ele><time>2026-04-17T16:35:53.007Z</time></trkpt><trkpt lat="46.13272242809763" lon="12.912727627663102"><ele>108.00000000000001</ele><time>2026-04-17T16:35:55.007Z</time></trkpt><trkpt lat="46.1326213581913" lon="12.912675332326316"><ele>108.00000000000001</ele><time>2026-04-17T16:35:57.007Z</time></trkpt><trkpt lat="46.132557544387666" lon="12.912667444497048"><ele>108.0</ele><time>2026-04-17T16:35:58.007Z</time></trkpt><trkpt lat="46.13249584738002" lon="12.912643556396832"><ele>108.0</ele><time>2026-04-17T16:35:59.007Z</time></trkpt><trkpt lat="46.13237730403027" lon="12.912629864175425"><ele>108.2</ele><time>2026-04-17T16:36:01.007Z</time></trkpt><trkpt lat="46.1323130501912" lon="12.91263665290837"><ele>108.4</ele><time>2026-04-17T16:36:02.007Z</time></trkpt><trkpt lat="46.13224892512107" lon="12.912651116968092"><ele>108.60000000000001</ele><time>2026-04-17T16:36:03.008Z</time></trkpt><trkpt lat="46.13212400071158" lon="12.912644290295958"><ele>108.80000000000001</ele><time>2026-04-17T16:36:05.007Z</time></trkpt><trkpt lat="46.132002856763854" lon="12.912610154834018"><ele>109.0</ele><time>2026-04-17T16:36:07.007Z</time></trkpt><trkpt lat="46.1318825138772" lon="12.912570809655113"><ele>109.0</ele><time>2026-04-17T16:36:09.007Z</time></trkpt><trkpt lat="46.1317667414838" lon="12.912520220083119"><ele>109.0</ele><time>2026-04-17T16:36:11.007Z</time></trkpt><trkpt lat="46.1317100877383" lon="12.91247409484126"><ele>109.0</ele><time>2026-04-17T16:36:12.007Z</time></trkpt><trkpt lat="46.13159376916896" lon="12.912412826733943"><ele>109.0</ele><time>2026-04-17T16:36:14.007Z</time></trkpt><trkpt lat="46.13147503462241" lon="12.912351285962174"><ele>109.0</ele><time>2026-04-17T16:36:16.007Z</time></trkpt><trkpt lat="46.1313663594384" lon="12.912284637050034"><ele>109.00000000000001</ele><time>2026-04-17T16:36:18.007Z</time></trkpt><trkpt lat="46.131309209905" lon="12.912238001637443"><ele>109.0</ele><time>2026-04-17T16:36:19.007Z</time></trkpt><trkpt lat="46.13125561797548" lon="12.912190306966641"><ele>109.0</ele><time>2026-04-17T16:36:20.007Z</time></trkpt><trkpt lat="46.131153308577986" lon="12.912108588692794"><ele>109.0</ele><time>2026-04-17T16:36:22.007Z</time></trkpt><trkpt lat="46.131096939662655" lon="12.912066793363854"><ele>109.00000000000001</ele><time>2026-04-17T16:36:23.007Z</time></trkpt><trkpt lat="46.13099610264465" lon="12.911998665341711"><ele>109.0</ele><time>2026-04-17T16:36:25.007Z</time></trkpt><trkpt lat="46.13090526911033" lon="12.911892874002243"><ele>109.0</ele><time>2026-04-17T16:36:27.007Z</time></trkpt><trkpt lat="46.130807570309166" lon="12.91181624802268"><ele>109.0</ele><time>2026-04-17T16:36:29.007Z</time></trkpt><trkpt lat="46.13071029732883" lon="12.911756106239395"><ele>109.0</ele><time>2026-04-17T16:36:31.007Z</time></trkpt><trkpt lat="46.130624022884604" lon="12.91164749399612"><ele>109.0</ele><time>2026-04-17T16:36:33.007Z</time></trkpt><trkpt lat="46.13053486227608" lon="12.911544805109886"><ele>109.0</ele><time>2026-04-17T16:36:35.007Z</time></trkpt><trkpt lat="46.13044568842697" lon="12.911445675387611"><ele>109.0</ele><time>2026-04-17T16:36:37.007Z</time></trkpt><trkpt lat="46.130354857109154" lon="12.911341303978455"><ele>109.0</ele><time>2026-04-17T16:36:39.007Z</time></trkpt><trkpt lat="46.13025151380515" lon="12.91126005832343"><ele>109.0</ele><time>2026-04-17T16:36:41.007Z</time></trkpt><trkpt lat="46.130147421129074" lon="12.911196264014293"><ele>109.0</ele><time>2026-04-17T16:36:43.007Z</time></trkpt><trkpt lat="46.13003805512804" lon="12.911133793511736"><ele>109.0</ele><time>2026-04-17T16:36:45.007Z</time></trkpt><trkpt lat="46.12991881961812" lon="12.911089823858623"><ele>109.0</ele><time>2026-04-17T16:36:47.007Z</time></trkpt><trkpt lat="46.12981794681065" lon="12.911068521930499"><ele>109.0</ele><time>2026-04-17T16:36:49.007Z</time></trkpt><trkpt lat="46.129704063721405" lon="12.911079059033774"><ele>109.0</ele><time>2026-04-17T16:36:51.008Z</time></trkpt><trkpt lat="46.129609227468684" lon="12.91111393627019"><ele>109.0</ele><time>2026-04-17T16:36:53.008Z</time></trkpt><trkpt lat="46.12954646926389" lon="12.911126906590125"><ele>108.75</ele><time>2026-04-17T16:36:54.008Z</time></trkpt><trkpt lat="46.129438247610615" lon="12.911175280452365"><ele>108.5</ele><time>2026-04-17T16:36:56.008Z</time></trkpt><trkpt lat="46.129322968988404" lon="12.911193424371456"><ele>108.25</ele><time>2026-04-17T16:36:58.008Z</time></trkpt><trkpt lat="46.12920206699014" lon="12.91120332737872"><ele>108.0</ele><time>2026-04-17T16:37:00.008Z</time></trkpt><trkpt lat="46.12908623105456" lon="12.91118594820636"><ele>107.75</ele><time>2026-04-17T16:37:02.008Z</time></trkpt><trkpt lat="46.128964981511906" lon="12.91117128962437"><ele>107.5</ele><time>2026-04-17T16:37:04.008Z</time></trkpt><trkpt lat="46.128842552188914" lon="12.911169519828142"><ele>107.25</ele><time>2026-04-17T16:37:06.008Z</time></trkpt><trkpt lat="46.12871934332266" lon="12.911203991742132"><ele>107.0</ele><time>2026-04-17T16:37:08.008Z</time></trkpt><trkpt lat="46.12860061157466" lon="12.911217305647751"><ele>107.0</ele><time>2026-04-17T16:37:10.008Z</time></trkpt><trkpt lat="46.12848639747028" lon="12.91122400627924"><ele>106.99999999999999</ele><time>2026-04-17T16:37:12.008Z</time></trkpt><trkpt lat="46.12842003894742" lon="12.911214023195722"><ele>106.99999999999999</ele><time>2026-04-17T16:37:13.008Z</time></trkpt><trkpt lat="46.12829693496627" lon="12.91119411747409"><ele>107.0</ele><time>2026-04-17T16:37:15.008Z</time></trkpt><trkpt lat="46.12817943148498" lon="12.911172866014818"><ele>107.0</ele><time>2026-04-17T16:37:17.008Z</time></trkpt><trkpt lat="46.12807200079224" lon="12.911129745803235"><ele>107.5</ele><time>2026-04-17T16:37:19.008Z</time></trkpt><trkpt lat="46.12795563572269" lon="12.911093617929325"><ele>108.0</ele><time>2026-04-17T16:37:21.008Z</time></trkpt><trkpt lat="46.12783616460951" lon="12.91106686834069"><ele>108.5</ele><time>2026-04-17T16:37:23.008Z</time></trkpt><trkpt lat="46.12772375096258" lon="12.911056566318825"><ele>109.0</ele><time>2026-04-17T16:37:25.008Z</time></trkpt><trkpt lat="46.12760621429717" lon="12.911043488859967"><ele>109.0</ele><time>2026-04-17T16:37:27.008Z</time></trkpt><trkpt lat="46.12749828769158" lon="12.911029958769397"><ele>109.0</ele><time>2026-04-17T16:37:29.008Z</time></trkpt><trkpt lat="46.12738454933248" lon="12.91100116121699"><ele>109.0</ele><time>2026-04-17T16:37:31.008Z</time></trkpt><trkpt lat="46.12726638447673" lon="12.91099099188142"><ele>109.0</ele><time>2026-04-17T16:37:33.008Z</time></trkpt><trkpt lat="46.12714954561923" lon="12.910980389348568"><ele>109.0</ele><time>2026-04-17T16:37:35.008Z</time></trkpt><trkpt lat="46.12704091534729" lon="12.91096771947436"><ele>109.0</ele><time>2026-04-17T16:37:37.008Z</time></trkpt><trkpt lat="46.12692878895942" lon="12.910935400639001"><ele>109.0</ele><time>2026-04-17T16:37:39.008Z</time></trkpt><trkpt lat="46.12681970770437" lon="12.910909086046487"><ele>109.0</ele><time>2026-04-17T16:37:41.008Z</time></trkpt><trkpt lat="46.12670937021245" lon="12.910881442871423"><ele>109.0</ele><time>2026-04-17T16:37:43.008Z</time></trkpt><trkpt lat="46.12660334006626" lon="12.910856362662596"><ele>109.25</ele><time>2026-04-17T16:37:45.008Z</time></trkpt><trkpt lat="46.126493565425655" lon="12.910833311749954"><ele>109.5</ele><time>2026-04-17T16:37:47.008Z</time></trkpt><trkpt lat="46.12638154139145" lon="12.910812368336478"><ele>109.75</ele><time>2026-04-17T16:37:49.008Z</time></trkpt><trkpt lat="46.12627119258332" lon="12.910798788430208"><ele>110.0</ele><time>2026-04-17T16:37:51.008Z</time></trkpt><trkpt lat="46.12615661372526" lon="12.910780027697601"><ele>109.99999999999999</ele><time>2026-04-17T16:37:53.008Z</time></trkpt><trkpt lat="46.126058853019266" lon="12.910763685701834"><ele>110.0</ele><time>2026-04-17T16:37:55.008Z</time></trkpt><trkpt lat="46.12597127339829" lon="12.910750337277566"><ele>110.0</ele><time>2026-04-17T16:37:57.008Z</time></trkpt><trkpt lat="46.12585123573107" lon="12.910734127483497"><ele>110.0</ele><time>2026-04-17T16:37:59.008Z</time></trkpt><trkpt lat="46.125783280285525" lon="12.91071970387837"><ele>109.99999999999999</ele><time>2026-04-17T16:38:00.008Z</time></trkpt><trkpt lat="46.12571983612225" lon="12.910712395556954"><ele>110.0</ele><time>2026-04-17T16:38:01.008Z</time></trkpt><trkpt lat="46.12559720050042" lon="12.910703380095597"><ele>108.75</ele><time>2026-04-17T16:38:03.008Z</time></trkpt><trkpt lat="46.125487237551745" lon="12.910692001561848"><ele>107.5</ele><time>2026-04-17T16:38:05.009Z</time></trkpt><trkpt lat="46.125371400769254" lon="12.910669640557428"><ele>106.25</ele><time>2026-04-17T16:38:07.008Z</time></trkpt><trkpt lat="46.12525380265732" lon="12.910657481115837"><ele>105.0</ele><time>2026-04-17T16:38:09.008Z</time></trkpt><trkpt lat="46.125149703048876" lon="12.91064158354126"><ele>105.0</ele><time>2026-04-17T16:38:11.009Z</time></trkpt><trkpt lat="46.12504052840957" lon="12.910617990446818"><ele>105.0</ele><time>2026-04-17T16:38:13.008Z</time></trkpt><trkpt lat="46.124931416869906" lon="12.910593575329802"><ele>105.0</ele><time>2026-04-17T16:38:15.009Z</time></trkpt><trkpt lat="46.1248230368525" lon="12.910571596692291"><ele>105.0</ele><time>2026-04-17T16:38:17.009Z</time></trkpt><trkpt lat="46.12471754786438" lon="12.91055275941931"><ele>105.0</ele><time>2026-04-17T16:38:19.009Z</time></trkpt><trkpt lat="46.12461164766784" lon="12.910529758081937"><ele>105.0</ele><time>2026-04-17T16:38:21.009Z</time></trkpt><trkpt lat="46.12449387984771" lon="12.910511281218087"><ele>105.0</ele><time>2026-04-17T16:38:23.009Z</time></trkpt><trkpt lat="46.124379414486256" lon="12.910489711104166"><ele>105.0</ele><time>2026-04-17T16:38:25.009Z</time></trkpt><trkpt lat="46.1242634450386" lon="12.910463255581549"><ele>105.0</ele><time>2026-04-17T16:38:27.009Z</time></trkpt><trkpt lat="46.12415560575549" lon="12.910446961866878"><ele>105.0</ele><time>2026-04-17T16:38:29.009Z</time></trkpt><trkpt lat="46.12409401212182" lon="12.910425229441971"><ele>105.0</ele><time>2026-04-17T16:38:30.009Z</time></trkpt><trkpt lat="46.12398334921135" lon="12.910374065948284"><ele>105.0</ele><time>2026-04-17T16:38:32.009Z</time></trkpt><trkpt lat="46.12387388508464" lon="12.910333365444865"><ele>105.0</ele><time>2026-04-17T16:38:34.009Z</time></trkpt><trkpt lat="46.12375683586528" lon="12.910277446901047"><ele>105.0</ele><time>2026-04-17T16:38:36.009Z</time></trkpt><trkpt lat="46.12366228482785" lon="12.910228949790676"><ele>105.0</ele><time>2026-04-17T16:38:38.009Z</time></trkpt><trkpt lat="46.123609170685626" lon="12.910179584285334"><ele>105.0</ele><time>2026-04-17T16:38:39.009Z</time></trkpt><trkpt lat="46.12350463775022" lon="12.910105687969882"><ele>105.0</ele><time>2026-04-17T16:38:41.009Z</time></trkpt><trkpt lat="46.123403361975136" lon="12.910017517170854"><ele>105.0</ele><time>2026-04-17T16:38:43.009Z</time></trkpt><trkpt lat="46.12334928488017" lon="12.909970459582958"><ele>105.0</ele><time>2026-04-17T16:38:44.009Z</time></trkpt><trkpt lat="46.12324613831655" lon="12.909884816707441"><ele>105.25</ele><time>2026-04-17T16:38:46.009Z</time></trkpt><trkpt lat="46.12313668960195" lon="12.909813316730645"><ele>105.5</ele><time>2026-04-17T16:38:48.009Z</time></trkpt><trkpt lat="46.12303080217517" lon="12.909762920357368"><ele>105.75</ele><time>2026-04-17T16:38:50.009Z</time></trkpt><trkpt lat="46.12292064984884" lon="12.90968538397939"><ele>106.0</ele><time>2026-04-17T16:38:52.009Z</time></trkpt><trkpt lat="46.12280700307882" lon="12.909615018362013"><ele>106.0</ele><time>2026-04-17T16:38:54.009Z</time></trkpt><trkpt lat="46.12269694430508" lon="12.909542346471726"><ele>106.0</ele><time>2026-04-17T16:38:56.009Z</time></trkpt><trkpt lat="46.1225927176661" lon="12.909447251505156"><ele>106.0</ele><time>2026-04-17T16:38:58.009Z</time></trkpt><trkpt lat="46.1224974074853" lon="12.909361047350105"><ele>106.0</ele><time>2026-04-17T16:39:00.009Z</time></trkpt><trkpt lat="46.12238833355462" lon="12.909277296748009"><ele>105.5</ele><time>2026-04-17T16:39:02.009Z</time></trkpt><trkpt lat="46.12227095359225" lon="12.909225818865195"><ele>105.0</ele><time>2026-04-17T16:39:04.009Z</time></trkpt><trkpt lat="46.122158859672524" lon="12.909196385605181"><ele>104.5</ele><time>2026-04-17T16:39:06.009Z</time></trkpt><trkpt lat="46.1220358212613" lon="12.909167763627943"><ele>104.0</ele><time>2026-04-17T16:39:08.009Z</time></trkpt><trkpt lat="46.121915482501116" lon="12.90913740281591"><ele>104.0</ele><time>2026-04-17T16:39:10.009Z</time></trkpt><trkpt lat="46.12180284435453" lon="12.909105125596788"><ele>104.0</ele><time>2026-04-17T16:39:12.009Z</time></trkpt><trkpt lat="46.121687202677606" lon="12.909075658337418"><ele>104.0</ele><time>2026-04-17T16:39:14.009Z</time></trkpt><trkpt lat="46.121624111214004" lon="12.909058049005383"><ele>104.0</ele><time>2026-04-17T16:39:15.009Z</time></trkpt><trkpt lat="46.12150877575388" lon="12.909021490905927"><ele>104.0</ele><time>2026-04-17T16:39:17.009Z</time></trkpt><trkpt lat="46.12139345690399" lon="12.908985604148917"><ele>104.2</ele><time>2026-04-17T16:39:19.009Z</time></trkpt><trkpt lat="46.121283047721214" lon="12.908956811792832"><ele>104.4</ele><time>2026-04-17T16:39:21.009Z</time></trkpt><trkpt lat="46.121163025705734" lon="12.908919424942393"><ele>104.6</ele><time>2026-04-17T16:39:23.009Z</time></trkpt><trkpt lat="46.121064537072584" lon="12.908886943370526"><ele>104.8</ele><time>2026-04-17T16:39:25.009Z</time></trkpt><trkpt lat="46.120958666467345" lon="12.908860071345934"><ele>105.0</ele><time>2026-04-17T16:39:27.009Z</time></trkpt><trkpt lat="46.120845960753435" lon="12.90882255543701"><ele>105.0</ele><time>2026-04-17T16:39:29.009Z</time></trkpt><trkpt lat="46.12073920013504" lon="12.908781257747318"><ele>105.0</ele><time>2026-04-17T16:39:31.009Z</time></trkpt><trkpt lat="46.12062862836051" lon="12.908752746755061"><ele>105.0</ele><time>2026-04-17T16:39:33.009Z</time></trkpt><trkpt lat="46.120519949318854" lon="12.90872015353288"><ele>105.0</ele><time>2026-04-17T16:39:35.009Z</time></trkpt><trkpt lat="46.12040697891565" lon="12.908677827189997"><ele>105.0</ele><time>2026-04-17T16:39:37.009Z</time></trkpt><trkpt lat="46.12030203349646" lon="12.908640461512434"><ele>105.0</ele><time>2026-04-17T16:39:39.009Z</time></trkpt><trkpt lat="46.12018756430146" lon="12.908596014009923"><ele>105.0</ele><time>2026-04-17T16:39:41.009Z</time></trkpt><trkpt lat="46.12008854466444" lon="12.908553543001148"><ele>105.0</ele><time>2026-04-17T16:39:43.009Z</time></trkpt><trkpt lat="46.11997388015271" lon="12.908516827401597"><ele>105.0</ele><time>2026-04-17T16:39:45.009Z</time></trkpt><trkpt lat="46.11987234652789" lon="12.908475973726999"><ele>105.0</ele><time>2026-04-17T16:39:47.009Z</time></trkpt><trkpt lat="46.11975646395078" lon="12.90843928811396"><ele>105.0</ele><time>2026-04-17T16:39:49.009Z</time></trkpt><trkpt lat="46.119655968483094" lon="12.908400838068971"><ele>105.0</ele><time>2026-04-17T16:39:51.009Z</time></trkpt><trkpt lat="46.11954828360246" lon="12.90837122766143"><ele>105.0</ele><time>2026-04-17T16:39:53.009Z</time></trkpt><trkpt lat="46.11943970249501" lon="12.908337978144477"><ele>105.0</ele><time>2026-04-17T16:39:55.009Z</time></trkpt><trkpt lat="46.119376225224165" lon="12.908314765215222"><ele>105.25</ele><time>2026-04-17T16:39:56.009Z</time></trkpt><trkpt lat="46.119261285816584" lon="12.90828662771213"><ele>105.5</ele><time>2026-04-17T16:39:58.009Z</time></trkpt><trkpt lat="46.119153119447134" lon="12.908251153761533"><ele>105.75</ele><time>2026-04-17T16:40:00.009Z</time></trkpt><trkpt lat="46.11903455502754" lon="12.908212209076224"><ele>106.0</ele><time>2026-04-17T16:40:02.009Z</time></trkpt><trkpt lat="46.1189224564828" lon="12.90817950430543"><ele>105.6</ele><time>2026-04-17T16:40:04.009Z</time></trkpt><trkpt lat="46.118808706807414" lon="12.908141778855201"><ele>105.19999999999999</ele><time>2026-04-17T16:40:06.009Z</time></trkpt><trkpt lat="46.1187431151556" lon="12.90812842688392"><ele>104.80000000000001</ele><time>2026-04-17T16:40:07.009Z</time></trkpt><trkpt lat="46.11862924307134" lon="12.90810176471335"><ele>104.4</ele><time>2026-04-17T16:40:09.01Z</time></trkpt><trkpt lat="46.118565680987395" lon="12.908086581926193"><ele>104.0</ele><time>2026-04-17T16:40:10.01Z</time></trkpt><trkpt lat="46.118451732565994" lon="12.908058199173366"><ele>104.0</ele><time>2026-04-17T16:40:12.01Z</time></trkpt><trkpt lat="46.11833945570125" lon="12.908036214780788"><ele>104.0</ele><time>2026-04-17T16:40:14.01Z</time></trkpt><trkpt lat="46.118226808871654" lon="12.908001971868261"><ele>104.0</ele><time>2026-04-17T16:40:16.01Z</time></trkpt><trkpt lat="46.1181068539443" lon="12.907979398423974"><ele>104.0</ele><time>2026-04-17T16:40:18.01Z</time></trkpt><trkpt lat="46.11799420705974" lon="12.907962471216795"><ele>104.0</ele><time>2026-04-17T16:40:20.009Z</time></trkpt><trkpt lat="46.117879710290445" lon="12.90794808286496"><ele>104.0</ele><time>2026-04-17T16:40:22.01Z</time></trkpt><trkpt lat="46.11776340081751" lon="12.907925283466536"><ele>104.0</ele><time>2026-04-17T16:40:24.01Z</time></trkpt><trkpt lat="46.11765712403451" lon="12.907891014894703"><ele>104.0</ele><time>2026-04-17T16:40:26.01Z</time></trkpt><trkpt lat="46.11754952588106" lon="12.907816773955611"><ele>104.0</ele><time>2026-04-17T16:40:28.01Z</time></trkpt><trkpt lat="46.11745586718298" lon="12.907732734864371"><ele>104.0</ele><time>2026-04-17T16:40:30.01Z</time></trkpt><trkpt lat="46.117352493249584" lon="12.907655981947123"><ele>104.0</ele><time>2026-04-17T16:40:32.01Z</time></trkpt><trkpt lat="46.117255907338084" lon="12.907583461308917"><ele>104.0</ele><time>2026-04-17T16:40:34.01Z</time></trkpt><trkpt lat="46.11714113025326" lon="12.907520511497136"><ele>104.2</ele><time>2026-04-17T16:40:36.01Z</time></trkpt><trkpt lat="46.11703123967253" lon="12.907457048350166"><ele>104.4</ele><time>2026-04-17T16:40:38.01Z</time></trkpt><trkpt lat="46.11691259174653" lon="12.907404477657852"><ele>104.6</ele><time>2026-04-17T16:40:40.01Z</time></trkpt><trkpt lat="46.11680148183582" lon="12.907327782598749"><ele>104.8</ele><time>2026-04-17T16:40:42.01Z</time></trkpt><trkpt lat="46.116741114548695" lon="12.907282952109828"><ele>105.0</ele><time>2026-04-17T16:40:43.01Z</time></trkpt><trkpt lat="46.11663749422357" lon="12.90721527694241"><ele>105.0</ele><time>2026-04-17T16:40:45.01Z</time></trkpt><trkpt lat="46.11657414092175" lon="12.907184049137214"><ele>105.0</ele><time>2026-04-17T16:40:46.01Z</time></trkpt><trkpt lat="46.11646567163033" lon="12.907116204097768"><ele>105.0</ele><time>2026-04-17T16:40:48.01Z</time></trkpt><trkpt lat="46.11640275366412" lon="12.90708981307616"><ele>105.0</ele><time>2026-04-17T16:40:49.01Z</time></trkpt><trkpt lat="46.11629040423657" lon="12.907020747042674"><ele>105.0</ele><time>2026-04-17T16:40:51.01Z</time></trkpt><trkpt lat="46.1161786186294" lon="12.906955247948662"><ele>105.0</ele><time>2026-04-17T16:40:53.01Z</time></trkpt><trkpt lat="46.11606829790282" lon="12.906910069402857"><ele>105.0</ele><time>2026-04-17T16:40:55.01Z</time></trkpt><trkpt lat="46.11595828159875" lon="12.906866215693212"><ele>105.0</ele><time>2026-04-17T16:40:57.01Z</time></trkpt><trkpt lat="46.11584473057387" lon="12.906835548143409"><ele>105.0</ele><time>2026-04-17T16:40:59.01Z</time></trkpt><trkpt lat="46.11572476091652" lon="12.90678583949803"><ele>106.8</ele><time>2026-04-17T16:41:01.01Z</time></trkpt><trkpt lat="46.1156048406936" lon="12.906743116524854"><ele>108.6</ele><time>2026-04-17T16:41:03.01Z</time></trkpt><trkpt lat="46.11548734047653" lon="12.906707444379263"><ele>110.4</ele><time>2026-04-17T16:41:05.01Z</time></trkpt><trkpt lat="46.11542133746248" lon="12.90669133411842"><ele>112.2</ele><time>2026-04-17T16:41:06.01Z</time></trkpt><trkpt lat="46.11529590212062" lon="12.906656446422577"><ele>114.0</ele><time>2026-04-17T16:41:08.01Z</time></trkpt><trkpt lat="46.11517905346929" lon="12.90664148982179"><ele>114.0</ele><time>2026-04-17T16:41:10.01Z</time></trkpt><trkpt lat="46.115113548481546" lon="12.906637107313454"><ele>114.0</ele><time>2026-04-17T16:41:11.01Z</time></trkpt><trkpt lat="46.11498772107552" lon="12.906635990632155"><ele>114.0</ele><time>2026-04-17T16:41:13.01Z</time></trkpt><trkpt lat="46.1148706838341" lon="12.906644879011239"><ele>114.0</ele><time>2026-04-17T16:41:15.01Z</time></trkpt><trkpt lat="46.11474139282989" lon="12.906657337805848"><ele>114.0</ele><time>2026-04-17T16:41:17.01Z</time></trkpt><trkpt lat="46.11467611565146" lon="12.906662407032046"><ele>114.16666666666667</ele><time>2026-04-17T16:41:18.01Z</time></trkpt><trkpt lat="46.11456055726546" lon="12.906659512688897"><ele>114.33333333333334</ele><time>2026-04-17T16:41:20.01Z</time></trkpt><trkpt lat="46.114493049171735" lon="12.9066630943076"><ele>114.5</ele><time>2026-04-17T16:41:21.01Z</time></trkpt><trkpt lat="46.11442362458426" lon="12.90666604083012"><ele>114.66666666666667</ele><time>2026-04-17T16:41:22.01Z</time></trkpt><trkpt lat="46.1143598635747" lon="12.906668526036048"><ele>114.83333333333334</ele><time>2026-04-17T16:41:23.01Z</time></trkpt><trkpt lat="46.11423355802802" lon="12.906667854763445"><ele>115.0</ele><time>2026-04-17T16:41:25.01Z</time></trkpt><trkpt lat="46.11410995523498" lon="12.906669849704862"><ele>114.4</ele><time>2026-04-17T16:41:27.01Z</time></trkpt><trkpt lat="46.11398879302362" lon="12.906664475289029"><ele>113.8</ele><time>2026-04-17T16:41:29.01Z</time></trkpt><trkpt lat="46.11386780373188" lon="12.90666868703789"><ele>113.19999999999999</ele><time>2026-04-17T16:41:31.01Z</time></trkpt><trkpt lat="46.11374725307491" lon="12.906669054085137"><ele>112.6</ele><time>2026-04-17T16:41:33.01Z</time></trkpt><trkpt lat="46.11368422009105" lon="12.906669065662383"><ele>112.0</ele><time>2026-04-17T16:41:34.01Z</time></trkpt><trkpt lat="46.113620699727264" lon="12.90667148237593"><ele>112.0</ele><time>2026-04-17T16:41:35.01Z</time></trkpt><trkpt lat="46.11355704544327" lon="12.906676003682076"><ele>111.99999999999999</ele><time>2026-04-17T16:41:36.01Z</time></trkpt><trkpt lat="46.113436646014826" lon="12.906676078844768"><ele>111.99999999999999</ele><time>2026-04-17T16:41:38.01Z</time></trkpt><trkpt lat="46.11331211931478" lon="12.906680671517202"><ele>112.0</ele><time>2026-04-17T16:41:40.01Z</time></trkpt><trkpt lat="46.11319277484326" lon="12.90668625625302"><ele>112.0</ele><time>2026-04-17T16:41:42.01Z</time></trkpt><trkpt lat="46.1130760760343" lon="12.906692264505756"><ele>112.19999999999999</ele><time>2026-04-17T16:41:44.01Z</time></trkpt><trkpt lat="46.112963790446145" lon="12.906695526375078"><ele>112.39999999999999</ele><time>2026-04-17T16:41:46.011Z</time></trkpt><trkpt lat="46.11285781441934" lon="12.906710226492036"><ele>112.60000000000001</ele><time>2026-04-17T16:41:48.011Z</time></trkpt><trkpt lat="46.1127562009504" lon="12.906720442804557"><ele>112.80000000000001</ele><time>2026-04-17T16:41:50.011Z</time></trkpt><trkpt lat="46.11265294448977" lon="12.906718239156676"><ele>113.0</ele><time>2026-04-17T16:41:52.011Z</time></trkpt><trkpt lat="46.11254190048579" lon="12.906728312489776"><ele>113.0</ele><time>2026-04-17T16:41:54.011Z</time></trkpt><trkpt lat="46.1124304949316" lon="12.906734744893889"><ele>113.00000000000001</ele><time>2026-04-17T16:41:56.011Z</time></trkpt><trkpt lat="46.112323497316474" lon="12.906744576136742"><ele>113.00000000000001</ele><time>2026-04-17T16:41:58.011Z</time></trkpt><trkpt lat="46.112211808981684" lon="12.906725712437655"><ele>113.0</ele><time>2026-04-17T16:42:00.011Z</time></trkpt><trkpt lat="46.11210303320905" lon="12.906724784660234"><ele>113.0</ele><time>2026-04-17T16:42:02.011Z</time></trkpt><trkpt lat="46.11202075137063" lon="12.906698292348231"><ele>113.4</ele><time>2026-04-17T16:42:04.011Z</time></trkpt><trkpt lat="46.11192165671706" lon="12.906692054375979"><ele>113.80000000000001</ele><time>2026-04-17T16:42:06.011Z</time></trkpt><trkpt lat="46.11181328676789" lon="12.906669089060564"><ele>114.2</ele><time>2026-04-17T16:42:08.011Z</time></trkpt><trkpt lat="46.11170849278515" lon="12.906637830557035"><ele>114.6</ele><time>2026-04-17T16:42:10.011Z</time></trkpt><trkpt lat="46.11161108801278" lon="12.90660558441542"><ele>115.0</ele><time>2026-04-17T16:42:12.011Z</time></trkpt><trkpt lat="46.11150335439242" lon="12.906579022582976"><ele>115.33333333333334</ele><time>2026-04-17T16:42:14.011Z</time></trkpt><trkpt lat="46.11140726972387" lon="12.906555783955394"><ele>115.66666666666667</ele><time>2026-04-17T16:42:16.011Z</time></trkpt><trkpt lat="46.111312160822806" lon="12.90654720988573"><ele>116.0</ele><time>2026-04-17T16:42:18.011Z</time></trkpt><trkpt lat="46.11122059237747" lon="12.906522656969386"><ele>116.33333333333334</ele><time>2026-04-17T16:42:20.01Z</time></trkpt><trkpt lat="46.11114503233959" lon="12.906488517625117"><ele>116.66666666666667</ele><time>2026-04-17T16:42:22.011Z</time></trkpt><trkpt lat="46.11112762837392" lon="12.906385512790083"><ele>117.0</ele><time>2026-04-17T16:42:24.011Z</time></trkpt><trkpt lat="46.11119583834208" lon="12.906351018829566"><ele>117.0</ele><time>2026-04-17T16:42:26.011Z</time></trkpt><trkpt lat="46.11125722524191" lon="12.906323565961348"><ele>117.0</ele><time>2026-04-17T16:42:28.011Z</time></trkpt><trkpt lat="46.11133934982849" lon="12.906293245660695"><ele>117.0</ele><time>2026-04-17T16:42:30.011Z</time></trkpt><trkpt lat="46.11140303811384" lon="12.906270331777606"><ele>117.0</ele><time>2026-04-17T16:42:32.011Z</time></trkpt><trkpt lat="46.11147434896394" lon="12.906234632573398"><ele>117.0</ele><time>2026-04-17T16:42:34.011Z</time></trkpt><trkpt lat="46.111547826634336" lon="12.906202571167867"><ele>117.0</ele><time>2026-04-17T16:42:36.011Z</time></trkpt><trkpt lat="46.11160924756215" lon="12.906085499097614"><ele>116.66666666666667</ele><time>2026-04-17T16:42:39.011Z</time></trkpt><trkpt lat="46.111628274258095" lon="12.905983763570097"><ele>116.33333333333334</ele><time>2026-04-17T16:42:41.011Z</time></trkpt><trkpt lat="46.111644673100585" lon="12.905875139677482"><ele>116.0</ele><time>2026-04-17T16:42:43.012Z</time></trkpt><trkpt lat="46.11164761976846" lon="12.905773310073641"><ele>115.66666666666667</ele><time>2026-04-17T16:42:45.012Z</time></trkpt><trkpt lat="46.11164310943782" lon="12.905640817668239"><ele>115.33333333333334</ele><time>2026-04-17T16:42:48.012Z</time></trkpt><trkpt lat="46.11164488718079" lon="12.905523477952757"><ele>115.0</ele><time>2026-04-17T16:42:51.012Z</time></trkpt><trkpt lat="46.111625980204714" lon="12.90541843619477"><ele>118.0</ele><time>2026-04-17T16:42:54.012Z</time></trkpt><trkpt lat="46.111561726021705" lon="12.90533180288168"><ele>121.0</ele><time>2026-04-17T16:42:57.012Z</time></trkpt><trkpt lat="46.11147925874064" lon="12.905273414467596"><ele>124.0</ele><time>2026-04-17T16:43:00.012Z</time></trkpt><trkpt lat="46.11139562321067" lon="12.90521773674297"><ele>127.0</ele><time>2026-04-17T16:43:03.012Z</time></trkpt><trkpt lat="46.11132307850966" lon="12.905131201504293"><ele>130.0</ele><time>2026-04-17T16:43:06.012Z</time></trkpt><trkpt lat="46.11125679730946" lon="12.905043442628907"><ele>130.14285714285717</ele><time>2026-04-17T16:43:09.012Z</time></trkpt><trkpt lat="46.111207488148" lon="12.904984999505672"><ele>130.28571428571428</ele><time>2026-04-17T16:43:11.012Z</time></trkpt><trkpt lat="46.111169476050314" lon="12.90490539687131"><ele>130.42857142857144</ele><time>2026-04-17T16:43:13.012Z</time></trkpt><trkpt lat="46.11112074946086" lon="12.904845677878246"><ele>130.57142857142858</ele><time>2026-04-17T16:43:15.012Z</time></trkpt><trkpt lat="46.111066221667826" lon="12.904753830782711"><ele>130.71428571428572</ele><time>2026-04-17T16:43:18.012Z</time></trkpt><trkpt lat="46.11100722111493" lon="12.904649929062673"><ele>130.85714285714286</ele><time>2026-04-17T16:43:21.012Z</time></trkpt><trkpt lat="46.11094705542223" lon="12.904589954665742"><ele>131.0</ele><time>2026-04-17T16:43:24.012Z</time></trkpt><trkpt lat="46.11086953361096" lon="12.904559144948912"><ele>131.0</ele><time>2026-04-17T16:43:27.012Z</time></trkpt><trkpt lat="46.11079069296572" lon="12.904538527995284"><ele>131.0</ele><time>2026-04-17T16:43:30.012Z</time></trkpt><trkpt lat="46.11070834119162" lon="12.904514667394805"><ele>131.0</ele><time>2026-04-17T16:43:33.012Z</time></trkpt><trkpt lat="46.11064721503556" lon="12.904485574011979"><ele>131.0</ele><time>2026-04-17T16:43:35.012Z</time></trkpt><trkpt lat="46.11057926755991" lon="12.90447122015167"><ele>131.0</ele><time>2026-04-17T16:43:37.012Z</time></trkpt><trkpt lat="46.11051496544776" lon="12.904442786521443"><ele>131.0</ele><time>2026-04-17T16:43:39.012Z</time></trkpt><trkpt lat="46.110423662287786" lon="12.904428915299379"><ele>130.83333333333331</ele><time>2026-04-17T16:43:42.012Z</time></trkpt><trkpt lat="46.110336797123445" lon="12.904407671583815"><ele>130.66666666666666</ele><time>2026-04-17T16:43:45.012Z</time></trkpt><trkpt lat="46.11026085388539" lon="12.904391800164468"><ele>130.5</ele><time>2026-04-17T16:43:48.012Z</time></trkpt><trkpt lat="46.110174663733325" lon="12.90435783081793"><ele>130.33333333333334</ele><time>2026-04-17T16:43:51.012Z</time></trkpt><trkpt lat="46.11009951930515" lon="12.904281858749725"><ele>130.16666666666669</ele><time>2026-04-17T16:43:54.012Z</time></trkpt><trkpt lat="46.11005555731865" lon="12.904197129024428"><ele>130.0</ele><time>2026-04-17T16:43:56.012Z</time></trkpt><trkpt lat="46.11002511632051" lon="12.904072265112793"><ele>130.0</ele><time>2026-04-17T16:43:59.012Z</time></trkpt><trkpt lat="46.109977129589645" lon="12.903966906122731"><ele>130.0</ele><time>2026-04-17T16:44:02.012Z</time></trkpt><trkpt lat="46.10993131447989" lon="12.903887674762249"><ele>130.0</ele><time>2026-04-17T16:44:04.012Z</time></trkpt><trkpt lat="46.10987718858783" lon="12.903805457644147"><ele>130.0</ele><time>2026-04-17T16:44:06.012Z</time></trkpt><trkpt lat="46.10983004005826" lon="12.903712612486308"><ele>130.0</ele><time>2026-04-17T16:44:09.012Z</time></trkpt><trkpt lat="46.109775107023026" lon="12.903600362436991"><ele>130.0</ele><time>2026-04-17T16:44:13.011Z</time></trkpt><trkpt lat="46.10974144018344" lon="12.903522060332266"><ele>130.0</ele><time>2026-04-17T16:44:14.011Z</time></trkpt><trkpt lat="46.109700241431455" lon="12.903406134850787"><ele>130.0</ele><time>2026-04-17T16:44:16.01Z</time></trkpt><trkpt lat="46.1096677718637" lon="12.903305918876455"><ele>130.0</ele><time>2026-04-17T16:44:18.01Z</time></trkpt><trkpt lat="46.109620985425934" lon="12.903234850156517"><ele>130.0</ele><time>2026-04-17T16:44:20.01Z</time></trkpt><trkpt lat="46.109567893286446" lon="12.903152942889086"><ele>130.0</ele><time>2026-04-17T16:44:22.009Z</time></trkpt><trkpt lat="46.109482497631674" lon="12.903079474679494"><ele>130.0</ele><time>2026-04-17T16:44:24.009Z</time></trkpt><trkpt lat="46.109402512530764" lon="12.902995137925751"><ele>130.0</ele><time>2026-04-17T16:44:26.009Z</time></trkpt><trkpt lat="46.10932689601274" lon="12.902940903680413"><ele>130.0</ele><time>2026-04-17T16:44:28.008Z</time></trkpt><trkpt lat="46.109247393363574" lon="12.902900607915774"><ele>130.0</ele><time>2026-04-17T16:44:30.008Z</time></trkpt><trkpt lat="46.109175650599035" lon="12.902831923463065"><ele>130.0</ele><time>2026-04-17T16:44:32.008Z</time></trkpt><trkpt lat="46.10914549407549" lon="12.902713396563968"><ele>130.0</ele><time>2026-04-17T16:44:34.008Z</time></trkpt><trkpt lat="46.10915860584185" lon="12.902587065254348"><ele>130.0</ele><time>2026-04-17T16:44:36.008Z</time></trkpt><trkpt lat="46.10917339936165" lon="12.902469898427505"><ele>130.0</ele><time>2026-04-17T16:44:38.008Z</time></trkpt><trkpt lat="46.10919008537142" lon="12.902362035219278"><ele>130.0</ele><time>2026-04-17T16:44:40.008Z</time></trkpt><trkpt lat="46.10920276859692" lon="12.902265442476411"><ele>130.0</ele><time>2026-04-17T16:44:42.008Z</time></trkpt><trkpt lat="46.109248535799324" lon="12.902157992796507"><ele>130.0</ele><time>2026-04-17T16:44:45.007Z</time></trkpt><trkpt lat="46.10931307304205" lon="12.902124273874575"><ele>130.0</ele><time>2026-04-17T16:44:47.007Z</time></trkpt><trkpt lat="46.10939135294524" lon="12.902142959000555"><ele>130.0</ele><time>2026-04-17T16:44:49.007Z</time></trkpt><trkpt lat="46.10947678924605" lon="12.902158214900245"><ele>130.0</ele><time>2026-04-17T16:44:51.007Z</time></trkpt><trkpt lat="46.109569476965" lon="12.902179794818506"><ele>130.0</ele><time>2026-04-17T16:44:53.007Z</time></trkpt><trkpt lat="46.10966138806006" lon="12.902208004456542"><ele>130.0</ele><time>2026-04-17T16:44:55.007Z</time></trkpt><trkpt lat="46.1097436252747" lon="12.902221874937394"><ele>130.0</ele><time>2026-04-17T16:44:57.007Z</time></trkpt><trkpt lat="46.10982151110059" lon="12.902216582088997"><ele>130.0</ele><time>2026-04-17T16:44:59.007Z</time></trkpt><trkpt lat="46.10990079924355" lon="12.902210145413981"><ele>130.0</ele><time>2026-04-17T16:45:01.007Z</time></trkpt><trkpt lat="46.10995666763686" lon="12.902126349766462"><ele>130.33333333333334</ele><time>2026-04-17T16:45:03.007Z</time></trkpt><trkpt lat="46.10995089030688" lon="12.90200993629418"><ele>130.66666666666669</ele><time>2026-04-17T16:45:05.007Z</time></trkpt><trkpt lat="46.10995773600331" lon="12.901890938715844"><ele>131.0</ele><time>2026-04-17T16:45:07.007Z</time></trkpt><trkpt lat="46.10997073678664" lon="12.901773433344193"><ele>131.33333333333334</ele><time>2026-04-17T16:45:09.007Z</time></trkpt><trkpt lat="46.10998368985542" lon="12.901653547507129"><ele>131.66666666666666</ele><time>2026-04-17T16:45:11.007Z</time></trkpt><trkpt lat="46.109996020962456" lon="12.901560783900234"><ele>132.0</ele><time>2026-04-17T16:45:13.007Z</time></trkpt><trkpt lat="46.110027988629916" lon="12.901429168228958"><ele>132.0</ele><time>2026-04-17T16:45:15.007Z</time></trkpt><trkpt lat="46.11005397440766" lon="12.90130514806252"><ele>132.0</ele><time>2026-04-17T16:45:17.007Z</time></trkpt><trkpt lat="46.11007596761278" lon="12.901184635698247"><ele>132.0</ele><time>2026-04-17T16:45:19.007Z</time></trkpt><trkpt lat="46.11010219790288" lon="12.901069232437985"><ele>132.0</ele><time>2026-04-17T16:45:21.007Z</time></trkpt><trkpt lat="46.110146212589875" lon="12.900958958857899"><ele>132.0</ele><time>2026-04-17T16:45:23.007Z</time></trkpt><trkpt lat="46.11016517695354" lon="12.900834852913448"><ele>132.0</ele><time>2026-04-17T16:45:25.007Z</time></trkpt><trkpt lat="46.11019878310648" lon="12.90073769245638"><ele>132.0</ele><time>2026-04-17T16:45:27.007Z</time></trkpt><trkpt lat="46.11030190864749" lon="12.90073185790098"><ele>132.0</ele><time>2026-04-17T16:45:30.007Z</time></trkpt><trkpt lat="46.11037476969854" lon="12.900779836100869"><ele>132.0</ele><time>2026-04-17T16:45:32.007Z</time></trkpt><trkpt lat="46.11045667636757" lon="12.90083416156072"><ele>132.0</ele><time>2026-04-17T16:45:34.007Z</time></trkpt><trkpt lat="46.110537292864315" lon="12.900846933839242"><ele>132.0</ele><time>2026-04-17T16:45:36.007Z</time></trkpt><trkpt lat="46.11060572952076" lon="12.900900654845344"><ele>132.0</ele><time>2026-04-17T16:45:38.007Z</time></trkpt><trkpt lat="46.11067456469602" lon="12.900965311475154"><ele>132.33333333333334</ele><time>2026-04-17T16:45:40.007Z</time></trkpt><trkpt lat="46.1107338640185" lon="12.90103581398287"><ele>132.66666666666666</ele><time>2026-04-17T16:45:42.007Z</time></trkpt><trkpt lat="46.11080059185612" lon="12.901105915998498"><ele>133.0</ele><time>2026-04-17T16:45:44.007Z</time></trkpt><trkpt lat="46.11085850413121" lon="12.90119725473709"><ele>133.33333333333331</ele><time>2026-04-17T16:45:46.007Z</time></trkpt><trkpt lat="46.110928134111234" lon="12.901270960407317"><ele>133.66666666666666</ele><time>2026-04-17T16:45:48.007Z</time></trkpt><trkpt lat="46.11099663267492" lon="12.90135433173238"><ele>134.0</ele><time>2026-04-17T16:45:50.007Z</time></trkpt><trkpt lat="46.111083995281255" lon="12.90138052422344"><ele>134.0</ele><time>2026-04-17T16:45:52.007Z</time></trkpt><trkpt lat="46.111162678957314" lon="12.901433078144073"><ele>134.0</ele><time>2026-04-17T16:45:54.007Z</time></trkpt><trkpt lat="46.11121203196079" lon="12.901520314173418"><ele>134.0</ele><time>2026-04-17T16:45:56.007Z</time></trkpt><trkpt lat="46.11124057221502" lon="12.901649259998546"><ele>134.0</ele><time>2026-04-17T16:45:58.007Z</time></trkpt><trkpt lat="46.111272389745196" lon="12.901757863565216"><ele>134.0</ele><time>2026-04-17T16:46:00.007Z</time></trkpt><trkpt lat="46.11132240409093" lon="12.901838112636963"><ele>134.0</ele><time>2026-04-17T16:46:02.007Z</time></trkpt><trkpt lat="46.111344811466296" lon="12.901965837826836"><ele>133.83333333333331</ele><time>2026-04-17T16:46:05.007Z</time></trkpt><trkpt lat="46.11131396586133" lon="12.902114666182165"><ele>133.66666666666666</ele><time>2026-04-17T16:46:09.007Z</time></trkpt><trkpt lat="46.11129534804876" lon="12.902215922252271"><ele>133.5</ele><time>2026-04-17T16:46:12.007Z</time></trkpt><trkpt lat="46.11130986431319" lon="12.902305950864703"><ele>133.33333333333334</ele><time>2026-04-17T16:46:14.007Z</time></trkpt><trkpt lat="46.11130074048502" lon="12.902403250430876"><ele>133.16666666666669</ele><time>2026-04-17T16:46:16.007Z</time></trkpt><trkpt lat="46.111262463304264" lon="12.902526204367653"><ele>133.0</ele><time>2026-04-17T16:46:18.007Z</time></trkpt><trkpt lat="46.111181435727396" lon="12.902592004448334"><ele>132.83333333333334</ele><time>2026-04-17T16:46:20.007Z</time></trkpt><trkpt lat="46.111107678596866" lon="12.902668309553425"><ele>132.66666666666669</ele><time>2026-04-17T16:46:22.007Z</time></trkpt><trkpt lat="46.11106588214758" lon="12.902806763111771"><ele>132.5</ele><time>2026-04-17T16:46:24.007Z</time></trkpt><trkpt lat="46.11102106358796" lon="12.902946536738808"><ele>132.33333333333334</ele><time>2026-04-17T16:46:26.008Z</time></trkpt><trkpt lat="46.11101218955545" lon="12.903039294702493"><ele>132.16666666666666</ele><time>2026-04-17T16:46:27.007Z</time></trkpt><trkpt lat="46.111018228645435" lon="12.903138429264605"><ele>132.0</ele><time>2026-04-17T16:46:28.007Z</time></trkpt><trkpt lat="46.110960935739726" lon="12.903222774803861"><ele>132.0</ele><time>2026-04-17T16:46:30.007Z</time></trkpt><trkpt lat="46.11089299925564" lon="12.903289315120007"><ele>132.0</ele><time>2026-04-17T16:46:32.008Z</time></trkpt><trkpt lat="46.11086873989402" lon="12.903378983155635"><ele>132.0</ele><time>2026-04-17T16:46:35.008Z</time></trkpt><trkpt lat="46.11081688851476" lon="12.90348511750233"><ele>132.0</ele><time>2026-04-17T16:46:38.008Z</time></trkpt><trkpt lat="46.11078304215436" lon="12.90362126950191"><ele>132.0</ele><time>2026-04-17T16:46:40.007Z</time></trkpt><trkpt lat="46.110760791510046" lon="12.903741059383428"><ele>132.0</ele><time>2026-04-17T16:46:42.007Z</time></trkpt><trkpt lat="46.11074570083369" lon="12.90385341392512"><ele>131.6</ele><time>2026-04-17T16:46:43.007Z</time></trkpt><trkpt lat="46.110731135170546" lon="12.903961911211717"><ele>131.2</ele><time>2026-04-17T16:46:44.007Z</time></trkpt><trkpt lat="46.11073147583416" lon="12.90406788366482"><ele>130.8</ele><time>2026-04-17T16:46:45.007Z</time></trkpt><trkpt lat="46.11071475873684" lon="12.904166545459756"><ele>130.4</ele><time>2026-04-17T16:46:46.007Z</time></trkpt><trkpt lat="46.11069957321389" lon="12.90433650918842"><ele>130.0</ele><time>2026-04-17T16:46:48.007Z</time></trkpt><trkpt lat="46.11073945741062" lon="12.904488875800654"><ele>130.2</ele><time>2026-04-17T16:46:50.007Z</time></trkpt><trkpt lat="46.11083247886367" lon="12.904539928439261"><ele>130.4</ele><time>2026-04-17T16:46:52.007Z</time></trkpt><trkpt lat="46.11093012590023" lon="12.904561383601962"><ele>130.6</ele><time>2026-04-17T16:46:54.007Z</time></trkpt><trkpt lat="46.111038955663766" lon="12.904674318711903"><ele>130.8</ele><time>2026-04-17T16:46:56.007Z</time></trkpt><trkpt lat="46.11109729939654" lon="12.904769110222016"><ele>131.0</ele><time>2026-04-17T16:46:57.007Z</time></trkpt><trkpt lat="46.11115012881366" lon="12.904868592683709"><ele>131.0</ele><time>2026-04-17T16:46:58.007Z</time></trkpt><trkpt lat="46.111204816134624" lon="12.904965202373269"><ele>131.0</ele><time>2026-04-17T16:46:59.007Z</time></trkpt><trkpt lat="46.11126911970791" lon="12.905049515142457"><ele>131.0</ele><time>2026-04-17T16:47:00.007Z</time></trkpt><trkpt lat="46.11133153455298" lon="12.905137526227119"><ele>131.0</ele><time>2026-04-17T16:47:01.007Z</time></trkpt><trkpt lat="46.111406140933525" lon="12.905213788085646"><ele>131.0</ele><time>2026-04-17T16:47:02.007Z</time></trkpt><trkpt lat="46.11149335970918" lon="12.905276218136612"><ele>131.0</ele><time>2026-04-17T16:47:03.007Z</time></trkpt><trkpt lat="46.11157199252911" lon="12.90536255857893"><ele>130.0</ele><time>2026-04-17T16:47:04.007Z</time></trkpt><trkpt lat="46.11161785397637" lon="12.905505788415448"><ele>129.0</ele><time>2026-04-17T16:47:05.007Z</time></trkpt><trkpt lat="46.111628086725375" lon="12.905683596142776"><ele>128.0</ele><time>2026-04-17T16:47:06.007Z</time></trkpt><trkpt lat="46.11162880352396" lon="12.90585111816302"><ele>127.0</ele><time>2026-04-17T16:47:07.007Z</time></trkpt><trkpt lat="46.11161636663522" lon="12.906007794925205"><ele>125.0</ele><time>2026-04-17T16:47:08.007Z</time></trkpt><trkpt lat="46.11156377157831" lon="12.906122386963336"><ele>122.99999999999999</ele><time>2026-04-17T16:47:09.007Z</time></trkpt><trkpt lat="46.11148721068303" lon="12.906177749889988"><ele>120.99999999999999</ele><time>2026-04-17T16:47:10.007Z</time></trkpt><trkpt lat="46.111384384729604" lon="12.906206162997927"><ele>119.0</ele><time>2026-04-17T16:47:11.007Z</time></trkpt><trkpt lat="46.111275498267844" lon="12.906220199095893"><ele>117.0</ele><time>2026-04-17T16:47:12.007Z</time></trkpt><trkpt lat="46.11117422647177" lon="12.906258718906932"><ele>117.0</ele><time>2026-04-17T16:47:13.007Z</time></trkpt><trkpt lat="46.111101870777006" lon="12.906309357343412"><ele>117.0</ele><time>2026-04-17T16:47:14.007Z</time></trkpt><trkpt lat="46.11106559975397" lon="12.90639294152153"><ele>117.0</ele><time>2026-04-17T16:47:15.007Z</time></trkpt><trkpt lat="46.111102178067085" lon="12.906501880187681"><ele>117.0</ele><time>2026-04-17T16:47:16.007Z</time></trkpt><trkpt lat="46.11118773255632" lon="12.906561502021141"><ele>117.0</ele><time>2026-04-17T16:47:17.007Z</time></trkpt><trkpt lat="46.11128261100871" lon="12.906571314532444"><ele>117.0</ele><time>2026-04-17T16:47:18.007Z</time></trkpt><trkpt lat="46.111349342757315" lon="12.906566080669569"><ele>117.0</ele><time>2026-04-17T16:47:19.007Z</time></trkpt><trkpt lat="46.11144217590155" lon="12.906586329150754"><ele>116.99999999999999</ele><time>2026-04-17T16:47:20.007Z</time></trkpt><trkpt lat="46.11153575558314" lon="12.906621812001204"><ele>116.99999999999999</ele><time>2026-04-17T16:47:21.007Z</time></trkpt><trkpt lat="46.11162160308221" lon="12.906644845988879"><ele>117.0</ele><time>2026-04-17T16:47:22.007Z</time></trkpt><trkpt lat="46.11171374681224" lon="12.906670849647881"><ele>117.0</ele><time>2026-04-17T16:47:23.007Z</time></trkpt><trkpt lat="46.11180593306722" lon="12.906698491977927"><ele>116.6</ele><time>2026-04-17T16:47:24.007Z</time></trkpt><trkpt lat="46.111897787851944" lon="12.9067245016981"><ele>116.19999999999999</ele><time>2026-04-17T16:47:25.007Z</time></trkpt><trkpt lat="46.111993047649335" lon="12.906748781364586"><ele>115.8</ele><time>2026-04-17T16:47:26.007Z</time></trkpt><trkpt lat="46.1120898786105" lon="12.906775975701107"><ele>115.4</ele><time>2026-04-17T16:47:27.007Z</time></trkpt><trkpt lat="46.11218158153811" lon="12.906794341392548"><ele>115.0</ele><time>2026-04-17T16:47:28.007Z</time></trkpt><trkpt lat="46.11227415782777" lon="12.906801476268738"><ele>114.66666666666667</ele><time>2026-04-17T16:47:29.007Z</time></trkpt><trkpt lat="46.112347786411306" lon="12.906784655573235"><ele>114.33333333333334</ele><time>2026-04-17T16:47:30.007Z</time></trkpt><trkpt lat="46.11244316292046" lon="12.906778122455714"><ele>114.0</ele><time>2026-04-17T16:47:31.007Z</time></trkpt><trkpt lat="46.11252726991574" lon="12.906766019829146"><ele>113.66666666666666</ele><time>2026-04-17T16:47:32.007Z</time></trkpt><trkpt lat="46.112605086124105" lon="12.90676007863882"><ele>113.33333333333333</ele><time>2026-04-17T16:47:33.007Z</time></trkpt><trkpt lat="46.11267601805926" lon="12.906758420650863"><ele>113.0</ele><time>2026-04-17T16:47:34.007Z</time></trkpt><trkpt lat="46.11274506144457" lon="12.906732646268933"><ele>112.99999999999999</ele><time>2026-04-17T16:47:35.007Z</time></trkpt><trkpt lat="46.11279327275347" lon="12.90666135106992"><ele>113.0</ele><time>2026-04-17T16:47:36.007Z</time></trkpt><trkpt lat="46.11281052954762" lon="12.906567503222652"><ele>113.0</ele><time>2026-04-17T16:47:37.007Z</time></trkpt><trkpt lat="46.11280113108166" lon="12.90641618914866"><ele>113.0</ele><time>2026-04-17T16:47:39.007Z</time></trkpt><trkpt lat="46.11279631993286" lon="12.906289198776228"><ele>112.99999999999999</ele><time>2026-04-17T16:47:41.007Z</time></trkpt><trkpt lat="46.11278852664148" lon="12.906191045952674"><ele>113.0</ele><time>2026-04-17T16:47:43.007Z</time></trkpt><trkpt lat="46.11278757387682" lon="12.906074761336752"><ele>112.99999999999999</ele><time>2026-04-17T16:47:46.007Z</time></trkpt><trkpt lat="46.112787956910445" lon="12.905949510422273"><ele>113.0</ele><time>2026-04-17T16:47:49.007Z</time></trkpt><trkpt lat="46.11278346468157" lon="12.90584940752687"><ele>113.0</ele><time>2026-04-17T16:47:52.007Z</time></trkpt><trkpt lat="46.11277614117314" lon="12.905715580327014"><ele>113.0</ele><time>2026-04-17T16:47:55.007Z</time></trkpt><trkpt lat="46.11277255940986" lon="12.90558826994528"><ele>112.99999999999999</ele><time>2026-04-17T16:47:58.007Z</time></trkpt><trkpt lat="46.11277548116238" lon="12.905452633877898"><ele>113.0</ele><time>2026-04-17T16:48:02.007Z</time></trkpt><trkpt lat="46.1127610842303" lon="12.90532735671865"><ele>115.16666666666666</ele><time>2026-04-17T16:48:05.007Z</time></trkpt><trkpt lat="46.112746282190955" lon="12.905194630562375"><ele>117.33333333333333</ele><time>2026-04-17T16:48:08.007Z</time></trkpt><trkpt lat="46.11273058988212" lon="12.905077961640822"><ele>119.5</ele><time>2026-04-17T16:48:11.007Z</time></trkpt><trkpt lat="46.11272891043672" lon="12.904954949069232"><ele>121.66666666666666</ele><time>2026-04-17T16:48:15.007Z</time></trkpt><trkpt lat="46.11271239621619" lon="12.90483838901232"><ele>123.83333333333333</ele><time>2026-04-17T16:48:18.007Z</time></trkpt><trkpt lat="46.112717707594" lon="12.904722355941495"><ele>126.0</ele><time>2026-04-17T16:48:21.007Z</time></trkpt><trkpt lat="46.1127059651693" lon="12.904625803610532"><ele>126.71428571428572</ele><time>2026-04-17T16:48:24.007Z</time></trkpt><trkpt lat="46.11270783143299" lon="12.904519932792908"><ele>127.42857142857143</ele><time>2026-04-17T16:48:26.007Z</time></trkpt><trkpt lat="46.11270340941071" lon="12.9044053911766"><ele>128.14285714285714</ele><time>2026-04-17T16:48:29.007Z</time></trkpt><trkpt lat="46.11269858934716" lon="12.904305089172459"><ele>128.85714285714286</ele><time>2026-04-17T16:48:32.008Z</time></trkpt><trkpt lat="46.11269860899961" lon="12.904209333089623"><ele>129.57142857142858</ele><time>2026-04-17T16:48:35.009Z</time></trkpt><trkpt lat="46.11269459474639" lon="12.904100593501681"><ele>130.28571428571428</ele><time>2026-04-17T16:48:39.009Z</time></trkpt><trkpt lat="46.11268843386156" lon="12.903993179147344"><ele>131.0</ele><time>2026-04-17T16:48:43.009Z</time></trkpt><trkpt lat="46.1126784566795" lon="12.90389564716569"><ele>131.14285714285714</ele><time>2026-04-17T16:48:46.008Z</time></trkpt><trkpt lat="46.11266898254752" lon="12.903801670914422"><ele>131.2857142857143</ele><time>2026-04-17T16:48:49.008Z</time></trkpt><trkpt lat="46.11268742439703" lon="12.903693831540265"><ele>131.42857142857144</ele><time>2026-04-17T16:48:52.008Z</time></trkpt><trkpt lat="46.112699747462806" lon="12.90358619545694"><ele>131.57142857142858</ele><time>2026-04-17T16:48:55.008Z</time></trkpt><trkpt lat="46.11272570616631" lon="12.903498150993856"><ele>131.71428571428572</ele><time>2026-04-17T16:48:59.008Z</time></trkpt><trkpt lat="46.112733277699235" lon="12.90339365849791"><ele>131.85714285714286</ele><time>2026-04-17T16:49:02.008Z</time></trkpt><trkpt lat="46.11274590955934" lon="12.903290295678033"><ele>132.0</ele><time>2026-04-17T16:49:05.008Z</time></trkpt><trkpt lat="46.11272482126194" lon="12.903179674770287"><ele>131.66666666666666</ele><time>2026-04-17T16:49:09.008Z</time></trkpt><trkpt lat="46.1127330685148" lon="12.903084273181022"><ele>131.33333333333334</ele><time>2026-04-17T16:49:12.008Z</time></trkpt><trkpt lat="46.11275957989744" lon="12.902990793370499"><ele>131.0</ele><time>2026-04-17T16:49:20.008Z</time></trkpt><trkpt lat="46.11279940465911" lon="12.902908135414858"><ele>130.66666666666669</ele><time>2026-04-17T16:49:22.008Z</time></trkpt><trkpt lat="46.112853669586535" lon="12.902809249723145"><ele>130.33333333333334</ele><time>2026-04-17T16:49:24.008Z</time></trkpt><trkpt lat="46.11287655884235" lon="12.902690639545218"><ele>130.0</ele><time>2026-04-17T16:49:26.008Z</time></trkpt><trkpt lat="46.11287391334129" lon="12.902558522506272"><ele>129.85714285714286</ele><time>2026-04-17T16:49:28.008Z</time></trkpt><trkpt lat="46.11286719330275" lon="12.902431780388431"><ele>129.71428571428572</ele><time>2026-04-17T16:49:30.008Z</time></trkpt><trkpt lat="46.112845094117674" lon="12.902326815269335"><ele>129.57142857142856</ele><time>2026-04-17T16:49:32.008Z</time></trkpt><trkpt lat="46.112851338137325" lon="12.902218898532027"><ele>129.42857142857144</ele><time>2026-04-17T16:49:34.008Z</time></trkpt><trkpt lat="46.11284966601442" lon="12.90211747698049"><ele>129.28571428571428</ele><time>2026-04-17T16:49:36.008Z</time></trkpt><trkpt lat="46.11284516880892" lon="12.902018788172441"><ele>129.14285714285714</ele><time>2026-04-17T16:49:38.008Z</time></trkpt><trkpt lat="46.11283674855362" lon="12.901919016503449"><ele>129.0</ele><time>2026-04-17T16:49:40.008Z</time></trkpt><trkpt lat="46.11284219775885" lon="12.901807812676012"><ele>129.75</ele><time>2026-04-17T16:49:42.008Z</time></trkpt><trkpt lat="46.11283718037444" lon="12.901647346505172"><ele>130.5</ele><time>2026-04-17T16:49:45.008Z</time></trkpt><trkpt lat="46.1128202222995" lon="12.901498289132885"><ele>131.25</ele><time>2026-04-17T16:49:47.008Z</time></trkpt><trkpt lat="46.11280753358035" lon="12.901326418530807"><ele>132.0</ele><time>2026-04-17T16:49:49.008Z</time></trkpt><trkpt lat="46.11278242872975" lon="12.9011646304348"><ele>132.0</ele><time>2026-04-17T16:49:51.008Z</time></trkpt><trkpt lat="46.11276119537825" lon="12.901067815371835"><ele>132.0</ele><time>2026-04-17T16:49:52.008Z</time></trkpt><trkpt lat="46.11274551362989" lon="12.900967894280464"><ele>132.0</ele><time>2026-04-17T16:49:53.008Z</time></trkpt><trkpt lat="46.11271645390824" lon="12.90087162936744"><ele>132.0</ele><time>2026-04-17T16:49:54.008Z</time></trkpt><trkpt lat="46.11268276384407" lon="12.900774029843928"><ele>132.0</ele><time>2026-04-17T16:49:55.008Z</time></trkpt><trkpt lat="46.11266422885482" lon="12.900661847523756"><ele>132.0</ele><time>2026-04-17T16:49:56.008Z</time></trkpt><trkpt lat="46.112635354983105" lon="12.900555722717737"><ele>132.0</ele><time>2026-04-17T16:49:57.008Z</time></trkpt><trkpt lat="46.11260489068489" lon="12.900463012996033"><ele>132.16666666666666</ele><time>2026-04-17T16:49:58.008Z</time></trkpt><trkpt lat="46.11258483286062" lon="12.900363574787683"><ele>132.33333333333334</ele><time>2026-04-17T16:49:59.008Z</time></trkpt><trkpt lat="46.11254710048145" lon="12.90026140746772"><ele>132.5</ele><time>2026-04-17T16:50:00.009Z</time></trkpt><trkpt lat="46.11251258866323" lon="12.90015550091464"><ele>132.66666666666669</ele><time>2026-04-17T16:50:01.009Z</time></trkpt><trkpt lat="46.11246940726961" lon="12.900053740658583"><ele>132.83333333333334</ele><time>2026-04-17T16:50:02.009Z</time></trkpt><trkpt lat="46.112427502884735" lon="12.899973939659022"><ele>133.0</ele><time>2026-04-17T16:50:03.009Z</time></trkpt><trkpt lat="46.112376756088786" lon="12.899873436618682"><ele>133.0</ele><time>2026-04-17T16:50:04.009Z</time></trkpt><trkpt lat="46.11231921594136" lon="12.899797384059026"><ele>133.0</ele><time>2026-04-17T16:50:05.009Z</time></trkpt><trkpt lat="46.11226286130752" lon="12.8997375440818"><ele>133.0</ele><time>2026-04-17T16:50:06.009Z</time></trkpt><trkpt lat="46.112211103678234" lon="12.899667778213527"><ele>133.0</ele><time>2026-04-17T16:50:07.009Z</time></trkpt><trkpt lat="46.11216747758927" lon="12.899599965356607"><ele>133.0</ele><time>2026-04-17T16:50:08.009Z</time></trkpt><trkpt lat="46.11210484069493" lon="12.899544260945055"><ele>133.0</ele><time>2026-04-17T16:50:09.009Z</time></trkpt><trkpt lat="46.112043055070025" lon="12.899511446406802"><ele>133.0</ele><time>2026-04-17T16:50:10.009Z</time></trkpt><trkpt lat="46.11197997061155" lon="12.899458770247453"><ele>133.0</ele><time>2026-04-17T16:50:11.009Z</time></trkpt><trkpt lat="46.11191427665659" lon="12.899420953994673"><ele>133.0</ele><time>2026-04-17T16:50:12.009Z</time></trkpt><trkpt lat="46.11184548447822" lon="12.899391954647825"><ele>133.0</ele><time>2026-04-17T16:50:13.009Z</time></trkpt><trkpt lat="46.11178987051912" lon="12.899346406454006"><ele>133.0</ele><time>2026-04-17T16:50:14.009Z</time></trkpt><trkpt lat="46.11173667456891" lon="12.899273731164262"><ele>133.0</ele><time>2026-04-17T16:50:16.009Z</time></trkpt><trkpt lat="46.11175064147614" lon="12.899129641093756"><ele>133.0</ele><time>2026-04-17T16:50:19.009Z</time></trkpt><trkpt lat="46.11180234676569" lon="12.898993487704463"><ele>132.8</ele><time>2026-04-17T16:50:21.009Z</time></trkpt><trkpt lat="46.11188140168857" lon="12.89893868117048"><ele>132.60000000000002</ele><time>2026-04-17T16:50:23.009Z</time></trkpt><trkpt lat="46.11198273214129" lon="12.898852692739531"><ele>132.39999999999998</ele><time>2026-04-17T16:50:25.009Z</time></trkpt><trkpt lat="46.11207083506635" lon="12.898773351616917"><ele>132.2</ele><time>2026-04-17T16:50:27.009Z</time></trkpt><trkpt lat="46.11214539891565" lon="12.898682524258472"><ele>132.0</ele><time>2026-04-17T16:50:29.009Z</time></trkpt><trkpt lat="46.112116625582225" lon="12.898515082650226"><ele>132.0</ele><time>2026-04-17T16:50:31.009Z</time></trkpt><trkpt lat="46.11202865699454" lon="12.89842894441448"><ele>132.0</ele><time>2026-04-17T16:50:33.009Z</time></trkpt><trkpt lat="46.11194654186749" lon="12.89840936383032"><ele>132.0</ele><time>2026-04-17T16:50:35.009Z</time></trkpt><trkpt lat="46.11183982149042" lon="12.898420201910907"><ele>132.0</ele><time>2026-04-17T16:50:37.009Z</time></trkpt><trkpt lat="46.11172802529577" lon="12.898434100308767"><ele>132.0</ele><time>2026-04-17T16:50:39.009Z</time></trkpt><trkpt lat="46.11161553246621" lon="12.898429387380657"><ele>131.66666666666666</ele><time>2026-04-17T16:50:41.01Z</time></trkpt><trkpt lat="46.11151213215541" lon="12.89843123199415"><ele>131.33333333333334</ele><time>2026-04-17T16:50:43.01Z</time></trkpt><trkpt lat="46.111410578197855" lon="12.898410679882048"><ele>131.0</ele><time>2026-04-17T16:50:45.009Z</time></trkpt><trkpt lat="46.11135964836314" lon="12.898354153948365"><ele>130.66666666666669</ele><time>2026-04-17T16:50:46.009Z</time></trkpt><trkpt lat="46.111330201687245" lon="12.898270504488265"><ele>130.33333333333334</ele><time>2026-04-17T16:50:47.009Z</time></trkpt><trkpt lat="46.11132486082702" lon="12.898111880531513"><ele>130.0</ele><time>2026-04-17T16:50:49.009Z</time></trkpt><trkpt lat="46.111323522331006" lon="12.897989716849823"><ele>129.83333333333334</ele><time>2026-04-17T16:50:51.009Z</time></trkpt><trkpt lat="46.111326641329356" lon="12.897887604752253"><ele>129.66666666666669</ele><time>2026-04-17T16:50:53.009Z</time></trkpt><trkpt lat="46.11131066682876" lon="12.897789187826309"><ele>129.5</ele><time>2026-04-17T16:50:55.009Z</time></trkpt><trkpt lat="46.111268771638834" lon="12.897678633831928"><ele>129.33333333333334</ele><time>2026-04-17T16:51:00.009Z</time></trkpt><trkpt lat="46.11119728801954" lon="12.897650692270231"><ele>129.16666666666666</ele><time>2026-04-17T16:51:02.009Z</time></trkpt><trkpt lat="46.111106450763835" lon="12.897641706579806"><ele>129.0</ele><time>2026-04-17T16:51:04.009Z</time></trkpt><trkpt lat="46.11101403299776" lon="12.897649640365113"><ele>129.0</ele><time>2026-04-17T16:51:06.009Z</time></trkpt><trkpt lat="46.11092819058461" lon="12.897591860710234"><ele>129.0</ele><time>2026-04-17T16:51:08.009Z</time></trkpt><trkpt lat="46.110910248289024" lon="12.897424276768918"><ele>129.0</ele><time>2026-04-17T16:51:10.009Z</time></trkpt><trkpt lat="46.11090238078512" lon="12.89727560230722"><ele>129.0</ele><time>2026-04-17T16:51:12.009Z</time></trkpt><trkpt lat="46.1108805448956" lon="12.897136334379985"><ele>129.0</ele><time>2026-04-17T16:51:14.009Z</time></trkpt><trkpt lat="46.110867843129476" lon="12.89699277729318"><ele>129.0</ele><time>2026-04-17T16:51:16.009Z</time></trkpt><trkpt lat="46.110854972809896" lon="12.896845691730253"><ele>129.0</ele><time>2026-04-17T16:51:18.009Z</time></trkpt><trkpt lat="46.110841574213524" lon="12.896705895799988"><ele>129.0</ele><time>2026-04-17T16:51:20.009Z</time></trkpt><trkpt lat="46.11082392298777" lon="12.896568080182506"><ele>129.0</ele><time>2026-04-17T16:51:22.01Z</time></trkpt><trkpt lat="46.11080947509523" lon="12.89643269319639"><ele>129.0</ele><time>2026-04-17T16:51:24.01Z</time></trkpt><trkpt lat="46.110797725518296" lon="12.896288110396801"><ele>129.0</ele><time>2026-04-17T16:51:26.01Z</time></trkpt><trkpt lat="46.11077306699676" lon="12.896153699177647"><ele>129.0</ele><time>2026-04-17T16:51:28.01Z</time></trkpt><trkpt lat="46.11075988084921" lon="12.896007117916986"><ele>129.0</ele><time>2026-04-17T16:51:30.01Z</time></trkpt><trkpt lat="46.11073717883956" lon="12.89587273149544"><ele>129.0</ele><time>2026-04-17T16:51:32.01Z</time></trkpt><trkpt lat="46.11073115827198" lon="12.895727779284305"><ele>129.0</ele><time>2026-04-17T16:51:34.01Z</time></trkpt><trkpt lat="46.110727543853855" lon="12.895581438091188"><ele>129.2</ele><time>2026-04-17T16:51:36.01Z</time></trkpt><trkpt lat="46.11071981385329" lon="12.895438553628807"><ele>129.4</ele><time>2026-04-17T16:51:38.01Z</time></trkpt><trkpt lat="46.110708388458" lon="12.89529322276633"><ele>129.6</ele><time>2026-04-17T16:51:40.01Z</time></trkpt><trkpt lat="46.11069899600411" lon="12.895149956118956"><ele>129.8</ele><time>2026-04-17T16:51:42.01Z</time></trkpt><trkpt lat="46.110688790371995" lon="12.894994043749241"><ele>130.0</ele><time>2026-04-17T16:51:44.01Z</time></trkpt><trkpt lat="46.11067567307042" lon="12.89485127611506"><ele>130.0</ele><time>2026-04-17T16:51:46.01Z</time></trkpt><trkpt lat="46.11065088346715" lon="12.894709151137038"><ele>130.0</ele><time>2026-04-17T16:51:48.01Z</time></trkpt><trkpt lat="46.110633123843044" lon="12.89455824588072"><ele>130.0</ele><time>2026-04-17T16:51:50.01Z</time></trkpt><trkpt lat="46.11062087984652" lon="12.89440851726961"><ele>130.0</ele><time>2026-04-17T16:51:52.01Z</time></trkpt><trkpt lat="46.11060867647512" lon="12.894237824456885"><ele>130.0</ele><time>2026-04-17T16:51:54.01Z</time></trkpt><trkpt lat="46.110593380017235" lon="12.894070336793687"><ele>129.75</ele><time>2026-04-17T16:51:56.01Z</time></trkpt><trkpt lat="46.110571306543555" lon="12.893909246742203"><ele>129.5</ele><time>2026-04-17T16:51:58.01Z</time></trkpt><trkpt lat="46.11055257261809" lon="12.89375334010708"><ele>129.25</ele><time>2026-04-17T16:52:00.01Z</time></trkpt><trkpt lat="46.11054155051984" lon="12.89358329953786"><ele>129.0</ele><time>2026-04-17T16:52:02.01Z</time></trkpt><trkpt lat="46.110529874489096" lon="12.8934227893839"><ele>129.0</ele><time>2026-04-17T16:52:04.01Z</time></trkpt><trkpt lat="46.11052302545336" lon="12.893329874995553"><ele>129.0</ele><time>2026-04-17T16:52:05.01Z</time></trkpt><trkpt lat="46.1105156321218" lon="12.893237678360553"><ele>129.0</ele><time>2026-04-17T16:52:06.01Z</time></trkpt><trkpt lat="46.110500164068426" lon="12.893060416180418"><ele>129.0</ele><time>2026-04-17T16:52:08.01Z</time></trkpt><trkpt lat="46.11048926622553" lon="12.892887431278107"><ele>129.0</ele><time>2026-04-17T16:52:10.01Z</time></trkpt><trkpt lat="46.11047405463359" lon="12.892705229071291"><ele>129.0</ele><time>2026-04-17T16:52:12.01Z</time></trkpt><trkpt lat="46.11045974403731" lon="12.892537893933989"><ele>129.0</ele><time>2026-04-17T16:52:14.01Z</time></trkpt><trkpt lat="46.11044172570304" lon="12.892370567850723"><ele>129.0</ele><time>2026-04-17T16:52:16.01Z</time></trkpt><trkpt lat="46.11043353807105" lon="12.892279344294721"><ele>129.0</ele><time>2026-04-17T16:52:17.01Z</time></trkpt><trkpt lat="46.110422782642516" lon="12.892183766260226"><ele>129.0</ele><time>2026-04-17T16:52:18.01Z</time></trkpt><trkpt lat="46.110405945877055" lon="12.89201047604868"><ele>129.0</ele><time>2026-04-17T16:52:20.01Z</time></trkpt><trkpt lat="46.1103943658991" lon="12.891841786290941"><ele>129.0</ele><time>2026-04-17T16:52:22.01Z</time></trkpt><trkpt lat="46.110400684740604" lon="12.891682205128154"><ele>129.0</ele><time>2026-04-17T16:52:24.01Z</time></trkpt><trkpt lat="46.110394986658164" lon="12.891554868138991"><ele>129.0</ele><time>2026-04-17T16:52:26.01Z</time></trkpt><trkpt lat="46.1103986099019" lon="12.891439092922141"><ele>129.0</ele><time>2026-04-17T16:52:30.01Z</time></trkpt><trkpt lat="46.110349299768465" lon="12.891357521012047"><ele>128.83333333333334</ele><time>2026-04-17T16:52:33.01Z</time></trkpt><trkpt lat="46.11027611806476" lon="12.891329351287062"><ele>128.66666666666666</ele><time>2026-04-17T16:52:35.01Z</time></trkpt><trkpt lat="46.11021820414854" lon="12.89127386212619"><ele>128.5</ele><time>2026-04-17T16:52:37.01Z</time></trkpt><trkpt lat="46.11014736305073" lon="12.89123319446895"><ele>128.33333333333331</ele><time>2026-04-17T16:52:39.01Z</time></trkpt><trkpt lat="46.110070526743236" lon="12.891203498478575"><ele>128.16666666666666</ele><time>2026-04-17T16:52:41.01Z</time></trkpt><trkpt lat="46.10998846424552" lon="12.891142707609994"><ele>128.0</ele><time>2026-04-17T16:52:43.01Z</time></trkpt><trkpt lat="46.10990288545311" lon="12.89109127637968"><ele>127.80000000000001</ele><time>2026-04-17T16:52:45.01Z</time></trkpt><trkpt lat="46.109821574313735" lon="12.891038511154065"><ele>127.60000000000001</ele><time>2026-04-17T16:52:47.01Z</time></trkpt><trkpt lat="46.10973492549372" lon="12.89099159572322"><ele>127.39999999999999</ele><time>2026-04-17T16:52:49.01Z</time></trkpt><trkpt lat="46.1096447092604" lon="12.890939504506527"><ele>127.19999999999999</ele><time>2026-04-17T16:52:51.01Z</time></trkpt><trkpt lat="46.10955663711544" lon="12.890896660616542"><ele>127.0</ele><time>2026-04-17T16:52:53.01Z</time></trkpt><trkpt lat="46.109472932119466" lon="12.89085772852378"><ele>126.8</ele><time>2026-04-17T16:52:55.01Z</time></trkpt><trkpt lat="46.10944503055803" lon="12.89074375055031"><ele>126.6</ele><time>2026-04-17T16:52:57.011Z</time></trkpt><trkpt lat="46.10948913024336" lon="12.890630744743813"><ele>126.39999999999999</ele><time>2026-04-17T16:52:59.011Z</time></trkpt><trkpt lat="46.10952981811472" lon="12.890503504202545"><ele>126.19999999999999</ele><time>2026-04-17T16:53:01.011Z</time></trkpt><trkpt lat="46.10955265833067" lon="12.890334546937687"><ele>126.0</ele><time>2026-04-17T16:53:03.011Z</time></trkpt><trkpt lat="46.109568226086125" lon="12.890193774984159"><ele>126.4</ele><time>2026-04-17T16:53:05.011Z</time></trkpt><trkpt lat="46.109568062683444" lon="12.89005787394033"><ele>126.8</ele><time>2026-04-17T16:53:07.011Z</time></trkpt><trkpt lat="46.1095667492406" lon="12.88990595567421"><ele>127.20000000000002</ele><time>2026-04-17T16:53:09.011Z</time></trkpt><trkpt lat="46.109573353159014" lon="12.889766545483967"><ele>127.60000000000001</ele><time>2026-04-17T16:53:11.011Z</time></trkpt><trkpt lat="46.10957919070969" lon="12.889643035673783"><ele>128.0</ele><time>2026-04-17T16:53:13.011Z</time></trkpt><trkpt lat="46.10958410689125" lon="12.88950582953483"><ele>127.99999999999999</ele><time>2026-04-17T16:53:15.011Z</time></trkpt><trkpt lat="46.109582299045826" lon="12.889387697768809"><ele>128.0</ele><time>2026-04-17T16:53:17.011Z</time></trkpt><trkpt lat="46.10958165871711" lon="12.889278182259371"><ele>128.0</ele><time>2026-04-17T16:53:19.011Z</time></trkpt><trkpt lat="46.10959611129785" lon="12.88913876193756"><ele>128.0</ele><time>2026-04-17T16:53:22.011Z</time></trkpt><trkpt lat="46.109583941865864" lon="12.889024373920083"><ele>127.99999999999999</ele><time>2026-04-17T16:53:25.011Z</time></trkpt><trkpt lat="46.10956125766005" lon="12.888911654982962"><ele>128.0</ele><time>2026-04-17T16:53:30.011Z</time></trkpt><trkpt lat="46.10951050778558" lon="12.888834239112006"><ele>128.14285714285714</ele><time>2026-04-17T16:53:33.011Z</time></trkpt><trkpt lat="46.1094566895887" lon="12.888749311579991"><ele>128.28571428571428</ele><time>2026-04-17T16:53:36.011Z</time></trkpt><trkpt lat="46.10940011116252" lon="12.888695767761035"><ele>128.42857142857142</ele><time>2026-04-17T16:53:39.011Z</time></trkpt><trkpt lat="46.10935073378174" lon="12.88863631978042"><ele>128.57142857142856</ele><time>2026-04-17T16:53:42.011Z</time></trkpt><trkpt lat="46.10929232944892" lon="12.888581597079845"><ele>128.71428571428572</ele><time>2026-04-17T16:53:46.011Z</time></trkpt><trkpt lat="46.10922199690047" lon="12.88858313361452"><ele>128.85714285714283</ele><time>2026-04-17T16:54:00.011Z</time></trkpt><trkpt lat="46.109171359673596" lon="12.888527377500457"><ele>129.0</ele><time>2026-04-17T16:54:22.011Z</time></trkpt><trkpt lat="46.10914277568757" lon="12.888398129324056"><ele>127.0</ele><time>2026-04-17T16:56:01.011Z</time></trkpt><trkpt lat="46.10908192561618" lon="12.88837286162159"><ele>127.0</ele><time>2026-04-17T16:56:50.012Z</time></trkpt><trkpt lat="46.10900811768566" lon="12.888376287851765"><ele>125.0</ele><time>2026-04-17T16:57:02.012Z</time></trkpt><trkpt lat="46.10910360907099" lon="12.888416810682061"><ele>127.0</ele><time>2026-04-17T16:57:32.012Z</time></trkpt><trkpt lat="46.10903600894265" lon="12.888321782454952"><ele>125.0</ele><time>2026-04-17T16:57:58.012Z</time></trkpt><trkpt lat="46.10912565310159" lon="12.888358055647439"><ele>127.0</ele><time>2026-04-17T16:59:21.013Z</time></trkpt></trkseg></trk></gpx>